Provisional Data: Driftwood Branch Sinnemahoning Creek


Please select a monitoring station.
Please select start date.
Please select start date.

Toggle Unit: C/F Toggle Unit: C/F
Sample Time Temperature (C) Temperature (F) Specific Conductivity (mS/cm) pH   Turbidity (NTU+) DO (mg/L)
1/12/2021 12:00:00 AM 1.57 34.826 0.055 6.6 13.26 13.38
1/12/2021 12:15:00 AM 1.57 34.826 0.055 6.61 14.72 13.39
1/12/2021 12:30:00 AM 1.58 34.844 0.055 6.62 14.44 13.38
1/12/2021 12:45:00 AM 1.58 34.844 0.055 6.63 13.97 13.39
1/12/2021 1:00:00 AM 1.57 34.826 0.055 6.62 12.4 13.39
1/12/2021 1:15:00 AM 1.56 34.808 0.055 6.63 11.27 13.39
1/12/2021 1:30:00 AM 1.56 34.808 0.055 6.62 14.42 13.39
1/12/2021 1:45:00 AM 1.56 34.808 0.055 6.62 13.22 13.4
1/12/2021 2:00:00 AM 1.56 34.808 0.055 6.63 13.41 13.39
1/12/2021 2:15:00 AM 1.56 34.808 0.055 6.62 13.79 13.39
1/12/2021 2:30:00 AM 1.56 34.808 0.055 6.61 13.74 13.39
1/12/2021 2:45:00 AM 1.56 34.808 0.055 6.64 12.59 13.39
1/12/2021 3:00:00 AM 1.56 34.808 0.055 6.62 14.4 13.39
1/12/2021 3:15:00 AM 1.55 34.79 0.055 6.62 13.45 13.39
1/12/2021 3:30:00 AM 1.55 34.79 0.055 6.64 13.84 13.4
1/12/2021 3:45:00 AM 1.54 34.772 0.055 6.63 14.33 13.39
1/12/2021 4:00:00 AM 1.53 34.754 0.055 6.62 13.26 13.4
1/12/2021 4:15:00 AM 1.52 34.736 0.055 6.62 12.99 13.4
1/12/2021 4:30:00 AM 1.52 34.736 0.055 6.63 13.72 13.4
1/12/2021 4:45:00 AM 1.51 34.718 0.055 6.62 14.47 13.4
1/12/2021 5:00:00 AM 1.51 34.718 0.055 6.63 13.21 13.4
1/12/2021 5:15:00 AM 1.5 34.7 0.055 6.62 12.99 13.4
1/12/2021 5:30:00 AM 1.5 34.7 0.055 6.63 14.35 13.41
1/12/2021 5:45:00 AM 1.49 34.682 0.055 6.62 10.89 13.41
1/12/2021 6:00:00 AM 1.48 34.664 0.055 6.63 12.45 13.41
1/12/2021 6:15:00 AM 1.47 34.646 0.055 6.63 11.85 13.42
1/12/2021 6:30:00 AM 1.46 34.628 0.055 6.62 13.3 13.42
1/12/2021 6:45:00 AM 1.43 34.574 0.055 6.62 13.24 13.43
1/12/2021 7:00:00 AM 1.41 34.538 0.055 6.62 13.92 13.44
1/12/2021 7:15:00 AM 1.4 34.52 0.055 6.64 13.7 13.44
1/12/2021 7:30:00 AM 1.38 34.484 0.055 6.63 15.3 13.45
1/12/2021 7:45:00 AM 1.39 34.502 0.055 6.63 13.54 13.45
1/12/2021 8:00:00 AM 1.38 34.484 0.055 6.63 12.95 13.46
1/12/2021 8:15:00 AM 1.38 34.484 0.055 6.63 12.81 13.48
1/12/2021 8:30:00 AM 1.38 34.484 0.055 6.63 12.92 13.5
1/12/2021 8:45:00 AM 1.38 34.484 0.055 6.64 11.85 13.52
1/12/2021 9:00:00 AM 1.38 34.484 0.055 6.65 11.13 13.55
1/12/2021 9:15:00 AM 1.38 34.484 0.055 6.65 11.95 13.58
1/12/2021 9:30:00 AM 1.38 34.484 0.055 6.64 12.6 13.6
1/12/2021 9:45:00 AM 1.38 34.484 0.055 6.65 12.7 13.62
1/12/2021 10:00:00 AM 1.4 34.52 0.055 6.65 11.98 13.64
1/12/2021 10:15:00 AM 1.42 34.556 0.055 6.67 12.25 13.65
1/12/2021 10:30:00 AM 1.45 34.61 0.055 6.67 12.28 13.66
1/12/2021 10:45:00 AM 1.49 34.682 0.055 6.68 12.12 13.67
1/12/2021 11:00:00 AM 1.55 34.79 0.055 6.69 12.38 13.66
1/12/2021 11:15:00 AM 1.65 34.97 0.055 6.71 12.01 13.67
1/12/2021 11:30:00 AM 1.73 35.114 0.054 6.71 12.67 13.65
1/12/2021 11:45:00 AM 1.8 35.24 0.054 6.71 13.5 13.63
1/12/2021 12:00:00 PM 1.85 35.33 0.054 6.71 12.08 13.62
1/12/2021 12:15:00 PM 1.93 35.474 0.054 6.72 11.17 13.6
1/12/2021 12:30:00 PM 2.02 35.636 0.054 6.73 12.36 13.57
1/12/2021 12:45:00 PM 2.09 35.762 0.054 6.73 11.68 13.55
1/12/2021 1:00:00 PM 2.15 35.87 0.054 6.73 11.43 13.52
1/12/2021 1:15:00 PM 2.21 35.978 0.054 6.73 11.91 13.51
1/12/2021 1:30:00 PM 2.27 36.086 0.054 6.73 10.75 13.48
1/12/2021 1:45:00 PM 2.32 36.176 0.054 6.73 11.43 13.47
1/12/2021 2:00:00 PM 2.35 36.23 0.054 6.73 11.73 13.44
1/12/2021 2:15:00 PM 2.38 36.284 0.054 6.73 12.02 13.42
1/12/2021 2:30:00 PM 2.39 36.302 0.054 6.72 10.86 13.39
1/12/2021 2:45:00 PM 2.39 36.302 0.054 6.72 11.72 13.38
1/12/2021 3:00:00 PM 2.38 36.284 0.054 6.71 11.07 13.36
1/12/2021 3:15:00 PM 2.37 36.266 0.054 6.72 10.8 13.34
1/12/2021 3:30:00 PM 2.36 36.248 0.054 6.7 10.26 13.32
1/12/2021 3:45:00 PM 2.33 36.194 0.054 6.71 11.13 13.31
1/12/2021 4:00:00 PM 2.3 36.14 0.054 6.69 10.57 13.31
1/12/2021 4:15:00 PM 2.28 36.104 0.054 6.69 10.79 13.28
1/12/2021 4:30:00 PM 2.26 36.068 0.054 6.68 10.87 13.27
1/12/2021 4:45:00 PM 2.23 36.014 0.054 6.67 11.42 13.25
1/12/2021 5:00:00 PM 2.21 35.978 0.054 6.67 11.17 13.24
1/12/2021 5:15:00 PM 2.19 35.942 0.054 6.66 11.43 13.22
1/12/2021 5:30:00 PM 2.16 35.888 0.054 6.66 11.28 13.21
1/12/2021 5:45:00 PM 2.14 35.852 0.054 6.65 10.79 13.2
1/12/2021 6:00:00 PM 2.11 35.798 0.055 6.65 10.66 13.2
1/12/2021 6:15:00 PM 2.09 35.762 0.055 6.65 11.28 13.19
1/12/2021 6:30:00 PM 2.07 35.726 0.055 6.62 10.77 13.19
1/12/2021 6:45:00 PM 2.05 35.69 0.055 6.64 10.81 13.2
1/12/2021 7:00:00 PM 2.03 35.654 0.055 6.64 10.75 13.2
1/12/2021 7:15:00 PM 2.01 35.618 0.055 6.62 11.82 13.2
1/12/2021 7:30:00 PM 2 35.6 0.055 6.62 10.57 13.2
1/12/2021 7:45:00 PM 1.98 35.564 0.055 6.63 12.04 13.21
1/12/2021 8:00:00 PM 1.97 35.546 0.055 6.63 11.98 13.22
1/12/2021 8:15:00 PM 1.95 35.51 0.055 6.62 12.59 13.22
1/12/2021 8:30:00 PM 1.94 35.492 0.055 6.63 11.55 13.22
1/12/2021 8:45:00 PM 1.92 35.456 0.055 6.63 11.74 13.23
1/12/2021 9:00:00 PM 1.9 35.42 0.055 6.63 11.53 13.24
1/12/2021 9:15:00 PM 1.89 35.402 0.055 6.63 11.71 13.24
1/12/2021 9:30:00 PM 1.87 35.366 0.055 6.62 12.68 13.25
1/12/2021 9:45:00 PM 1.86 35.348 0.055 6.62 11.22 13.25
1/12/2021 10:00:00 PM 1.84 35.312 0.055 6.62 10.35 13.26
1/12/2021 10:15:00 PM 1.82 35.276 0.055 6.61 10.69 13.27
1/12/2021 10:30:00 PM 1.8 35.24 0.055 6.62 11.63 13.27
1/12/2021 10:45:00 PM 1.78 35.204 0.055 6.63 12.31 13.28
1/12/2021 11:00:00 PM 1.77 35.186 0.055 6.62 12.31 13.29
1/12/2021 11:15:00 PM 1.76 35.168 0.055 6.63 11.75 13.29
1/12/2021 11:30:00 PM 1.75 35.15 0.055 6.61 10.62 13.3
1/12/2021 11:45:00 PM 1.73 35.114 0.055 6.63 10.6 13.3
1/13/2021 12:00:00 AM 1.71 35.078 0.055 6.62 10.78 13.31
1/13/2021 12:15:00 AM 1.69 35.042 0.055 6.63 11.44 13.31
1/13/2021 12:30:00 AM 1.68 35.024 0.055 6.63 11.16 13.31
1/13/2021 12:45:00 AM 1.66 34.988 0.055 6.64 11.13 13.32
1/13/2021 1:00:00 AM 1.64 34.952 0.055 6.63 11.63 13.32
1/13/2021 1:15:00 AM 1.63 34.934 0.055 6.64 10.41 13.33
1/13/2021 1:30:00 AM 1.61 34.898 0.055 6.61 11.15 13.33
1/13/2021 1:45:00 AM 1.6 34.88 0.055 6.62 10.51 13.34
1/13/2021 2:00:00 AM 1.58 34.844 0.055 6.62 10.75 13.35
1/13/2021 2:15:00 AM 1.57 34.826 0.055 6.63 11.33 13.35
1/13/2021 2:30:00 AM 1.56 34.808 0.055 6.64 10.9 13.36
1/13/2021 2:45:00 AM 1.54 34.772 0.055 6.64 10.76 13.36
1/13/2021 3:00:00 AM 1.53 34.754 0.055 6.63 10.51 13.37
1/13/2021 3:15:00 AM 1.52 34.736 0.056 6.63 11.06 13.37
1/13/2021 3:30:00 AM 1.51 34.718 0.055 6.62 11.15 13.38
1/13/2021 3:45:00 AM 1.5 34.7 0.056 6.61 10.37 13.38
1/13/2021 4:00:00 AM 1.48 34.664 0.055 6.62 10.96 13.39
1/13/2021 4:15:00 AM 1.47 34.646 0.055 6.63 11.14 13.39
1/13/2021 4:30:00 AM 1.46 34.628 0.055 6.62 10.6 13.39
1/13/2021 4:45:00 AM 1.46 34.628 0.055 6.63 9.96 13.39
1/13/2021 5:00:00 AM 1.45 34.61 0.055 6.62 10.59 13.39
1/13/2021 5:15:00 AM 1.44 34.592 0.055 6.62 10.16 13.4
1/13/2021 5:30:00 AM 1.43 34.574 0.055 6.62 10.7 13.4
1/13/2021 5:45:00 AM 1.43 34.574 0.055 6.63 10.06 13.4
1/13/2021 6:00:00 AM 1.42 34.556 0.055 6.62 10.06 13.4
1/13/2021 6:15:00 AM 1.41 34.538 0.055 6.63 9.96 13.41
1/13/2021 6:30:00 AM 1.4 34.52 0.055 6.62 11.13 13.41
1/13/2021 6:45:00 AM 1.4 34.52 0.055 6.62 11.08 13.41
1/13/2021 7:00:00 AM 1.39 34.502 0.055 6.63 11.72 13.41
1/13/2021 7:15:00 AM 1.38 34.484 0.055 6.64 11.19 13.41
1/13/2021 7:30:00 AM 1.38 34.484 0.055 6.63 10.85 13.42
1/13/2021 7:45:00 AM 1.37 34.466 0.055 6.62 11.2 13.42
1/13/2021 8:00:00 AM 1.36 34.448 0.055 6.61 12.52 13.43
1/13/2021 8:15:00 AM 1.35 34.43 0.055 6.62 12.5 13.43
1/13/2021 8:30:00 AM 1.34 34.412 0.055 6.62 11.51 13.44
1/13/2021 8:45:00 AM 1.34 34.412 0.055 6.63 11.45 13.46
1/13/2021 9:00:00 AM 1.34 34.412 0.055 6.62 12.63 13.49
1/13/2021 9:15:00 AM 1.35 34.43 0.055 6.65 12.6 13.51
1/13/2021 9:30:00 AM 1.35 34.43 0.055 6.63 12.73 13.53
1/13/2021 9:45:00 AM 1.36 34.448 0.055 6.65 12.83 13.55
1/13/2021 10:00:00 AM 1.38 34.484 0.055 6.65 12.97 13.58
1/13/2021 10:15:00 AM 1.41 34.538 0.055 6.68 13 13.59
1/13/2021 10:30:00 AM 1.44 34.592 0.055 6.67 13.45 13.6
1/13/2021 10:45:00 AM 1.49 34.682 0.055 6.69 12.32 13.61
1/13/2021 11:00:00 AM 1.53 34.754 0.055 6.7 10.44 13.61
1/13/2021 11:15:00 AM 1.57 34.826 0.055 6.7 9.94 13.62
1/13/2021 11:30:00 AM 1.61 34.898 0.055 6.7 12.06 13.61
1/13/2021 11:45:00 AM 1.65 34.97 0.055 6.71 13.68 13.6
1/13/2021 12:00:00 PM 1.69 35.042 0.055 6.71 11.71 13.59
1/13/2021 12:15:00 PM 1.72 35.096 0.055 6.71 11.69 13.58
1/13/2021 12:30:00 PM 1.75 35.15 0.055 6.71 11.78 13.57
1/13/2021 12:45:00 PM 1.8 35.24 0.055 6.72 11.41 13.56
1/13/2021 1:00:00 PM 1.83 35.294 0.055 6.71 13.73 13.55
1/13/2021 1:15:00 PM 1.87 35.366 0.055 6.72 14.6 13.53
1/13/2021 1:30:00 PM 1.93 35.474 0.055 6.72 13.44 13.52
1/13/2021 1:45:00 PM 2.02 35.636 0.055 6.73 12.08 13.5
1/13/2021 2:00:00 PM 2.08 35.744 0.055 6.74 11.76 13.48
1/13/2021 2:15:00 PM 2.14 35.852 0.055 6.73 12.91 13.46
1/13/2021 2:30:00 PM 2.17 35.906 0.055 6.74 11.9 13.43
1/13/2021 2:45:00 PM 2.2 35.96 0.055 6.73 13.24 13.4
1/13/2021 3:00:00 PM 2.22 35.996 0.055 6.73 12.26 13.39
1/13/2021 3:15:00 PM 2.24 36.032 0.054 6.72 13.76 13.38
1/13/2021 3:30:00 PM 2.25 36.05 0.055 6.73 12.25 13.35
1/13/2021 3:45:00 PM 2.28 36.104 0.054 6.72 11.18 13.34
1/13/2021 4:00:00 PM 2.31 36.158 0.055 6.72 13.25 13.31
1/13/2021 4:15:00 PM 2.32 36.176 0.054 6.73 13.6 13.29
1/13/2021 4:30:00 PM 2.33 36.194 0.054 6.72 12.29 13.27
1/13/2021 4:45:00 PM 2.32 36.176 0.055 6.71 11.95 13.23
1/13/2021 5:00:00 PM 2.31 36.158 0.055 6.71 10.95 13.2
1/13/2021 5:15:00 PM 2.29 36.122 0.055 6.7 11.35 13.17
1/13/2021 5:30:00 PM 2.28 36.104 0.055 6.69 11.8 13.13
1/13/2021 5:45:00 PM 2.27 36.086 0.055 6.68 11.94 13.11
1/13/2021 6:00:00 PM 2.26 36.068 0.055 6.66 12.49 13.09
1/13/2021 6:15:00 PM 2.25 36.05 0.055 6.66 10.54 13.07
1/13/2021 6:30:00 PM 2.24 36.032 0.055 6.66 12.67 13.06
1/13/2021 6:45:00 PM 2.22 35.996 0.055 6.66 11.61 13.05
1/13/2021 7:00:00 PM 2.21 35.978 0.055 6.65 11.46 13.05
1/13/2021 7:15:00 PM 2.2 35.96 0.055 6.66 11.81 13.03
1/13/2021 7:30:00 PM 2.18 35.924 0.055 6.65 13.67 13.03
1/13/2021 7:45:00 PM 2.17 35.906 0.055 6.64 13.54 13.04
1/13/2021 8:00:00 PM 2.15 35.87 0.055 6.64 12.98 13.04
1/13/2021 8:15:00 PM 2.14 35.852 0.055 6.63 12.28 13.04
1/13/2021 8:30:00 PM 2.12 35.816 0.055 6.63 12.36 13.05
1/13/2021 8:45:00 PM 2.11 35.798 0.055 6.64 12.37 13.06
1/13/2021 9:00:00 PM 2.09 35.762 0.055 6.64 13.09 13.06
1/13/2021 9:15:00 PM 2.07 35.726 0.055 6.64 11.41 13.06
1/13/2021 9:30:00 PM 2.05 35.69 0.055 6.63 10.81 13.07
1/13/2021 9:45:00 PM 2.04 35.672 0.055 6.62 12.96 13.07
1/13/2021 10:00:00 PM 2.02 35.636 0.055 6.62 13.82 13.08
1/13/2021 10:15:00 PM 2 35.6 0.055 6.63 13.04 13.09
1/13/2021 10:30:00 PM 1.99 35.582 0.055 6.64 13.24 13.09
1/13/2021 10:45:00 PM 1.98 35.564 0.056 6.63 12.07 13.1
1/13/2021 11:00:00 PM 1.97 35.546 0.055 6.64 13.14 13.1
1/13/2021 11:15:00 PM 1.95 35.51 0.055 6.62 11.43 13.1
1/13/2021 11:30:00 PM 1.94 35.492 0.055 6.63 12.54 13.11
1/13/2021 11:45:00 PM 1.93 35.474 0.055 6.64 12.14 13.11
1/14/2021 12:00:00 AM 1.92 35.456 0.055 6.62 11.72 13.11
1/14/2021 12:15:00 AM 1.91 35.438 0.055 6.63 11.33 13.12
1/14/2021 12:30:00 AM 1.9 35.42 0.055 6.62 14.27 13.12
1/14/2021 12:45:00 AM 1.89 35.402 0.056 6.64 12.17 13.12
1/14/2021 1:00:00 AM 1.88 35.384 0.056 6.63 13.08 13.12
1/14/2021 1:15:00 AM 1.87 35.366 0.055 6.61 12.54 13.13
1/14/2021 1:30:00 AM 1.86 35.348 0.056 6.62 13.02 13.13
1/14/2021 1:45:00 AM 1.86 35.348 0.056 6.62 12.36 13.13
1/14/2021 2:00:00 AM 1.85 35.33 0.056 6.62 11.24 13.13
1/14/2021 2:15:00 AM 1.85 35.33 0.056 6.63 11.97 13.14
1/14/2021 2:30:00 AM 1.84 35.312 0.056 6.62 13.76 13.14
1/14/2021 2:45:00 AM 1.84 35.312 0.056 6.63 11.97 13.15
1/14/2021 3:00:00 AM 1.83 35.294 0.056 6.64 12.56 13.15
1/14/2021 3:15:00 AM 1.83 35.294 0.056 6.65 11.91 13.15
1/14/2021 3:30:00 AM 1.83 35.294 0.056 6.63 12.89 13.15
1/14/2021 3:45:00 AM 1.83 35.294 0.056 6.64 12.78 13.15
1/14/2021 4:00:00 AM 1.83 35.294 0.056 6.63 13.56 13.14
1/14/2021 4:15:00 AM 1.82 35.276 0.056 6.62 12.3 13.15
1/14/2021 4:30:00 AM 1.82 35.276 0.056 6.62 14.66 13.15
1/14/2021 4:45:00 AM 1.82 35.276 0.056 6.63 12.58 13.14
1/14/2021 5:00:00 AM 1.82 35.276 0.056 6.62 13.36 13.14
1/14/2021 5:15:00 AM 1.82 35.276 0.056 6.63 14.4 13.14
1/14/2021 5:30:00 AM 1.82 35.276 0.056 6.65 13.06 13.14
1/14/2021 5:45:00 AM 1.82 35.276 0.056 6.62 11.97 13.15
1/14/2021 6:00:00 AM 1.82 35.276 0.056 6.63 13.63 13.15
1/14/2021 6:15:00 AM 1.82 35.276 0.056 6.62 12.51 13.15
1/14/2021 6:30:00 AM 1.81 35.258 0.056 6.62 12.68 13.14
1/14/2021 6:45:00 AM 1.81 35.258 0.056 6.62 14.07 13.15
1/14/2021 7:00:00 AM 1.81 35.258 0.056 6.63 15.47 13.15
1/14/2021 7:15:00 AM 1.82 35.276 0.056 6.63 12.19 13.15
1/14/2021 7:30:00 AM 1.82 35.276 0.056 6.62 14.73 13.15
1/14/2021 7:45:00 AM 1.82 35.276 0.055 6.63 13.19 13.15
1/14/2021 8:00:00 AM 1.81 35.258 0.056 6.63 13.66 13.16
1/14/2021 8:15:00 AM 1.8 35.24 0.055 6.63 14.1 13.18
1/14/2021 8:30:00 AM 1.79 35.222 0.055 6.63 14.82 13.19
1/14/2021 8:45:00 AM 1.79 35.222 0.055 6.66 12.93 13.22
1/14/2021 9:00:00 AM 1.8 35.24 0.056 6.64 13.4 13.25
1/14/2021 9:15:00 AM 1.82 35.276 0.055 6.66 12.14 13.28
1/14/2021 9:30:00 AM 1.85 35.33 0.055 6.66 12.19 13.31
1/14/2021 9:45:00 AM 1.89 35.402 0.055 6.67 13.64 13.34
1/14/2021 10:00:00 AM 1.93 35.474 0.055 6.69 13.86 13.35
1/14/2021 10:15:00 AM 1.99 35.582 0.055 6.69 11.6 13.37
1/14/2021 10:30:00 AM 2.05 35.69 0.055 6.7 13.23 13.37
1/14/2021 10:45:00 AM 2.12 35.816 0.055 6.72 11.48 13.38
1/14/2021 11:00:00 AM 2.22 35.996 0.055 6.73 11.67 13.37
1/14/2021 11:15:00 AM 2.3 36.14 0.055 6.73 14.88 13.36
1/14/2021 11:30:00 AM 2.39 36.302 0.055 6.74 12.01 13.33
1/14/2021 11:45:00 AM 2.48 36.464 0.055 6.75 13.74 13.3
1/14/2021 12:00:00 PM 2.54 36.572 0.055 6.75 12.26 13.28
1/14/2021 12:15:00 PM 2.6 36.68 0.055 6.75 12.43 13.25
1/14/2021 12:30:00 PM 2.66 36.788 0.055 6.75 12.56 13.23
1/14/2021 12:45:00 PM 2.71 36.878 0.055 6.75 13.01 13.2
1/14/2021 1:00:00 PM 2.76 36.968 0.055 6.75 14.72 13.18
1/14/2021 1:15:00 PM 2.82 37.076 0.055 6.76 14.32 13.16
1/14/2021 1:30:00 PM 2.9 37.22 0.055 6.77 12.12 13.14
1/14/2021 1:45:00 PM 2.97 37.346 0.055 6.76 12.81 13.12
1/14/2021 2:00:00 PM 3.03 37.454 0.055 6.77 13.53 13.1
1/14/2021 2:15:00 PM 3.1 37.58 0.054 6.78 12.83 13.08
1/14/2021 2:30:00 PM 3.16 37.688 0.054 6.77 14.1 13.06
1/14/2021 2:45:00 PM 3.26 37.868 0.054 6.78 12.64 13.04
1/14/2021 3:00:00 PM 3.31 37.958 0.055 6.77 14.21 13.01
1/14/2021 3:15:00 PM 3.36 38.048 0.054 6.78 14.26 12.99
1/14/2021 3:30:00 PM 3.38 38.084 0.054 6.77 15.35 12.97
1/14/2021 3:45:00 PM 3.39 38.102 0.054 6.77 11.89 12.94
1/14/2021 4:00:00 PM 3.39 38.102 0.054 6.76 11.98 12.92
1/14/2021 4:15:00 PM 3.36 38.048 0.054 6.75 12.94 12.89
1/14/2021 4:30:00 PM 3.32 37.976 0.054 6.75 13.54 12.87
1/14/2021 4:45:00 PM 3.29 37.922 0.054 6.74 12.92 12.84
1/14/2021 5:00:00 PM 3.24 37.832 0.055 6.72 9.75 12.81
1/14/2021 5:15:00 PM 3.2 37.76 0.055 6.7 15.29 12.79
1/14/2021 5:30:00 PM 3.15 37.67 0.055 6.7 13.52 12.76
1/14/2021 5:45:00 PM 3.1 37.58 0.055 6.7 8.83 12.74
1/14/2021 6:00:00 PM 3.05 37.49 0.055 6.69 13.66 12.74
1/14/2021 6:15:00 PM 3 37.4 0.055 6.68 12.93 12.73
1/14/2021 6:30:00 PM 2.94 37.292 0.055 6.68 14.71 12.74
1/14/2021 6:45:00 PM 2.89 37.202 0.055 6.66 13.83 12.75
1/14/2021 7:00:00 PM 2.84 37.112 0.055 6.66 12.83 12.75
1/14/2021 7:15:00 PM 2.79 37.022 0.055 6.66 13.78 12.77
1/14/2021 7:30:00 PM 2.74 36.932 0.055 6.64 19.47 12.78
1/14/2021 7:45:00 PM 2.69 36.842 0.055 6.64 8.96 12.79
1/14/2021 8:00:00 PM 2.65 36.77 0.055 6.65 13.33 12.81
1/14/2021 8:15:00 PM 2.6 36.68 0.055 6.64 13.9 12.82
1/14/2021 8:30:00 PM 2.56 36.608 0.055 6.63 9.42 12.84
1/14/2021 8:45:00 PM 2.51 36.518 0.055 6.64 14.15 12.85
1/14/2021 9:00:00 PM 2.47 36.446 0.055 6.63 11.65 12.88
1/14/2021 9:15:00 PM 2.43 36.374 0.055 6.63 13.39 12.89
1/14/2021 9:30:00 PM 2.39 36.302 0.055 6.66 12.16 12.91
1/14/2021 9:45:00 PM 2.35 36.23 0.056 6.64 17.04 12.91
1/14/2021 10:00:00 PM 2.32 36.176 0.055 6.65 12.69 12.94
1/14/2021 10:15:00 PM 2.28 36.104 0.056 6.64 13.57 12.95
1/14/2021 10:30:00 PM 2.25 36.05 0.056 6.63 15.35 12.97
1/14/2021 10:45:00 PM 2.21 35.978 0.056 6.63 11.28 12.97
1/14/2021 11:00:00 PM 2.18 35.924 0.056 6.62 15.2 13
1/14/2021 11:15:00 PM 2.14 35.852 0.056 6.64 11.54 13.01
1/14/2021 11:30:00 PM 2.1 35.78 0.056 6.62 13.98 13.02
1/14/2021 11:45:00 PM 2.05 35.69 0.056 6.63 11.65 13.04
1/15/2021 12:00:00 AM 2.01 35.618 0.056 6.62 9.58 13.05
1/15/2021 12:15:00 AM 1.97 35.546 0.056 6.63 14.29 13.06
1/15/2021 12:30:00 AM 1.94 35.492 0.056 6.64 14.99 13.08
1/15/2021 12:45:00 AM 1.91 35.438 0.056 6.62 12.11 13.09
1/15/2021 1:00:00 AM 1.88 35.384 0.056 6.62 15.29 13.1
1/15/2021 1:15:00 AM 1.86 35.348 0.056 6.62 13.1 13.11
1/15/2021 1:30:00 AM 1.84 35.312 0.056 6.63 12.66 13.13
1/15/2021 1:45:00 AM 1.83 35.294 0.056 6.62 12.71 13.14
1/15/2021 2:00:00 AM 1.81 35.258 0.056 6.63 14.5 13.15
1/15/2021 2:15:00 AM 1.78 35.204 0.056 6.63 11.48 13.16
1/15/2021 2:30:00 AM 1.76 35.168 0.056 6.62 12.72 13.17
1/15/2021 2:45:00 AM 1.73 35.114 0.056 6.62 13.86 13.19
1/15/2021 3:00:00 AM 1.7 35.06 0.056 6.63 12.62 13.19
1/15/2021 3:15:00 AM 1.68 35.024 0.056 6.62 12.04 13.2
1/15/2021 3:30:00 AM 1.66 34.988 0.056 6.63 13.26 13.21
1/15/2021 3:45:00 AM 1.64 34.952 0.056 6.64 14.07 13.22
1/15/2021 4:00:00 AM 1.62 34.916 0.056 6.61 11.49 13.22
1/15/2021 4:15:00 AM 1.6 34.88 0.056 6.62 10.56 13.23
1/15/2021 4:30:00 AM 1.57 34.826 0.056 6.62 13.62 13.23
1/15/2021 4:45:00 AM 1.54 34.772 0.056 6.61 12.64 13.24
1/15/2021 5:00:00 AM 1.51 34.718 0.056 6.62 9.76 13.25
1/15/2021 5:15:00 AM 1.49 34.682 0.056 6.62 12.64 13.26
1/15/2021 5:30:00 AM 1.47 34.646 0.056 6.61 10.14 13.27
1/15/2021 5:45:00 AM 1.45 34.61 0.056 6.61 9.75 13.27
1/15/2021 6:00:00 AM 1.43 34.574 0.056 6.62 14.04 13.28
1/15/2021 6:15:00 AM 1.41 34.538 0.056 6.62 10.28 13.29
1/15/2021 6:30:00 AM 1.4 34.52 0.056 6.64 11.56 13.3
1/15/2021 6:45:00 AM 1.39 34.502 0.056 6.62 10.42 13.3
1/15/2021 7:00:00 AM 1.38 34.484 0.056 6.63 11.63 13.31
1/15/2021 7:15:00 AM 1.37 34.466 0.056 6.62 11.25 13.31
1/15/2021 7:30:00 AM 1.37 34.466 0.056 6.64 12.75 13.32
1/15/2021 7:45:00 AM 1.36 34.448 0.056 6.62 11.54 13.32
1/15/2021 8:00:00 AM 1.36 34.448 0.056 6.64 16.61 13.33
1/15/2021 8:15:00 AM 1.36 34.448 0.056 6.63 11.35 13.35
1/15/2021 8:30:00 AM 1.38 34.484 0.056 6.64 12.42 13.38
1/15/2021 8:45:00 AM 1.4 34.52 0.056 6.64 11.64 13.42
1/15/2021 9:00:00 AM 1.44 34.592 0.056 6.64 12.24 13.45
1/15/2021 9:15:00 AM 1.48 34.664 0.056 6.66 11.78 13.47
1/15/2021 9:30:00 AM 1.52 34.736 0.056 6.67 12.9 13.49
1/15/2021 9:45:00 AM 1.58 34.844 0.056 6.69 13.03 13.51
1/15/2021 10:00:00 AM 1.64 34.952 0.056 6.69 13.09 13.51
1/15/2021 10:15:00 AM 1.68 35.024 0.056 6.72 12.81 13.51
1/15/2021 10:30:00 AM 1.72 35.096 0.056 6.72 14.93 13.51
1/15/2021 10:45:00 AM 1.78 35.204 0.056 6.74 12.64 13.5
1/15/2021 11:00:00 AM 1.85 35.33 0.056 6.73 13.21 13.49
1/15/2021 11:15:00 AM 1.92 35.456 0.056 6.73 11.59 13.48
1/15/2021 11:30:00 AM 2 35.6 0.056 6.74 17.97 13.46
1/15/2021 11:45:00 AM 2.07 35.726 0.056 6.75 20.74 13.44
1/15/2021 12:00:00 PM 2.13 35.834 0.056 6.76 13.97 13.43
1/15/2021 12:15:00 PM 2.19 35.942 0.055 6.77 12.46 13.41
1/15/2021 12:30:00 PM 2.24 36.032 0.055 6.77 13.71 13.38
1/15/2021 12:45:00 PM 2.28 36.104 0.056 6.76 13.32 13.36
1/15/2021 1:00:00 PM 2.34 36.212 0.055 6.77 13.71 13.33
1/15/2021 1:15:00 PM 2.39 36.302 0.055 6.78 14.81 13.3
1/15/2021 1:30:00 PM 2.5 36.5 0.055 6.79 13.37 13.29
1/15/2021 1:45:00 PM 2.59 36.662 0.055 6.79 13.31 13.26
1/15/2021 2:00:00 PM 2.64 36.752 0.055 6.78 13.73 13.23
1/15/2021 2:15:00 PM 2.67 36.806 0.055 6.78 23.53 13.2
1/15/2021 2:30:00 PM 2.68 36.824 0.055 6.77 13.53 13.17
1/15/2021 2:45:00 PM 2.69 36.842 0.055 6.77 23.27 13.15
1/15/2021 3:00:00 PM 2.71 36.878 0.055 6.77 11.58 13.13
1/15/2021 3:15:00 PM 2.72 36.896 0.055 6.76 21.7 13.11
1/15/2021 3:30:00 PM 2.74 36.932 0.055 6.77 14.96 13.09
1/15/2021 3:45:00 PM 2.76 36.968 0.055 6.76 10.88 13.07
1/15/2021 4:00:00 PM 2.77 36.986 0.055 6.75 10.11 13.04
1/15/2021 4:15:00 PM 2.77 36.986 0.055 6.75 13.46 13
1/15/2021 4:30:00 PM 2.77 36.986 0.055 6.74 11.32 12.96
1/15/2021 4:45:00 PM 2.77 36.986 0.055 6.73 15.28 12.92
1/15/2021 5:00:00 PM 2.77 36.986 0.055 6.73 12.87 12.89
1/15/2021 5:15:00 PM 2.77 36.986 0.055 6.71 20.49 12.86
1/15/2021 5:30:00 PM 2.77 36.986 0.055 6.7 19.22 12.83
1/15/2021 5:45:00 PM 2.77 36.986 0.083 6.75 14.39 12.82
1/15/2021 6:00:00 PM 2.77 36.986 0.089 6.75 10.02 12.79
1/15/2021 6:15:00 PM 2.77 36.986 0.074 6.72 24.22 12.78
1/15/2021 6:30:00 PM 2.76 36.968 0.09 6.75 17.04 12.77
1/15/2021 6:45:00 PM 2.75 36.95 0.078 6.71 13.48 12.77
1/15/2021 7:00:00 PM 2.75 36.95 0.069 6.7 20.61 12.77
1/15/2021 7:15:00 PM 2.74 36.932 0.064 6.68 17.23 12.76
1/15/2021 7:30:00 PM 2.74 36.932 0.061 6.68 15.9 12.76
1/15/2021 7:45:00 PM 2.73 36.914 0.059 6.66 22.54 12.76
1/15/2021 8:00:00 PM 2.73 36.914 0.06 6.66 15.11 12.76
1/15/2021 8:15:00 PM 2.72 36.896 0.067 6.67 28.21 12.76
1/15/2021 8:30:00 PM 2.71 36.878 0.064 6.66 34.19 12.76
1/15/2021 8:45:00 PM 2.7 36.86 0.061 6.66 23.61 12.77
1/15/2021 9:00:00 PM 2.7 36.86 0.063 6.66 25.01 12.77
1/15/2021 9:15:00 PM 2.69 36.842 0.062 6.66 25.57 12.78
1/15/2021 9:30:00 PM 2.67 36.806 0.06 6.65 28.66 12.78
1/15/2021 9:45:00 PM 2.66 36.788 0.059 6.64 21.43 12.78
1/15/2021 10:00:00 PM 2.64 36.752 0.059 6.64 19.77 12.79
1/15/2021 10:15:00 PM 2.63 36.734 0.059 6.64 16.78 12.79
1/15/2021 10:30:00 PM 2.6 36.68 0.059 6.65 16.65 12.8
1/15/2021 10:45:00 PM 2.57 36.626 0.06 6.65 23.35 12.8
1/15/2021 11:00:00 PM 2.53 36.554 0.059 6.62 29.05 12.81
1/15/2021 11:15:00 PM 2.48 36.464 0.058 6.62 23.62 12.82
1/15/2021 11:30:00 PM 2.44 36.392 0.058 6.64 21.88 12.82
1/15/2021 11:45:00 PM 2.43 36.374 0.058 6.65 20.15 12.83
1/16/2021 12:00:00 AM 2.43 36.374 0.06 6.66 23.1 12.85
1/16/2021 12:15:00 AM 2.42 36.356 0.06 6.66 18.89 12.86
1/16/2021 12:30:00 AM 2.41 36.338 0.061 6.67 17.39 12.86
1/16/2021 12:45:00 AM 2.4 36.32 0.061 6.65 15.79 12.87
1/16/2021 1:00:00 AM 2.39 36.302 0.06 6.65 27.72 12.87
1/16/2021 1:15:00 AM 2.38 36.284 0.06 6.65 15.5 12.88
1/16/2021 1:30:00 AM 2.36 36.248 0.061 6.64 14.28 12.89
1/16/2021 1:45:00 AM 2.34 36.212 0.061 6.65 25.37 12.89
1/16/2021 2:00:00 AM 2.34 36.212 0.062 6.65 16.36 12.9
1/16/2021 2:15:00 AM 2.33 36.194 0.062 6.65 29.27 12.89
1/16/2021 2:30:00 AM 2.31 36.158 0.063 6.66 22.43 12.9
1/16/2021 2:45:00 AM 2.3 36.14 0.063 6.64 20.39 12.9
1/16/2021 3:00:00 AM 2.27 36.086 0.063 6.65 19.38 12.91
1/16/2021 3:15:00 AM 2.23 36.014 0.064 6.66 29.59 12.92
1/16/2021 3:30:00 AM 2.19 35.942 0.064 6.67 21.73 12.93
1/16/2021 3:45:00 AM 2.16 35.888 0.064 6.64 14.6 12.92
1/16/2021 4:00:00 AM 2.13 35.834 0.065 6.65 18.1 12.94
1/16/2021 4:15:00 AM 2.09 35.762 0.065 6.65 29.9 12.95
1/16/2021 4:30:00 AM 2.05 35.69 0.065 6.66 19.46 12.95
1/16/2021 4:45:00 AM 2.01 35.618 0.065 6.68 15.87 12.97
1/16/2021 5:00:00 AM 1.96 35.528 0.065 6.64 21.23 12.98
1/16/2021 5:15:00 AM 1.92 35.456 0.065 6.66 26.06 12.99
1/16/2021 5:30:00 AM 1.9 35.42 0.066 6.66 15.21 13
1/16/2021 5:45:00 AM 1.88 35.384 0.066 6.63 15.71 13.01
1/16/2021 6:00:00 AM 1.85 35.33 0.066 6.65 17.63 13.03
1/16/2021 6:15:00 AM 1.83 35.294 0.066 6.65 15.53 13.04
1/16/2021 6:30:00 AM 1.8 35.24 0.066 6.68 25.36 13.05
1/16/2021 6:45:00 AM 1.77 35.186 0.066 6.64 25.78 13.07
1/16/2021 7:00:00 AM 1.74 35.132 0.066 6.67 21.1 13.08
1/16/2021 7:15:00 AM 1.72 35.096 0.066 6.66 27.27 13.09
1/16/2021 7:30:00 AM 1.71 35.078 0.066 6.67 17.34 13.1
1/16/2021 7:45:00 AM 1.69 35.042 0.066 6.67 17.54 13.11
1/16/2021 8:00:00 AM 1.68 35.024 0.066 6.65 20.1 13.12
1/16/2021 8:15:00 AM 1.67 35.006 0.066 6.66 13.84 13.15
1/16/2021 8:30:00 AM 1.66 34.988 0.066 6.7 16.39 13.18
1/16/2021 8:45:00 AM 1.65 34.97 0.066 6.68 14.26 13.21
1/16/2021 9:00:00 AM 1.64 34.952 0.066 6.68 17.3 13.25
1/16/2021 9:15:00 AM 1.62 34.916 0.066 6.7 14.92 13.29
1/16/2021 9:30:00 AM 1.61 34.898 0.066 6.69 15.29 13.33
1/16/2021 9:45:00 AM 1.64 34.952 0.066 6.71 20.09 13.35
1/16/2021 10:00:00 AM 1.69 35.042 0.066 6.73 14.35 13.38
1/16/2021 10:15:00 AM 1.75 35.15 0.065 6.73 15.13 13.39
1/16/2021 10:30:00 AM 1.79 35.222 0.066 6.75 13.84 13.4
1/16/2021 10:45:00 AM 1.82 35.276 0.065 6.76 14.47 13.4
1/16/2021 11:00:00 AM 1.87 35.366 0.065 6.77 13.09 13.41
1/16/2021 11:15:00 AM 1.91 35.438 0.065 6.77 14.57 13.4
1/16/2021 11:30:00 AM 1.96 35.528 0.065 6.76 12.66 13.39
1/16/2021 11:45:00 AM 2.01 35.618 0.065 6.76 14.71 13.39
1/16/2021 12:00:00 PM 2.06 35.708 0.065 6.78 13.08 13.37
1/16/2021 12:15:00 PM 2.12 35.816 0.065 6.78 12.49 13.36
1/16/2021 12:30:00 PM 2.21 35.978 0.065 6.79 11.44 13.34
1/16/2021 12:45:00 PM 2.27 36.086 0.065 6.78 10.59 13.32
1/16/2021 1:00:00 PM 2.35 36.23 0.065 6.8 11.3 13.3
1/16/2021 1:15:00 PM 2.42 36.356 0.065 6.8 10.87 13.28
1/16/2021 1:30:00 PM 2.46 36.428 0.065 6.81 11.9 13.25
1/16/2021 1:45:00 PM 2.5 36.5 0.064 6.8 10.16 13.22
1/16/2021 2:00:00 PM 2.55 36.59 0.064 6.8 9.8 13.21
1/16/2021 2:15:00 PM 2.59 36.662 0.064 6.8 9.65 13.18
1/16/2021 2:30:00 PM 2.63 36.734 0.064 6.81 9.29 13.15
1/16/2021 2:45:00 PM 2.67 36.806 0.064 6.82 10.4 13.13
1/16/2021 3:00:00 PM 2.71 36.878 0.064 6.81 9.54 13.1
1/16/2021 3:15:00 PM 2.75 36.95 0.064 6.81 8.79 13.09
1/16/2021 3:30:00 PM 2.78 37.004 0.064 6.83 8.46 13.07
1/16/2021 3:45:00 PM 2.81 37.058 0.064 6.82 9.39 13.05
1/16/2021 4:00:00 PM 2.84 37.112 0.064 6.81 8.43 13.04
1/16/2021 4:15:00 PM 2.84 37.112 0.064 6.81 7.84 13
1/16/2021 4:30:00 PM 2.81 37.058 0.064 6.79 8.66 12.96
1/16/2021 4:45:00 PM 2.74 36.932 0.064 6.77 8.16 12.91
1/16/2021 5:00:00 PM 2.7 36.86 0.065 6.77 8.39 12.89
1/16/2021 5:15:00 PM 2.68 36.824 0.066 6.77 9.1 12.86
1/16/2021 5:30:00 PM 2.65 36.77 0.066 6.75 9.73 12.84
1/16/2021 5:45:00 PM 2.58 36.644 0.066 6.72 8.12 12.84
1/16/2021 6:00:00 PM 2.52 36.536 0.066 6.72 8.44 12.83
1/16/2021 6:15:00 PM 2.5 36.5 0.065 6.72 8.76 12.83
1/16/2021 6:30:00 PM 2.48 36.464 0.065 6.71 8.71 12.81
1/16/2021 6:45:00 PM 2.45 36.41 0.064 6.71 8.37 12.81
1/16/2021 7:00:00 PM 2.4 36.32 0.064 6.69 8.42 12.82
1/16/2021 7:15:00 PM 2.36 36.248 0.064 6.67 8 12.82
1/16/2021 7:30:00 PM 2.32 36.176 0.064 6.69 7.81 12.83
1/16/2021 7:45:00 PM 2.3 36.14 0.064 6.69 7.48 12.83
1/16/2021 8:00:00 PM 2.26 36.068 0.064 6.68 7.59 12.84
1/16/2021 8:15:00 PM 2.22 35.996 0.064 6.69 7.61 12.86
1/16/2021 8:30:00 PM 2.17 35.906 0.064 6.68 7.02 12.87
1/16/2021 8:45:00 PM 2.14 35.852 0.064 6.68 6.99 12.88
1/16/2021 9:00:00 PM 2.12 35.816 0.064 6.69 7.18 12.89
1/16/2021 9:15:00 PM 2.1 35.78 0.064 6.72 8.03 12.91
1/16/2021 9:30:00 PM 2.08 35.744 0.064 6.69 7.34 12.92
1/16/2021 9:45:00 PM 2.07 35.726 0.064 6.68 8.06 12.92
1/16/2021 10:00:00 PM 2.05 35.69 0.064 6.7 7.93 12.93
1/16/2021 10:15:00 PM 2.04 35.672 0.064 6.68 7.95 12.94
1/16/2021 10:30:00 PM 2.02 35.636 0.064 6.68 8.8 12.94
1/16/2021 10:45:00 PM 2 35.6 0.064 6.67 8.16 12.95
1/16/2021 11:00:00 PM 1.98 35.564 0.064 6.7 7.5 12.95
1/16/2021 11:15:00 PM 1.97 35.546 0.065 6.68 8.13 12.96
1/16/2021 11:30:00 PM 1.95 35.51 0.064 6.67 8.07 12.97
1/16/2021 11:45:00 PM 1.94 35.492 0.065 6.7 7.91 12.98
1/17/2021 12:00:00 AM 1.92 35.456 0.065 6.69 7.5 12.98
1/17/2021 12:15:00 AM 1.9 35.42 0.065 6.68 7.23 12.99
1/17/2021 12:30:00 AM 1.89 35.402 0.065 6.69 7.59 12.99
1/17/2021 12:45:00 AM 1.88 35.384 0.065 6.67 8.07 13
1/17/2021 1:00:00 AM 1.86 35.348 0.065 6.69 8.63 13
1/17/2021 1:15:00 AM 1.85 35.33 0.064 6.71 8.08 13.01
1/17/2021 1:30:00 AM 1.83 35.294 0.064 6.68 8.6 13.02
1/17/2021 1:45:00 AM 1.81 35.258 0.065 6.7 7.62 13.03
1/17/2021 2:00:00 AM 1.79 35.222 0.065 6.7 7.6 13.04
1/17/2021 2:15:00 AM 1.77 35.186 0.064 6.69 7.85 13.05
1/17/2021 2:30:00 AM 1.76 35.168 0.065 6.68 8.62 13.06
1/17/2021 2:45:00 AM 1.74 35.132 0.065 6.69 7.98 13.06
1/17/2021 3:00:00 AM 1.73 35.114 0.065 6.67 8.73 13.07
1/17/2021 3:15:00 AM 1.71 35.078 0.065 6.67 8.42 13.08
1/17/2021 3:30:00 AM 1.69 35.042 0.065 6.66 8.59 13.08
1/17/2021 3:45:00 AM 1.66 34.988 0.065 6.67 7.7 13.09
1/17/2021 4:00:00 AM 1.65 34.97 0.065 6.66 8.93 13.1
1/17/2021 4:15:00 AM 1.63 34.934 0.064 6.69 11.22 13.11
1/17/2021 4:30:00 AM 1.6 34.88 0.064 6.67 11.16 13.11
1/17/2021 4:45:00 AM 1.57 34.826 0.064 6.68 8.84 13.12
1/17/2021 5:00:00 AM 1.56 34.808 0.064 6.66 9.71 13.13
1/17/2021 5:15:00 AM 1.56 34.808 0.064 6.66 9.45 13.14
1/17/2021 5:30:00 AM 1.55 34.79 0.064 6.66 9.83 13.15
1/17/2021 5:45:00 AM 1.54 34.772 0.064 6.65 8.59 13.15
1/17/2021 6:00:00 AM 1.53 34.754 0.064 6.66 8.97 13.16
1/17/2021 6:15:00 AM 1.53 34.754 0.064 6.69 10.17 13.16
1/17/2021 6:30:00 AM 1.52 34.736 0.064 6.68 9.26 13.17
1/17/2021 6:45:00 AM 1.52 34.736 0.064 6.65 8.57 13.17
1/17/2021 7:00:00 AM 1.52 34.736 0.064 6.66 11.08 13.17
1/17/2021 7:15:00 AM 1.51 34.718 0.064 6.69 7.94 13.18
1/17/2021 7:30:00 AM 1.51 34.718 0.062 6.68 7.24 13.18
1/17/2021 7:45:00 AM 1.51 34.718 0.063 6.67 7.54 13.18
1/17/2021 8:00:00 AM 1.52 34.736 0.052 6.67 8.32 13.2
1/17/2021 8:15:00 AM 1.52 34.736 0.064 6.66 7.41 13.2
1/17/2021 8:30:00 AM 1.53 34.754 0.057 6.67 9.39 13.22
1/17/2021 8:45:00 AM 1.54 34.772 0.064 6.68 7.53 13.23
1/17/2021 9:00:00 AM 1.54 34.772 0.061 6.66 8.49 13.25
1/17/2021 9:15:00 AM 1.55 34.79 0.064 6.69 7.43 13.27
1/17/2021 9:30:00 AM 1.57 34.826 0.064 6.69 10.55 13.3
1/17/2021 9:45:00 AM 1.59 34.862 0.064 6.68 7.81 13.32
1/17/2021 10:00:00 AM 1.62 34.916 0.064 6.7 8 13.35
1/17/2021 10:15:00 AM 1.64 34.952 0.064 6.71 8.35 13.38
1/17/2021 10:30:00 AM 1.67 35.006 0.063 6.72 7.87 13.39
1/17/2021 10:45:00 AM 1.7 35.06 0.063 6.73 7.93 13.41
1/17/2021 11:00:00 AM 1.75 35.15 0.063 6.74 7.56 13.43
1/17/2021 11:15:00 AM 1.8 35.24 0.063 6.76 7.3 13.43
1/17/2021 11:30:00 AM 1.83 35.294 0.063 6.75 7.54 13.43
1/17/2021 11:45:00 AM 1.85 35.33 0.063 6.78 7.57 13.42
1/17/2021 12:00:00 PM 1.88 35.384 0.063 6.77 6.03 13.42
1/17/2021 12:15:00 PM 1.91 35.438 0.063 6.77 14.62 13.41
1/17/2021 12:30:00 PM 1.94 35.492 0.063 6.77 8.66 13.4
1/17/2021 12:45:00 PM 1.96 35.528 0.063 6.77 6.22 13.39
1/17/2021 1:00:00 PM 1.99 35.582 0.063 6.78 8.49 13.38
1/17/2021 1:15:00 PM 2.02 35.636 0.063 6.8 5.09 13.37
1/17/2021 1:30:00 PM 2.07 35.726 0.063 6.81 1431.21 13.36
1/17/2021 1:45:00 PM 2.1 35.78 0.062 6.84 5.01 13.36
1/17/2021 2:00:00 PM 2.15 35.87 0.063 6.81 5.25 13.35
1/17/2021 2:15:00 PM 2.21 35.978 0.062 6.83 24.67 13.33
1/17/2021 2:30:00 PM 2.28 36.104 0.062 6.81 11378.4 13.34
1/17/2021 2:45:00 PM 2.33 36.194 0.06 6.83 4.95 13.32
1/17/2021 3:00:00 PM 2.35 36.23 0.062 6.82 4.9 13.3
1/17/2021 3:15:00 PM 2.35 36.23 0.06 6.81 5.18 13.27
1/17/2021 3:30:00 PM 2.37 36.266 0.062 6.82 14.24 13.27
1/17/2021 3:45:00 PM 2.38 36.284 0.056 6.82 6.15 13.26
1/17/2021 4:00:00 PM 2.4 36.32 0.061 6.81 11.32 13.25
1/17/2021 4:15:00 PM 2.42 36.356 0.059 6.82 402.54 13.24
1/17/2021 4:30:00 PM 2.42 36.356 0.06 6.81 4778 13.22
1/17/2021 4:45:00 PM 2.42 36.356 0.061 6.8 149.36 13.17
1/17/2021 5:00:00 PM 2.41 36.338 0.059 6.79 5.52 13.11
1/17/2021 5:15:00 PM 2.4 36.32 0.06 6.78 5.48 13.07
1/17/2021 5:30:00 PM 2.39 36.302 0.06 6.77 5.76 13.04
1/17/2021 5:45:00 PM 2.38 36.284 0.06 6.77 5.72 13.01
1/17/2021 6:00:00 PM 2.37 36.266 0.056 6.75 5.79 12.98
1/17/2021 6:15:00 PM 2.36 36.248 0.06 6.74 5.57 12.96
1/17/2021 6:30:00 PM 2.35 36.23 0.058 6.74 5.55 12.94
1/17/2021 6:45:00 PM 2.34 36.212 0.061 6.74 5.47 12.94
1/17/2021 7:00:00 PM 2.32 36.176 0.057 6.72 7.56 12.94
1/17/2021 7:15:00 PM 2.31 36.158 0.062 6.73 6.7 12.93
1/17/2021 7:30:00 PM 2.29 36.122 0.062 6.72 5.23 12.93
1/17/2021 7:45:00 PM 2.28 36.104 0.062 6.72 6.13 12.92
1/17/2021 8:00:00 PM 2.27 36.086 0.049 6.74 5.98 12.93
1/17/2021 8:15:00 PM 2.26 36.068 0.056 6.74 5.36 12.93
1/17/2021 8:30:00 PM 2.24 36.032 0.063 6.72 5.3 12.94
1/17/2021 8:45:00 PM 2.23 36.014 0.058 6.71 6.07 12.94
1/17/2021 9:00:00 PM 2.22 35.996 0.055 6.71 4.96 12.93
1/17/2021 9:15:00 PM 2.21 35.978 0.058 6.71 4.86 12.94
1/17/2021 9:30:00 PM 2.17 35.906 0.057 6.69 13.43 12.94
1/17/2021 9:45:00 PM 2.15 35.87 0.063 6.72 4.73 12.95
1/17/2021 10:00:00 PM 2.13 35.834 0.063 6.7 4.64 12.95
1/17/2021 10:15:00 PM 2.11 35.798 0.063 6.7 7.65 12.96
1/17/2021 10:30:00 PM 2.1 35.78 0.063 6.69 4.68 12.97
1/17/2021 10:45:00 PM 2.08 35.744 0.063 6.7 4.69 12.96
1/17/2021 11:00:00 PM 2.06 35.708 0.063 6.7 4.49 12.97
1/17/2021 11:15:00 PM 2.05 35.69 0.063 6.69 4.62 12.98
1/17/2021 11:30:00 PM 2.03 35.654 0.062 6.71 5.23 12.99
1/17/2021 11:45:00 PM 2.01 35.618 0.064 6.69 5.25 13
1/18/2021 12:00:00 AM 1.99 35.582 0.064 6.7 6.42 13
1/18/2021 12:15:00 AM 1.97 35.546 0.057 6.7 4.92 13.01
1/18/2021 12:30:00 AM 1.95 35.51 0.064 6.71 4.97 13.02
1/18/2021 12:45:00 AM 1.94 35.492 0.064 6.69 4.69 13.02
1/18/2021 1:00:00 AM 1.92 35.456 0.064 6.73 4.96 13.02
1/18/2021 1:15:00 AM 1.9 35.42 0.064 6.7 5.53 13.02
1/18/2021 1:30:00 AM 1.89 35.402 0.064 6.7 4.96 13.04
1/18/2021 1:45:00 AM 1.89 35.402 0.048 6.7 4.73 13.04
1/18/2021 2:00:00 AM 1.88 35.384 0.063 6.69 4.74 13.04
1/18/2021 2:15:00 AM 1.88 35.384 0.062 6.69 4.96 13.05
1/18/2021 2:30:00 AM 1.87 35.366 0.057 6.68 4.8 13.06
1/18/2021 2:45:00 AM 1.86 35.348 0.063 6.7 4.85 13.06
1/18/2021 3:00:00 AM 1.85 35.33 0.063 6.7 7.36 13.06
1/18/2021 3:15:00 AM 1.85 35.33 0.063 6.69 4.77 13.06
1/18/2021 3:30:00 AM 1.85 35.33 0.063 6.69 4.83 13.07
1/18/2021 3:45:00 AM 1.84 35.312 0.063 6.68 4.66 13.07
1/18/2021 4:00:00 AM 1.83 35.294 0.063 6.68 5.11 13.07
1/18/2021 4:15:00 AM 1.81 35.258 0.063 6.7 4.54 13.08
1/18/2021 4:30:00 AM 1.8 35.24 0.063 6.69 4.56 13.08
1/18/2021 4:45:00 AM 1.8 35.24 0.063 6.68 4.52 13.08
1/18/2021 5:00:00 AM 1.81 35.258 0.063 6.7 4.47 13.08
1/18/2021 5:15:00 AM 1.81 35.258 0.063 6.69 4.25 13.08
1/18/2021 5:30:00 AM 1.8 35.24 0.063 6.69 4.35 13.09
1/18/2021 5:45:00 AM 1.78 35.204 0.063 6.69 4.52 13.09
1/18/2021 6:00:00 AM 1.77 35.186 0.063 6.69 4.45 13.1
1/18/2021 6:15:00 AM 1.75 35.15 0.063 6.67 4.35 13.1
1/18/2021 6:30:00 AM 1.74 35.132 0.063 6.69 4.39 13.11
1/18/2021 6:45:00 AM 1.72 35.096 0.061 6.68 4.34 13.12
1/18/2021 7:00:00 AM 1.7 35.06 0.063 6.67 4.24 13.12
1/18/2021 7:15:00 AM 1.68 35.024 0.063 6.68 3.96 13.13
1/18/2021 7:30:00 AM 1.67 35.006 0.063 6.68 3.88 13.13
1/18/2021 7:45:00 AM 1.66 34.988 0.063 6.68 3.82 13.15
1/18/2021 8:00:00 AM 1.66 34.988 0.063 6.68 3.79 13.17
1/18/2021 8:15:00 AM 1.66 34.988 0.063 6.7 3.76 13.21
1/18/2021 8:30:00 AM 1.67 35.006 0.062 6.71 3.78 13.25
1/18/2021 8:45:00 AM 1.69 35.042 0.063 6.72 3.79 13.29
1/18/2021 9:00:00 AM 1.7 35.06 0.062 6.72 3.82 13.34
1/18/2021 9:15:00 AM 1.73 35.114 0.062 6.73 3.84 13.37
1/18/2021 9:30:00 AM 1.76 35.168 0.062 6.74 3.86 13.39
1/18/2021 9:45:00 AM 1.8 35.24 0.062 6.75 3.83 13.41
1/18/2021 10:00:00 AM 1.87 35.366 0.062 6.77 3.76 13.43
1/18/2021 10:15:00 AM 1.92 35.456 0.062 6.78 3.77 13.45
1/18/2021 10:30:00 AM 1.96 35.528 0.063 6.78 3.78 13.45
1/18/2021 10:45:00 AM 2 35.6 0.063 6.79 3.8 13.45
1/18/2021 11:00:00 AM 2.05 35.69 0.065 6.8 3.78 13.45
1/18/2021 11:15:00 AM 2.1 35.78 0.066 6.81 3.79 13.43
1/18/2021 11:30:00 AM 2.15 35.87 0.066 6.81 3.81 13.43
1/18/2021 11:45:00 AM 2.2 35.96 0.065 6.82 3.84 13.44
1/18/2021 12:00:00 PM 2.22 35.996 0.063 6.81 3.84 13.42
1/18/2021 12:15:00 PM 2.24 36.032 0.064 6.81 3.82 13.41
1/18/2021 12:30:00 PM 2.29 36.122 0.064 6.81 3.86 13.39
1/18/2021 12:45:00 PM 2.34 36.212 0.064 6.82 3.77 13.38
1/18/2021 1:00:00 PM 2.39 36.302 0.065 6.83 3.81 13.37
1/18/2021 1:15:00 PM 2.42 36.356 0.065 6.83 3.76 13.36
1/18/2021 1:30:00 PM 2.45 36.41 0.064 6.82 3.9 13.34
1/18/2021 1:45:00 PM 2.46 36.428 0.065 6.82 3.88 13.33
1/18/2021 2:00:00 PM 2.46 36.428 0.064 6.82 3.89 13.31
1/18/2021 2:15:00 PM 2.46 36.428 0.064 6.81 3.92 13.29
1/18/2021 2:30:00 PM 2.45 36.41 0.063 6.81 4.02 13.27
1/18/2021 2:45:00 PM 2.44 36.392 0.063 6.8 4 13.26
1/18/2021 3:00:00 PM 2.43 36.374 0.062 6.81 4.04 13.25
1/18/2021 3:15:00 PM 2.42 36.356 0.062 6.79 4.03 13.24
1/18/2021 3:30:00 PM 2.42 36.356 0.062 6.79 3.96 13.23
1/18/2021 3:45:00 PM 2.41 36.338 0.062 6.79 4.01 13.21
1/18/2021 4:00:00 PM 2.39 36.302 0.062 6.8 3.86 13.2
1/18/2021 4:15:00 PM 2.37 36.266 0.062 6.78 3.82 13.18
1/18/2021 4:30:00 PM 2.36 36.248 0.062 6.77 3.9 13.16
1/18/2021 4:45:00 PM 2.34 36.212 0.062 6.76 3.85 13.14
1/18/2021 5:00:00 PM 2.31 36.158 0.062 6.74 3.89 13.12
1/18/2021 5:15:00 PM 2.28 36.104 0.062 6.74 3.92 13.1
1/18/2021 5:30:00 PM 2.26 36.068 0.062 6.73 3.92 13.08
1/18/2021 5:45:00 PM 2.25 36.05 0.062 6.73 3.95 13.07
1/18/2021 6:00:00 PM 2.23 36.014 0.062 6.72 3.98 13.05
1/18/2021 6:15:00 PM 2.21 35.978 0.062 6.71 4.21 13.05
1/18/2021 6:30:00 PM 2.19 35.942 0.062 6.71 4.34 13.06
1/18/2021 6:45:00 PM 2.18 35.924 0.062 6.72 4.43 13.05
1/18/2021 7:00:00 PM 2.16 35.888 0.062 6.71 4.46 13.05
1/18/2021 7:15:00 PM 2.14 35.852 0.062 6.71 4.43 13.05
1/18/2021 7:30:00 PM 2.13 35.834 0.062 6.71 4.42 13.06
1/18/2021 7:45:00 PM 2.11 35.798 0.063 6.71 4.39 13.06
1/18/2021 8:00:00 PM 2.1 35.78 0.063 6.7 4.86 13.07
1/18/2021 8:15:00 PM 2.08 35.744 0.063 6.7 4.54 13.08
1/18/2021 8:30:00 PM 2.07 35.726 0.063 6.69 4.51 13.08
1/18/2021 8:45:00 PM 2.05 35.69 0.063 6.69 4.54 13.09
1/18/2021 9:00:00 PM 2.04 35.672 0.063 6.71 4.51 13.09
1/18/2021 9:15:00 PM 2.02 35.636 0.063 6.7 4.49 13.1
1/18/2021 9:30:00 PM 2.01 35.618 0.063 6.7 4.51 13.1
1/18/2021 9:45:00 PM 1.99 35.582 0.063 6.7 4.51 13.12
1/18/2021 10:00:00 PM 1.98 35.564 0.064 6.69 4.54 13.12
1/18/2021 10:15:00 PM 1.96 35.528 0.063 6.69 4.53 13.13
1/18/2021 10:30:00 PM 1.93 35.474 0.064 6.7 4.52 13.14
1/18/2021 10:45:00 PM 1.91 35.438 0.064 6.69 4.52 13.14
1/18/2021 11:00:00 PM 1.89 35.402 0.064 6.68 4.54 13.15
1/18/2021 11:15:00 PM 1.88 35.384 0.064 6.68 4.5 13.16
1/18/2021 11:30:00 PM 1.86 35.348 0.063 6.68 4.52 13.17
1/18/2021 11:45:00 PM 1.83 35.294 0.063 6.69 4.54 13.18
1/19/2021 12:00:00 AM 1.8 35.24 0.064 6.68 4.56 13.19
1/19/2021 12:15:00 AM 1.78 35.204 0.064 6.68 4.48 13.2
1/19/2021 12:30:00 AM 1.75 35.15 0.063 6.69 4.39 13.21
1/19/2021 12:45:00 AM 1.73 35.114 0.064 6.69 4.4 13.22
1/19/2021 1:00:00 AM 1.71 35.078 0.064 6.7 4.42 13.23
1/19/2021 1:15:00 AM 1.68 35.024 0.064 6.7 4.43 13.24
1/19/2021 1:30:00 AM 1.66 34.988 0.063 6.69 4.44 13.25
1/19/2021 1:45:00 AM 1.63 34.934 0.064 6.71 4.45 13.25
1/19/2021 2:00:00 AM 1.61 34.898 0.063 6.68 4.49 13.26
1/19/2021 2:15:00 AM 1.59 34.862 0.064 6.7 4.43 13.28
1/19/2021 2:30:00 AM 1.58 34.844 0.063 6.68 4.39 13.28
1/19/2021 2:45:00 AM 1.56 34.808 0.063 6.7 4.46 13.29
1/19/2021 3:00:00 AM 1.55 34.79 0.064 6.7 4.41 13.3
1/19/2021 3:15:00 AM 1.53 34.754 0.064 6.7 4.38 13.31
1/19/2021 3:30:00 AM 1.52 34.736 0.064 6.69 4.4 13.32
1/19/2021 3:45:00 AM 1.5 34.7 0.063 6.68 4.46 13.33
1/19/2021 4:00:00 AM 1.49 34.682 0.064 6.7 4.43 13.33
1/19/2021 4:15:00 AM 1.47 34.646 0.063 6.69 4.4 13.34
1/19/2021 4:30:00 AM 1.46 34.628 0.064 6.69 4.36 13.35
1/19/2021 4:45:00 AM 1.44 34.592 0.064 6.7 4.38 13.35
1/19/2021 5:00:00 AM 1.42 34.556 0.063 6.7 4.36 13.36
1/19/2021 5:15:00 AM 1.41 34.538 0.063 6.69 4.38 13.37
1/19/2021 5:30:00 AM 1.4 34.52 0.063 6.68 4.4 13.37
1/19/2021 5:45:00 AM 1.39 34.502 0.064 6.7 4.41 13.38
1/19/2021 6:00:00 AM 1.38 34.484 0.064 6.69 4.4 13.38
1/19/2021 6:15:00 AM 1.37 34.466 0.063 6.69 4.33 13.38
1/19/2021 6:30:00 AM 1.36 34.448 0.063 6.7 4.38 13.39
1/19/2021 6:45:00 AM 1.35 34.43 0.063 6.69 4.41 13.4
1/19/2021 7:00:00 AM 1.34 34.412 0.063 6.7 4.4 13.4
1/19/2021 7:15:00 AM 1.32 34.376 0.063 6.68 4.36 13.41
1/19/2021 7:30:00 AM 1.32 34.376 0.064 6.67 4.3 13.41
1/19/2021 7:45:00 AM 1.3 34.34 0.063 6.68 4.41 13.43
1/19/2021 8:00:00 AM 1.3 34.34 0.064 6.69 4.32 13.45
1/19/2021 8:15:00 AM 1.29 34.322 0.063 6.7 4.2 13.48
1/19/2021 8:30:00 AM 1.29 34.322 0.063 6.68 4.27 13.5
1/19/2021 8:45:00 AM 1.28 34.304 0.063 6.7 4.33 13.52
1/19/2021 9:00:00 AM 1.27 34.286 0.063 6.7 4.23 13.55
1/19/2021 9:15:00 AM 1.16 34.088 0.063 6.7 4.26 13.57
1/19/2021 9:30:00 AM 1.07 33.926 0.063 6.7 4.36 13.59
1/19/2021 9:45:00 AM 0.97 33.746 0.063 6.71 4.31 13.63
1/19/2021 10:00:00 AM 0.97 33.746 0.067 6.74 4.43 13.68
1/19/2021 10:15:00 AM 0.98 33.764 0.07 6.74 4.38 13.71
1/19/2021 10:30:00 AM 1 33.8 0.068 6.73 4.28 13.74
1/19/2021 10:45:00 AM 1.05 33.89 0.068 6.76 4.42 13.77
1/19/2021 11:00:00 AM 1.1 33.98 0.067 6.76 4.34 13.81
1/19/2021 11:15:00 AM 1.16 34.088 0.067 6.78 4.42 13.83
1/19/2021 11:30:00 AM 1.23 34.214 0.066 6.79 4.44 13.85
1/19/2021 11:45:00 AM 1.31 34.358 0.067 6.79 4.42 13.84
1/19/2021 12:00:00 PM 1.36 34.448 0.054 6.84 48.43 13.84
1/19/2021 12:15:00 PM 1.44 34.592 0.049 6.84 150.16 13.85
1/19/2021 12:30:00 PM 1.51 34.718 0.065 6.82 3.95 13.83
1/19/2021 12:45:00 PM 1.56 34.808 0.049 6.82 14.57 13.81
1/19/2021 1:00:00 PM 1.61 34.898 0.061 6.85 3.34 13.8
1/19/2021 1:15:00 PM 1.67 35.006 0.067 6.84 3.27 13.77
1/19/2021 1:30:00 PM 1.74 35.132 0.066 6.85 110.91 13.76
1/19/2021 1:45:00 PM 1.81 35.258 0.065 6.84 3.67 13.74
1/19/2021 2:00:00 PM 1.87 35.366 0.066 6.85 7.47 13.72
1/19/2021 2:15:00 PM 1.92 35.456 0.063 6.85 4.28 13.7
1/19/2021 2:30:00 PM 1.94 35.492 0.065 6.87 728.27 13.68
1/19/2021 2:45:00 PM 1.95 35.51 0.071 6.87 3.63 13.67
1/19/2021 3:00:00 PM 1.98 35.564 0.069 6.84 3.93 13.65
1/19/2021 3:15:00 PM 1.99 35.582 0.066 6.84 3.61 13.64
1/19/2021 3:30:00 PM 2.01 35.618 0.065 6.85 3.49 13.63
1/19/2021 3:45:00 PM 2.02 35.636 0.064 6.85 8.63 13.63
1/19/2021 4:00:00 PM 2.02 35.636 0.064 6.85 3.17 13.61
1/19/2021 4:15:00 PM 2.02 35.636 0.063 6.85 4.95 13.6
1/19/2021 4:30:00 PM 2.02 35.636 0.063 6.85 3.39 13.59
1/19/2021 4:45:00 PM 1.98 35.564 0.063 6.82 3.82 13.55
1/19/2021 5:00:00 PM 1.96 35.528 0.063 6.69 3.54 13.51
1/19/2021 5:15:00 PM 1.94 35.492 0.061 6.68 3.36 13.46
1/19/2021 5:30:00 PM 1.92 35.456 0.062 6.66 8.68 13.42
1/19/2021 5:45:00 PM 1.89 35.402 0.062 6.65 7.66 13.38
1/19/2021 6:00:00 PM 1.87 35.366 0.062 6.66 41.16 13.34
1/19/2021 6:15:00 PM 1.85 35.33 0.062 6.64 181.88 13.34
1/19/2021 6:30:00 PM 1.83 35.294 0.062 6.69 830.48 13.31
1/19/2021 6:45:00 PM 1.8 35.24 0.061 6.65 201.94 13.31
1/19/2021 7:00:00 PM 1.78 35.204 0.047 6.64 203.5 13.3
1/19/2021 7:15:00 PM 1.76 35.168 0.062 6.64 518.78 13.3
1/19/2021 7:30:00 PM 1.74 35.132 0.062 6.62 145.15 13.29
1/19/2021 7:45:00 PM 1.72 35.096 0.062 6.63 335.6 13.3
1/19/2021 8:00:00 PM 1.7 35.06 0.062 6.63 365.66 13.3
1/19/2021 8:15:00 PM 1.68 35.024 0.063 6.63 310.99 13.3
1/19/2021 8:30:00 PM 1.65 34.97 0.062 6.64 504.44 13.3
1/19/2021 8:45:00 PM 1.63 34.934 0.063 6.63 430.07 13.31
1/19/2021 9:00:00 PM 1.61 34.898 0.063 6.63 251.99 13.32
1/19/2021 9:15:00 PM 1.59 34.862 0.056 6.63 76.64 13.32
1/19/2021 9:30:00 PM 1.56 34.808 0.056 6.65 81.74 13.32
1/19/2021 9:45:00 PM 1.54 34.772 0.057 6.65 8.64 13.33
1/19/2021 10:00:00 PM 1.53 34.754 0.058 6.63 27.34 13.34
1/19/2021 10:15:00 PM 1.5 34.7 0.062 6.64 5.07 13.34
1/19/2021 10:30:00 PM 1.48 34.664 0.063 6.66 50.25 13.34
1/19/2021 10:45:00 PM 1.46 34.628 0.063 6.61 8.31 13.35
1/19/2021 11:00:00 PM 1.44 34.592 0.063 6.71 14.92 13.35
1/19/2021 11:15:00 PM 1.43 34.574 0.063 6.67 14.2 13.36
1/19/2021 11:30:00 PM 1.42 34.556 0.063 6.65 30.17 13.37
1/19/2021 11:45:00 PM 1.4 34.52 0.063 6.68 7.76 13.37
1/20/2021 12:00:00 AM 1.39 34.502 0.063 6.62 108.41 13.38
1/20/2021 12:15:00 AM 1.37 34.466 0.063 6.64 341.7 13.38
1/20/2021 12:30:00 AM 1.36 34.448 0.063 6.71 6.74 13.38
1/20/2021 12:45:00 AM 1.35 34.43 0.063 6.68 4.39 13.39
1/20/2021 1:00:00 AM 1.34 34.412 0.063 6.62 3.66 13.39
1/20/2021 1:15:00 AM 1.33 34.394 0.063 6.66 3.31 13.38
1/20/2021 1:30:00 AM 1.31 34.358 0.063 6.67 7.62 13.39
1/20/2021 1:45:00 AM 1.27 34.286 0.063 6.63 3.29 13.39
1/20/2021 2:00:00 AM 1.19 34.142 0.063 6.65 3.38 13.4
1/20/2021 2:15:00 AM 1.14 34.052 0.063 6.66 3.29 13.41
1/20/2021 2:30:00 AM 1.11 33.998 0.063 6.65 3.33 13.42
1/20/2021 2:45:00 AM 1.08 33.944 0.063 6.65 3.28 13.42
1/20/2021 3:00:00 AM 1.06 33.908 0.064 6.69 3.27 13.43
1/20/2021 3:15:00 AM 1.03 33.854 0.065 6.68 3.31 13.44
1/20/2021 3:30:00 AM 1 33.8 0.065 6.68 3.31 13.45
1/20/2021 3:45:00 AM 0.96 33.728 0.065 6.67 3.41 13.47
1/20/2021 4:00:00 AM 0.91 33.638 0.065 6.68 3.69 13.48
1/20/2021 4:15:00 AM 0.85 33.53 0.065 6.67 3.58 13.49
1/20/2021 4:30:00 AM 0.77 33.386 0.065 6.68 3.64 13.5
1/20/2021 4:45:00 AM 0.72 33.296 0.064 6.66 3.58 13.52
1/20/2021 5:00:00 AM 0.7 33.26 0.066 6.66 3.35 13.54
1/20/2021 5:15:00 AM 0.65 33.17 0.066 6.68 3.29 13.56
1/20/2021 5:30:00 AM 0.63 33.134 0.066 6.67 3.46 13.57
1/20/2021 5:45:00 AM 0.62 33.116 0.065 6.66 579.33 13.58
1/20/2021 6:00:00 AM 0.61 33.098 0.065 6.66 3.46 13.6
1/20/2021 6:15:00 AM 0.62 33.116 0.065 6.66 5.85 13.61
1/20/2021 6:30:00 AM 0.63 33.134 0.065 6.67 5.23 13.62
1/20/2021 6:45:00 AM 0.62 33.116 0.065 6.67 11.32 13.63
1/20/2021 7:00:00 AM 0.61 33.098 0.064 6.66 9.08 13.63
1/20/2021 7:15:00 AM 0.6 33.08 0.065 6.67 4.77 13.65
1/20/2021 7:30:00 AM 0.59 33.062 0.065 6.66 7.08 13.66
1/20/2021 7:45:00 AM 0.57 33.026 0.064 6.65 16.26 13.67
1/20/2021 8:00:00 AM 0.55 32.99 0.064 6.67 17.77 13.71
1/20/2021 8:15:00 AM 0.54 32.972 0.063 6.68 7.78 13.76
1/20/2021 8:30:00 AM 0.53 32.954 0.063 6.69 9.39 13.82
1/20/2021 8:45:00 AM 0.53 32.954 0.063 6.7 176.78 13.86
1/20/2021 9:00:00 AM 0.52 32.936 0.063 6.7 239.17 13.91
1/20/2021 9:15:00 AM 0.53 32.954 0.063 6.71 41.75 13.95
1/20/2021 9:30:00 AM 0.53 32.954 0.063 6.7 3.72 13.98
1/20/2021 9:45:00 AM 0.55 32.99 0.063 6.73 3.49 14.02
1/20/2021 10:00:00 AM 0.55 32.99 0.064 6.75 3.54 14.05
1/20/2021 10:15:00 AM 0.58 33.044 0.064 6.77 3.3 14.06
1/20/2021 10:30:00 AM 0.61 33.098 0.064 6.77 3.39 14.08
1/20/2021 10:45:00 AM 0.65 33.17 0.064 6.78 3.13 14.09
1/20/2021 11:00:00 AM 0.69 33.242 0.064 6.78 3.05 14.1
1/20/2021 11:15:00 AM 0.7 33.26 0.065 6.79 3.27 14.1
1/20/2021 11:30:00 AM 0.74 33.332 0.066 6.78 3.12 14.1
1/20/2021 11:45:00 AM 0.8 33.44 0.066 6.8 3.16 14.09
1/20/2021 12:00:00 PM 0.88 33.584 0.065 6.81 4.05 14.09
1/20/2021 12:15:00 PM 1 33.8 0.065 6.82 3.52 14.06
1/20/2021 12:30:00 PM 1.06 33.908 0.065 6.81 3.63 14.04
1/20/2021 12:45:00 PM 1.08 33.944 0.067 6.82 3.38 14.02
1/20/2021 1:00:00 PM 1.09 33.962 0.066 6.81 3.47 14.01
1/20/2021 1:15:00 PM 1.08 33.944 0.065 6.82 3.62 13.99
1/20/2021 1:30:00 PM 1.11 33.998 0.065 6.81 7.11 13.98
1/20/2021 1:45:00 PM 1.18 34.124 0.064 6.8 381.33 13.97
1/20/2021 2:00:00 PM 1.2 34.16 0.064 6.81 21.97 13.97
1/20/2021 2:15:00 PM 1.22 34.196 0.063 6.81 9.6 13.96
1/20/2021 2:30:00 PM 1.24 34.232 0.063 6.8 3.26 13.96
1/20/2021 2:45:00 PM 1.23 34.214 0.064 6.8 9.34 13.95
1/20/2021 3:00:00 PM 1.22 34.196 0.063 6.79 43.73 13.95
1/20/2021 3:15:00 PM 1.19 34.142 0.063 6.8 24.42 13.95
1/20/2021 3:30:00 PM 1.15 34.07 0.063 6.79 14.42 13.94
1/20/2021 3:45:00 PM 1.12 34.016 0.063 6.81 23.6 13.94
1/20/2021 4:00:00 PM 1.1 33.98 0.063 6.81 85.32 13.94
1/20/2021 4:15:00 PM 1.09 33.962 0.063 6.8 68.73 13.94
1/20/2021 4:30:00 PM 1.07 33.926 0.063 6.8 7.13 13.93
1/20/2021 4:45:00 PM 1.01 33.818 0.063 6.79 70.8 13.93
1/20/2021 5:00:00 PM 0.95 33.71 0.063 6.78 12.09 13.91
1/20/2021 5:15:00 PM 0.9 33.62 0.064 6.81 69.22 13.87
1/20/2021 5:30:00 PM 0.85 33.53 0.063 6.79 92.89 13.84
1/20/2021 5:45:00 PM 0.8 33.44 0.064 6.76 46.78 13.81
1/20/2021 6:00:00 PM 0.75 33.35 0.064 6.75 61.09 13.78
1/20/2021 6:15:00 PM 0.68 33.224 0.064 6.73 294.41 13.77
1/20/2021 6:30:00 PM 0.61 33.098 0.064 6.73 79.68 13.77
1/20/2021 6:45:00 PM 0.55 32.99 0.064 6.72 24.55 13.77
1/20/2021 7:00:00 PM 0.49 32.882 0.064 6.72 23.84 13.77
1/20/2021 7:15:00 PM 0.43 32.774 0.064 6.7 51.93 13.78
1/20/2021 7:30:00 PM 0.38 32.684 0.064 6.71 47.69 13.79
1/20/2021 7:45:00 PM 0.34 32.612 0.064 6.68 24.12 13.8
1/20/2021 8:00:00 PM 0.29 32.522 0.064 6.71 45.96 13.82
1/20/2021 8:15:00 PM 0.24 32.432 0.064 6.71 28.41 13.83
1/20/2021 8:30:00 PM 0.19 32.342 0.064 6.69 45.53 13.85
1/20/2021 8:45:00 PM 0.14 32.252 0.064 6.7 39.21 13.87
1/20/2021 9:00:00 PM 0.09 32.162 0.065 6.69 3.29 13.9
1/20/2021 9:15:00 PM 0.05 32.09 0.065 6.69 61.84 13.91
1/20/2021 9:30:00 PM -0.01 31.982 0.065 6.68 25 13.92
1/20/2021 9:45:00 PM -0.08 31.856 0.065 6.68 16.43 13.95
1/20/2021 10:00:00 PM -0.11 31.802 0.065 6.69 15.04 13.98
1/20/2021 10:15:00 PM -0.09 31.838 0.066 6.7 62.53 14
1/20/2021 10:30:00 PM -0.08 31.856 0.066 6.71 32.1 14
1/20/2021 10:45:00 PM -0.08 31.856 0.067 6.72 3.4 14.01
1/20/2021 11:00:00 PM -0.08 31.856 0.066 6.71 3.45 14.01
1/20/2021 11:15:00 PM -0.08 31.856 0.065 6.73 3.59 14.01
1/20/2021 11:30:00 PM -0.08 31.856 0.068 6.73 3.56 14.01
1/20/2021 11:45:00 PM -0.07 31.874 0.068 6.72 3.53 14.01
1/21/2021 12:00:00 AM -0.07 31.874 0.069 6.73 3.56 14.01
1/21/2021 12:15:00 AM -0.07 31.874 0.068 6.73 3.38 14.01
1/21/2021 12:30:00 AM -0.07 31.874 0.069 6.73 3.51 14.01
1/21/2021 12:45:00 AM -0.07 31.874 0.068 6.73 3.58 14.01
1/21/2021 1:00:00 AM -0.07 31.874 0.068 6.72 3.45 14.02
1/21/2021 1:15:00 AM -0.07 31.874 0.068 6.71 3.5 14.02
1/21/2021 1:30:00 AM -0.07 31.874 0.068 6.72 3.55 14
1/21/2021 1:45:00 AM -0.07 31.874 0.068 6.7 3.61 13.99
1/21/2021 2:00:00 AM -0.07 31.874 0.069 6.71 3.66 13.98
1/21/2021 2:15:00 AM -0.07 31.874 0.069 6.7 3.88 13.99
1/21/2021 2:30:00 AM -0.07 31.874 0.069 6.69 3.61 13.98
1/21/2021 2:45:00 AM -0.07 31.874 0.07 6.69 3.49 13.97
1/21/2021 3:00:00 AM -0.07 31.874 0.07 6.7 3.54 13.95
1/21/2021 3:15:00 AM -0.07 31.874 0.07 6.68 3.51 13.95
1/21/2021 3:30:00 AM -0.07 31.874 0.07 6.68 3.95 13.91
1/21/2021 3:45:00 AM -0.07 31.874 0.071 6.69 3.98 13.93
1/21/2021 4:00:00 AM -0.07 31.874 0.071 6.68 3.99 13.91
1/21/2021 4:15:00 AM -0.07 31.874 0.072 6.68 3.89 13.84
1/21/2021 4:30:00 AM -0.07 31.874 0.072 6.66 3.96 13.88
1/21/2021 4:45:00 AM -0.07 31.874 0.072 6.67 3.83 13.88
1/21/2021 5:00:00 AM -0.07 31.874 0.071 6.68 12.3 13.86
1/21/2021 5:15:00 AM -0.07 31.874 0.071 6.68 10.95 13.86
1/21/2021 5:30:00 AM -0.07 31.874 0.071 6.69 11.81 13.84
1/21/2021 5:45:00 AM -0.07 31.874 0.071 6.67 4.89 13.84
1/21/2021 6:00:00 AM -0.07 31.874 0.071 6.67 9.39 13.83
1/21/2021 6:15:00 AM -0.07 31.874 0.071 6.67 12.3 13.82
1/21/2021 6:30:00 AM -0.07 31.874 0.072 6.68 15.06 13.83
1/21/2021 6:45:00 AM -0.07 31.874 0.072 6.69 16.72 13.83
1/21/2021 7:00:00 AM -0.07 31.874 0.073 6.7 16.6 13.81
1/21/2021 7:15:00 AM -0.07 31.874 0.073 6.7 7.44 13.83
1/21/2021 7:30:00 AM -0.07 31.874 0.073 6.7 5.34 13.84
1/21/2021 7:45:00 AM -0.07 31.874 0.072 6.7 15.94 13.81
1/21/2021 8:00:00 AM -0.07 31.874 0.072 6.71 16.37 13.84
1/21/2021 8:15:00 AM -0.07 31.874 0.072 6.72 14.47 13.84
1/21/2021 8:30:00 AM -0.07 31.874 0.072 6.71 3.71 13.88
1/21/2021 8:45:00 AM -0.07 31.874 0.072 6.71 4.54 13.9
1/21/2021 9:00:00 AM -0.07 31.874 0.072 6.73 5.89 13.93
1/21/2021 9:15:00 AM -0.07 31.874 0.072 6.73 12.76 13.98
1/21/2021 9:30:00 AM -0.07 31.874 0.071 6.72 15.33 14.02
1/21/2021 9:45:00 AM -0.07 31.874 0.072 6.74 14.3 13.99
1/21/2021 10:00:00 AM -0.07 31.874 0.072 6.75 3.63 14
1/21/2021 10:15:00 AM -0.07 31.874 0.072 6.75 4.35 14.03
1/21/2021 10:30:00 AM -0.07 31.874 0.072 6.75 6.87 14.01
1/21/2021 10:45:00 AM -0.07 31.874 0.072 6.76 10.35 14.07
1/21/2021 11:00:00 AM -0.06 31.892 0.071 6.75 6.35 14.08
1/21/2021 11:15:00 AM -0.06 31.892 0.071 6.78 8.22 14.1
1/21/2021 11:30:00 AM -0.03 31.946 0.071 6.78 4.29 14.12
1/21/2021 11:45:00 AM -0.01 31.982 0.071 6.8 12.78 14.12
1/21/2021 12:00:00 PM 0 32 0.07 6.81 14.95 14.1
1/21/2021 12:15:00 PM 0.04 32.072 0.069 6.79 6.09 14.09
1/21/2021 12:30:00 PM 0.07 32.126 0.069 6.78 5.16 14.08
1/21/2021 12:45:00 PM 0.09 32.162 0.067 6.77 4.52 14.06
1/21/2021 1:00:00 PM 0.1 32.18 0.067 6.78 4.14 14.05
1/21/2021 1:15:00 PM 0.13 32.234 0.066 6.82 4.04 14.03
1/21/2021 1:30:00 PM 0.16 32.288 0.066 6.79 6.07 14.01
1/21/2021 1:45:00 PM 0.21 32.378 0.065 6.79 5.53 14
1/21/2021 2:00:00 PM 0.18 32.324 0.065 6.77 4.92 13.97
1/21/2021 2:15:00 PM 0.26 32.468 0.064 6.8 5.23 13.96
1/21/2021 2:30:00 PM 0.3 32.54 0.064 6.78 5.16 13.95
1/21/2021 2:45:00 PM 0.36 32.648 0.054 6.76 4.42 13.93
1/21/2021 3:00:00 PM 0.41 32.738 0.064 6.77 4.18 13.91
1/21/2021 3:15:00 PM 0.46 32.828 0.064 6.78 4.12 13.88
1/21/2021 3:30:00 PM 0.51 32.918 0.068 6.8 4.01 13.86
1/21/2021 3:45:00 PM 0.53 32.954 0.061 6.74 3.97 13.85
1/21/2021 4:00:00 PM 0.53 32.954 0.064 6.8 4.04 13.84
1/21/2021 4:15:00 PM 0.52 32.936 0.062 6.69 4.42 13.83
1/21/2021 4:30:00 PM 0.48 32.864 0.06 6.71 3.55 13.83
1/21/2021 4:45:00 PM 0.43 32.774 0.059 6.72 4.14 13.83
1/21/2021 5:00:00 PM 0.38 32.684 0.062 6.7 4.27 13.82
1/21/2021 5:15:00 PM 0.34 32.612 0.062 6.7 4.61 13.81
1/21/2021 5:30:00 PM 0.3 32.54 0.063 6.68 4.47 13.79
1/21/2021 5:45:00 PM 0.26 32.468 0.063 6.69 4.51 13.78
1/21/2021 6:00:00 PM 0.21 32.378 0.063 6.68 4.4 13.76
1/21/2021 6:15:00 PM 0.19 32.342 0.063 6.69 4.34 13.76
1/21/2021 6:30:00 PM 0.17 32.306 0.063 6.71 4.46 13.76
1/21/2021 6:45:00 PM 0.15 32.27 0.063 6.7 4.19 13.75
1/21/2021 7:00:00 PM 0.15 32.27 0.063 6.7 4.18 13.75
1/21/2021 7:15:00 PM 0.15 32.27 0.063 6.73 4.62 13.74
1/21/2021 7:30:00 PM 0.17 32.306 0.063 6.72 4.72 13.73
1/21/2021 7:45:00 PM 0.19 32.342 0.063 6.72 4.81 13.72
1/21/2021 8:00:00 PM 0.21 32.378 0.063 6.72 5.16 13.71
1/21/2021 8:15:00 PM 0.23 32.414 0.063 6.73 6.39 13.7
1/21/2021 8:30:00 PM 0.26 32.468 0.063 6.72 5.71 13.69
1/21/2021 8:45:00 PM 0.28 32.504 0.063 6.73 5.5 13.68
1/21/2021 9:00:00 PM 0.31 32.558 0.063 6.72 5.81 13.67
1/21/2021 9:15:00 PM 0.32 32.576 0.063 6.73 5.67 13.67
1/21/2021 9:30:00 PM 0.34 32.612 0.063 6.74 3.43 13.66
1/21/2021 9:45:00 PM 0.35 32.63 0.063 6.73 4.87 13.66
1/21/2021 10:00:00 PM 0.36 32.648 0.063 6.72 5.31 13.65
1/21/2021 10:15:00 PM 0.37 32.666 0.063 6.74 5.52 13.64
1/21/2021 10:30:00 PM 0.38 32.684 0.061 6.73 5.44 13.65
1/21/2021 10:45:00 PM 0.37 32.666 0.063 6.74 5.7 13.64
1/21/2021 11:00:00 PM 0.37 32.666 0.062 6.71 5.22 13.64
1/21/2021 11:15:00 PM 0.37 32.666 0.063 6.73 5.61 13.64
1/21/2021 11:30:00 PM 0.37 32.666 0.063 6.73 5.37 13.64
1/21/2021 11:45:00 PM 0.37 32.666 0.063 6.72 5.13 13.64
1/22/2021 12:00:00 AM 0.37 32.666 0.063 6.72 5.2 13.63
1/22/2021 12:15:00 AM 0.37 32.666 0.063 6.72 5.23 13.63
1/22/2021 12:30:00 AM 0.38 32.684 0.063 6.72 5.24 13.63
1/22/2021 12:45:00 AM 0.38 32.684 0.063 6.7 5.39 13.62
1/22/2021 1:00:00 AM 0.39 32.702 0.063 6.72 5.22 13.63
1/22/2021 1:15:00 AM 0.39 32.702 0.063 6.72 5.47 13.63
1/22/2021 1:30:00 AM 0.4 32.72 0.063 6.71 5.11 13.62
1/22/2021 1:45:00 AM 0.41 32.738 0.063 6.72 4.93 13.62
1/22/2021 2:00:00 AM 0.42 32.756 0.063 6.72 4.84 13.62
1/22/2021 2:15:00 AM 0.43 32.774 0.063 6.73 5.53 13.62
1/22/2021 2:30:00 AM 0.44 32.792 0.063 6.73 4.93 13.61
1/22/2021 2:45:00 AM 0.45 32.81 0.063 6.73 5.36 13.62
1/22/2021 3:00:00 AM 0.45 32.81 0.063 6.73 4.83 13.61
1/22/2021 3:15:00 AM 0.46 32.828 0.063 6.72 4.88 13.61
1/22/2021 3:30:00 AM 0.46 32.828 0.061 6.75 5.6 13.61
1/22/2021 3:45:00 AM 0.47 32.846 0.06 6.72 5.77 13.6
1/22/2021 4:00:00 AM 0.47 32.846 0.063 6.72 6.35 13.6
1/22/2021 4:15:00 AM 0.48 32.864 0.063 6.72 5.55 13.61
1/22/2021 4:30:00 AM 0.48 32.864 0.063 6.72 5.41 13.6
1/22/2021 4:45:00 AM 0.49 32.882 0.061 6.71 5.79 13.6
1/22/2021 5:00:00 AM 0.5 32.9 0.063 6.72 5.51 13.6
1/22/2021 5:15:00 AM 0.5 32.9 0.063 6.72 5.52 13.59
1/22/2021 5:30:00 AM 0.5 32.9 0.063 6.72 5.53 13.6
1/22/2021 5:45:00 AM 0.5 32.9 0.063 6.72 5.67 13.6
1/22/2021 6:00:00 AM 0.5 32.9 0.063 6.72 6.79 13.59
1/22/2021 6:15:00 AM 0.51 32.918 0.063 6.72 7.13 13.59
1/22/2021 6:30:00 AM 0.51 32.918 0.063 6.72 123.82 13.6
1/22/2021 6:45:00 AM 0.51 32.918 0.063 6.72 5.64 13.6
1/22/2021 7:00:00 AM 0.52 32.936 0.063 6.71 5.51 13.59
1/22/2021 7:15:00 AM 0.51 32.918 0.063 6.72 5.32 13.6
1/22/2021 7:30:00 AM 0.51 32.918 0.063 6.73 5.56 13.6
1/22/2021 7:45:00 AM 0.52 32.936 0.063 6.72 5.19 13.6
1/22/2021 8:00:00 AM 0.52 32.936 0.063 6.73 5.17 13.62
1/22/2021 8:15:00 AM 0.53 32.954 0.063 6.72 5.07 13.65
1/22/2021 8:30:00 AM 0.54 32.972 0.063 6.73 5.04 13.68
1/22/2021 8:45:00 AM 0.57 33.026 0.063 6.73 12.69 13.73
1/22/2021 9:00:00 AM 0.59 33.062 0.062 6.75 6.64 13.77
1/22/2021 9:15:00 AM 0.62 33.116 0.063 6.76 5.28 13.8
1/22/2021 9:30:00 AM 0.68 33.224 0.062 6.77 5.31 13.83
1/22/2021 9:45:00 AM 0.73 33.314 0.062 6.78 5.02 13.85
1/22/2021 10:00:00 AM 0.8 33.44 0.063 6.79 6.48 13.86
1/22/2021 10:15:00 AM 0.87 33.566 0.062 6.79 20.17 13.87
1/22/2021 10:30:00 AM 0.94 33.692 0.062 6.81 4.79 13.87
1/22/2021 10:45:00 AM 1.03 33.854 0.062 6.81 4.87 13.87
1/22/2021 11:00:00 AM 1.1 33.98 0.062 6.82 35.05 13.85
1/22/2021 11:15:00 AM 1.14 34.052 0.062 6.81 4.48 13.84
1/22/2021 11:30:00 AM 1.16 34.088 0.062 6.82 5.03 13.82
1/22/2021 11:45:00 AM 1.17 34.106 0.062 6.81 4.77 13.79
1/22/2021 12:00:00 PM 1.15 34.07 0.062 6.81 4.79 13.78
1/22/2021 12:15:00 PM 1.14 34.052 0.062 6.8 4.36 13.76
1/22/2021 12:30:00 PM 1.17 34.106 0.062 6.81 4.31 13.75
1/22/2021 12:45:00 PM 1.19 34.142 0.062 6.8 4.51 13.74
1/22/2021 1:00:00 PM 1.11 33.998 0.062 6.81 4.23 13.74
1/22/2021 1:15:00 PM 1.13 34.034 0.062 6.81 4.12 13.74
1/22/2021 1:30:00 PM 1.19 34.142 0.061 6.82 4.29 13.74
1/22/2021 1:45:00 PM 1.25 34.25 0.063 6.83 4.13 13.76
1/22/2021 2:00:00 PM 1.28 34.304 0.063 6.83 4.26 13.75
1/22/2021 2:15:00 PM 1.29 34.322 0.063 6.83 4.17 13.74
1/22/2021 2:30:00 PM 1.25 34.25 0.063 6.82 4.64 13.74
1/22/2021 2:45:00 PM 1.23 34.214 0.063 6.81 4.44 13.74
1/22/2021 3:00:00 PM 1.23 34.214 0.062 6.82 4.33 13.73
1/22/2021 3:15:00 PM 1.23 34.214 0.062 6.81 4.44 13.73
1/22/2021 3:30:00 PM 1.22 34.196 0.062 6.8 4.42 13.73
1/22/2021 3:45:00 PM 1.2 34.16 0.062 6.8 4.8 13.72
1/22/2021 4:00:00 PM 1.18 34.124 0.062 6.79 12.27 13.69
1/22/2021 4:15:00 PM 1.16 34.088 0.062 6.79 4.75 13.68
1/22/2021 4:30:00 PM 1.14 34.052 0.062 6.79 4.98 13.67
1/22/2021 4:45:00 PM 1.11 33.998 0.062 6.79 4.92 13.67
1/22/2021 5:00:00 PM 1.09 33.962 0.062 6.78 4.92 13.66
1/22/2021 5:15:00 PM 1.05 33.89 0.062 6.78 4.95 13.64
1/22/2021 5:30:00 PM 1 33.8 0.062 6.76 4.94 13.62
1/22/2021 5:45:00 PM 0.97 33.746 0.062 6.76 4.96 13.6
1/22/2021 6:00:00 PM 0.93 33.674 0.062 6.73 4.95 13.59
1/22/2021 6:15:00 PM 0.89 33.602 0.062 6.75 5.13 13.59
1/22/2021 6:30:00 PM 0.84 33.512 0.062 6.74 5.18 13.59
1/22/2021 6:45:00 PM 0.8 33.44 0.062 6.74 5.32 13.6
1/22/2021 7:00:00 PM 0.76 33.368 0.062 6.73 5.5 13.6
1/22/2021 7:15:00 PM 0.72 33.296 0.062 6.73 5.21 13.61
1/22/2021 7:30:00 PM 0.68 33.224 0.062 6.73 5.47 13.62
1/22/2021 7:45:00 PM 0.63 33.134 0.062 6.72 5.29 13.64
1/22/2021 8:00:00 PM 0.59 33.062 0.062 6.71 5.25 13.66
1/22/2021 8:15:00 PM 0.56 33.008 0.062 6.72 5.44 13.66
1/22/2021 8:30:00 PM 0.52 32.936 0.062 6.73 5.46 13.68
1/22/2021 8:45:00 PM 0.48 32.864 0.062 6.71 5.26 13.7
1/22/2021 9:00:00 PM 0.45 32.81 0.062 6.7 5.51 13.71
1/22/2021 9:15:00 PM 0.42 32.756 0.063 6.7 4.75 13.72
1/22/2021 9:30:00 PM 0.39 32.702 0.063 6.71 4.51 13.74
1/22/2021 9:45:00 PM 0.35 32.63 0.063 6.71 4.28 13.76
1/22/2021 10:00:00 PM 0.31 32.558 0.063 6.71 4.36 13.77
1/22/2021 10:15:00 PM 0.28 32.504 0.063 6.71 4.15 13.79
1/22/2021 10:30:00 PM 0.24 32.432 0.063 6.71 4.3 13.81
1/22/2021 10:45:00 PM 0.21 32.378 0.063 6.7 4.26 13.82
1/22/2021 11:00:00 PM 0.17 32.306 0.063 6.7 7.94 13.84
1/22/2021 11:15:00 PM 0.14 32.252 0.063 6.71 4.25 13.86
1/22/2021 11:30:00 PM 0.11 32.198 0.063 6.71 4.29 13.87
1/22/2021 11:45:00 PM 0.08 32.144 0.063 6.71 4.19 13.89
1/23/2021 12:00:00 AM 0.04 32.072 0.063 6.71 4.34 13.9
1/23/2021 12:15:00 AM 0.01 32.018 0.063 6.71 4.36 13.92
1/23/2021 12:30:00 AM -0.02 31.964 0.063 6.7 4.34 13.92
1/23/2021 12:45:00 AM -0.04 31.928 0.063 6.7 4.22 13.93
1/23/2021 1:00:00 AM -0.06 31.892 0.063 6.71 6.11 13.96
1/23/2021 1:15:00 AM -0.08 31.856 0.063 6.7 4.21 13.97
1/23/2021 1:30:00 AM -0.09 31.838 0.063 6.72 4.02 13.98
1/23/2021 1:45:00 AM -0.08 31.856 0.064 6.73 4.24 13.99
1/23/2021 2:00:00 AM -0.07 31.874 0.064 6.72 4.22 13.98
1/23/2021 2:15:00 AM -0.07 31.874 0.064 6.73 4.26 13.99
1/23/2021 2:30:00 AM -0.07 31.874 0.064 6.75 4.2 14
1/23/2021 2:45:00 AM -0.07 31.874 0.064 6.75 4.22 14.02
1/23/2021 3:00:00 AM -0.07 31.874 0.065 6.74 4.2 14.01
1/23/2021 3:15:00 AM -0.07 31.874 0.065 6.74 4.12 14.04
1/23/2021 3:30:00 AM -0.07 31.874 0.065 6.73 4.21 14.03
1/23/2021 3:45:00 AM -0.07 31.874 0.064 6.73 4.13 14.04
1/23/2021 4:00:00 AM -0.07 31.874 0.064 6.73 4.2 14.04
1/23/2021 4:15:00 AM -0.07 31.874 0.064 6.73 4.18 14.05
1/23/2021 4:30:00 AM -0.07 31.874 0.064 6.72 4.1 14.05
1/23/2021 4:45:00 AM -0.07 31.874 0.064 6.73 4.12 14.04
1/23/2021 5:00:00 AM -0.07 31.874 0.064 6.74 4.22 14.06
1/23/2021 5:15:00 AM -0.07 31.874 0.064 6.72 4.2 14.05
1/23/2021 5:30:00 AM -0.07 31.874 0.064 6.73 4.29 14.05
1/23/2021 5:45:00 AM -0.07 31.874 0.064 6.72 4.19 14.06
1/23/2021 6:00:00 AM -0.07 31.874 0.064 6.72 4.31 14.04
1/23/2021 6:15:00 AM -0.07 31.874 0.064 6.72 4.14 14.04
1/23/2021 6:30:00 AM -0.07 31.874 0.064 6.71 4.15 14.05
1/23/2021 6:45:00 AM -0.07 31.874 0.064 6.73 4.15 14.06
1/23/2021 7:00:00 AM -0.07 31.874 0.064 6.72 4.07 14.07
1/23/2021 7:15:00 AM -0.07 31.874 0.064 6.72 4.1 14.06
1/23/2021 7:30:00 AM -0.07 31.874 0.064 6.71 4.14 14.06
1/23/2021 7:45:00 AM -0.07 31.874 0.064 6.72 4.12 14.09
1/23/2021 8:00:00 AM -0.07 31.874 0.065 6.71 4.06 14.11
1/23/2021 8:15:00 AM -0.07 31.874 0.065 6.72 4.18 14.13
1/23/2021 8:30:00 AM -0.07 31.874 0.065 6.72 4.08 14.18
1/23/2021 8:45:00 AM -0.07 31.874 0.065 6.74 4.09 14.23
1/23/2021 9:00:00 AM -0.07 31.874 0.065 6.73 4.09 14.27
1/23/2021 9:15:00 AM -0.07 31.874 0.065 6.75 4.13 14.31
1/23/2021 9:30:00 AM -0.07 31.874 0.065 6.75 4.1 14.35
1/23/2021 9:45:00 AM -0.07 31.874 0.065 6.76 4.12 14.37
1/23/2021 10:00:00 AM -0.07 31.874 0.065 6.79 4.18 14.38
1/23/2021 10:15:00 AM -0.07 31.874 0.064 6.78 4.1 14.4
1/23/2021 10:30:00 AM -0.07 31.874 0.065 6.78 4.17 14.41
1/23/2021 10:45:00 AM -0.07 31.874 0.065 6.78 4.19 14.41
1/23/2021 11:00:00 AM -0.07 31.874 0.065 6.79 4.14 14.43
1/23/2021 11:15:00 AM -0.07 31.874 0.065 6.79 4.17 14.43
1/23/2021 11:30:00 AM -0.06 31.892 0.065 6.8 4.13 14.44
1/23/2021 11:45:00 AM -0.06 31.892 0.064 6.8 4.26 14.45
1/23/2021 12:00:00 PM -0.05 31.91 0.064 6.8 4.18 14.45
1/23/2021 12:15:00 PM -0.04 31.928 0.063 6.81 3.9 14.48
1/23/2021 12:30:00 PM -0.03 31.946 0.063 6.8 4.21 14.47
1/23/2021 12:45:00 PM -0.03 31.946 0.063 6.8 3.96 14.48
1/23/2021 1:00:00 PM -0.03 31.946 0.063 6.79 3.94 14.48
1/23/2021 1:15:00 PM -0.02 31.964 0.063 6.8 3.77 14.48
1/23/2021 1:30:00 PM 0.01 32.018 0.063 6.8 3.76 14.49
1/23/2021 1:45:00 PM 0.03 32.054 0.038 6.8 3.77 14.47
1/23/2021 2:00:00 PM 0.02 32.036 0.063 6.82 3.78 14.47
1/23/2021 2:15:00 PM 0.02 32.036 0.063 6.8 3.69 14.46
1/23/2021 2:30:00 PM 0.02 32.036 0.063 6.82 3.78 14.47
1/23/2021 2:45:00 PM 0.02 32.036 0.042 6.82 4.67 14.47
1/23/2021 3:00:00 PM 0.01 32.018 0.063 6.8 3.6 14.46
1/23/2021 3:15:00 PM 0.01 32.018 0.063 6.81 4.22 14.46
1/23/2021 3:30:00 PM 0.01 32.018 0.063 6.82 3.53 14.45
1/23/2021 3:45:00 PM 0 32 0.062 6.81 14.51 14.45
1/23/2021 4:00:00 PM -0.02 31.964 0.063 6.8 3.56 14.44
1/23/2021 4:15:00 PM -0.04 31.928 0.063 6.8 3.44 14.43
1/23/2021 4:30:00 PM -0.06 31.892 0.063 6.81 4.63 14.43
1/23/2021 4:45:00 PM -0.07 31.874 0.063 6.81 4.92 14.41
1/23/2021 5:00:00 PM -0.08 31.856 0.063 6.79 5.11 14.37
1/23/2021 5:15:00 PM -0.07 31.874 0.063 6.78 5.37 14.35
1/23/2021 5:30:00 PM -0.07 31.874 0.063 6.8 5.49 14.31
1/23/2021 5:45:00 PM -0.07 31.874 0.063 6.79 5.4 14.27
1/23/2021 6:00:00 PM -0.07 31.874 0.063 6.78 5.23 14.25
1/23/2021 6:15:00 PM -0.07 31.874 0.063 6.77 5.27 14.23
1/23/2021 6:30:00 PM -0.07 31.874 0.063 6.77 5.18 14.23
1/23/2021 6:45:00 PM -0.07 31.874 0.063 6.77 5.22 14.2
1/23/2021 7:00:00 PM -0.07 31.874 0.064 6.76 5.2 14.2
1/23/2021 7:15:00 PM -0.07 31.874 0.063 6.75 5.18 14.19
1/23/2021 7:30:00 PM -0.07 31.874 0.063 6.75 712.92 14.19
1/23/2021 7:45:00 PM -0.07 31.874 0.064 6.74 6.08 14.18
1/23/2021 8:00:00 PM -0.07 31.874 0.063 6.75 5.19 14.18
1/23/2021 8:15:00 PM -0.07 31.874 0.064 6.74 5.22 14.17
1/23/2021 8:30:00 PM -0.07 31.874 0.063 6.74 5.33 14.15
1/23/2021 8:45:00 PM -0.07 31.874 0.064 6.74 5.41 14.14
1/23/2021 9:00:00 PM -0.07 31.874 0.064 6.74 5.35 14.16
1/23/2021 9:15:00 PM -0.07 31.874 0.064 6.73 5.23 14.14
1/23/2021 9:30:00 PM -0.07 31.874 0.064 6.73 5.29 14.15
1/23/2021 9:45:00 PM -0.07 31.874 0.064 6.73 5.29 14.14
1/23/2021 10:00:00 PM -0.07 31.874 0.064 6.73 5.23 14.13
1/23/2021 10:15:00 PM -0.07 31.874 0.064 6.73 5.38 14.15
1/23/2021 10:30:00 PM -0.07 31.874 0.064 6.73 5.23 14.14
1/23/2021 10:45:00 PM -0.07 31.874 0.064 6.73 5.29 14.14
1/23/2021 11:00:00 PM -0.07 31.874 0.064 6.73 5.2 14.14
1/23/2021 11:15:00 PM -0.07 31.874 0.064 6.73 5.26 14.14
1/23/2021 11:30:00 PM -0.07 31.874 0.064 6.72 5.38 14.12
1/23/2021 11:45:00 PM -0.07 31.874 0.064 6.72 5.13 14.12
1/24/2021 12:00:00 AM -0.07 31.874 0.064 6.72 5.26 14.12
1/24/2021 12:15:00 AM -0.07 31.874 0.065 6.72 5.22 14.13
1/24/2021 12:30:00 AM -0.07 31.874 0.065 6.74 5.31 14.12
1/24/2021 12:45:00 AM -0.07 31.874 0.065 6.72 5.37 14.13
1/24/2021 1:00:00 AM -0.07 31.874 0.065 6.72 5.29 14.13
1/24/2021 1:15:00 AM -0.07 31.874 0.065 6.72 5.34 14.13
1/24/2021 1:30:00 AM -0.07 31.874 0.065 6.73 5.34 14.11
1/24/2021 1:45:00 AM -0.07 31.874 0.065 6.72 5.35 14.12
1/24/2021 2:00:00 AM -0.07 31.874 0.065 6.73 5.31 14.13
1/24/2021 2:15:00 AM -0.07 31.874 0.065 6.72 5.31 14.13
1/24/2021 2:30:00 AM -0.07 31.874 0.065 6.72 5.32 14.13
1/24/2021 2:45:00 AM -0.07 31.874 0.065 6.73 5.33 14.11
1/24/2021 3:00:00 AM -0.07 31.874 0.065 6.72 5.3 14.1
1/24/2021 3:15:00 AM -0.07 31.874 0.065 6.72 5.34 14.1
1/24/2021 3:30:00 AM -0.07 31.874 0.065 6.73 5.4 14.13
1/24/2021 3:45:00 AM -0.07 31.874 0.065 6.72 5.56 14.12
1/24/2021 4:00:00 AM -0.07 31.874 0.065 6.73 5.45 14.14
1/24/2021 4:15:00 AM -0.07 31.874 0.065 6.71 5.42 14.14
1/24/2021 4:30:00 AM -0.07 31.874 0.065 6.71 5.41 14.14
1/24/2021 4:45:00 AM -0.07 31.874 0.065 6.72 5.36 14.12
1/24/2021 5:00:00 AM -0.07 31.874 0.065 6.72 5.33 14.14
1/24/2021 5:15:00 AM -0.07 31.874 0.065 6.72 5.32 14.14
1/24/2021 5:30:00 AM -0.07 31.874 0.065 6.72 5.37 14.15
1/24/2021 5:45:00 AM -0.07 31.874 0.065 6.72 5.18 14.16
1/24/2021 6:00:00 AM -0.07 31.874 0.065 6.71 5.22 14.16
1/24/2021 6:15:00 AM -0.07 31.874 0.065 6.72 5.15 14.16
1/24/2021 6:30:00 AM -0.07 31.874 0.065 6.72 5.24 14.15
1/24/2021 6:45:00 AM -0.07 31.874 0.065 6.71 5.22 14.14
1/24/2021 7:00:00 AM -0.07 31.874 0.065 6.72 5.22 14.15
1/24/2021 7:15:00 AM -0.07 31.874 0.065 6.71 5.24 14.16
1/24/2021 7:30:00 AM -0.07 31.874 0.066 6.71 5.18 14.14
1/24/2021 7:45:00 AM -0.07 31.874 0.066 6.71 5.23 14.17
1/24/2021 8:00:00 AM -0.07 31.874 0.066 6.71 5.21 14.19
1/24/2021 8:15:00 AM -0.07 31.874 0.066 6.72 5.22 14.2
1/24/2021 8:30:00 AM -0.07 31.874 0.066 6.71 5.22 14.23
1/24/2021 8:45:00 AM -0.07 31.874 0.066 6.72 5.26 14.27
1/24/2021 9:00:00 AM -0.07 31.874 0.066 6.72 5.22 14.32
1/24/2021 9:15:00 AM -0.07 31.874 0.067 6.73 5.24 14.34
1/24/2021 9:30:00 AM -0.07 31.874 0.067 6.74 5.33 14.39
1/24/2021 9:45:00 AM -0.07 31.874 0.067 6.74 5.21 14.42
1/24/2021 10:00:00 AM -0.07 31.874 0.067 6.75 5.14 14.45
1/24/2021 10:15:00 AM -0.07 31.874 0.067 6.76 5.14 14.48
1/24/2021 10:30:00 AM -0.07 31.874 0.067 6.77 5.12 14.49
1/24/2021 10:45:00 AM -0.07 31.874 0.067 6.77 5.27 14.51
1/24/2021 11:00:00 AM -0.07 31.874 0.067 6.78 5.22 14.51
1/24/2021 11:15:00 AM -0.05 31.91 0.067 6.79 5.37 14.51
1/24/2021 11:30:00 AM -0.04 31.928 0.067 6.8 5.48 14.5
1/24/2021 11:45:00 AM -0.04 31.928 0.066 6.79 5.98 14.49
1/24/2021 12:00:00 PM -0.03 31.946 0.067 6.79 6.03 14.48
1/24/2021 12:15:00 PM -0.02 31.964 0.066 6.8 6.07 14.46
1/24/2021 12:30:00 PM 0 32 0.067 6.8 5.66 14.44
1/24/2021 12:45:00 PM 0.01 32.018 0.067 6.81 6.16 14.44
1/24/2021 1:00:00 PM 0.02 32.036 0.067 6.81 6.63 14.42
1/24/2021 1:15:00 PM 0.04 32.072 0.067 6.8 8.22 14.4
1/24/2021 1:30:00 PM 0.04 32.072 0.065 6.81 7.27 14.39
1/24/2021 1:45:00 PM 0.05 32.09 0.059 6.8 7.28 14.39
1/24/2021 2:00:00 PM 0.06 32.108 0.067 6.8 468.78 14.38
1/24/2021 2:15:00 PM 0.06 32.108 0.065 6.82 4.09 14.38
1/24/2021 2:30:00 PM 0.04 32.072 0.067 6.82 4.53 14.38
1/24/2021 2:45:00 PM 0.04 32.072 0.066 6.82 5.66 14.39
1/24/2021 3:00:00 PM 0.05 32.09 0.066 6.82 8.49 14.39
1/24/2021 3:15:00 PM 0.04 32.072 0.066 6.83 76.73 14.39
1/24/2021 3:30:00 PM 0.04 32.072 0.062 6.83 5.07 14.39
1/24/2021 3:45:00 PM 0.03 32.054 0.065 6.82 3.55 14.39
1/24/2021 4:00:00 PM 0 32 0.065 6.82 3.69 14.4
1/24/2021 4:15:00 PM -0.02 31.964 0.065 6.83 3.74 14.39
1/24/2021 4:30:00 PM -0.03 31.946 0.065 6.82 5.57 14.38
1/24/2021 4:45:00 PM -0.03 31.946 0.065 6.83 4.1 14.37
1/24/2021 5:00:00 PM -0.04 31.928 0.064 6.82 4.41 14.35
1/24/2021 5:15:00 PM -0.05 31.91 0.065 6.82 4.25 14.31
1/24/2021 5:30:00 PM -0.06 31.892 0.065 6.81 4.31 14.26
1/24/2021 5:45:00 PM -0.07 31.874 0.065 6.8 4.4 14.22
1/24/2021 6:00:00 PM -0.07 31.874 0.065 6.78 4.91 14.2
1/24/2021 6:15:00 PM -0.07 31.874 0.065 6.77 4.14 14.17
1/24/2021 6:30:00 PM -0.07 31.874 0.065 6.78 4.14 14.15
1/24/2021 6:45:00 PM -0.07 31.874 0.062 6.76 4.22 14.12
1/24/2021 7:00:00 PM -0.07 31.874 0.063 6.76 4.23 14.1
1/24/2021 7:15:00 PM -0.07 31.874 0.064 6.75 4.28 14.11
1/24/2021 7:30:00 PM -0.07 31.874 0.065 6.75 4.27 14.08
1/24/2021 7:45:00 PM -0.07 31.874 0.065 6.74 4.59 14.07
1/24/2021 8:00:00 PM -0.07 31.874 0.065 6.74 9.83 14.06
1/24/2021 8:15:00 PM -0.07 31.874 0.065 6.73 3.43 14.07
1/24/2021 8:30:00 PM -0.07 31.874 0.064 6.74 3.32 14.07
1/24/2021 8:45:00 PM -0.07 31.874 0.052 6.72 3.32 14.05
1/24/2021 9:00:00 PM -0.07 31.874 0.064 6.72 3.38 14.04
1/24/2021 9:15:00 PM -0.07 31.874 0.064 6.72 3.41 14.04
1/24/2021 9:30:00 PM -0.07 31.874 0.063 6.71 5.31 14.05
1/24/2021 9:45:00 PM -0.07 31.874 0.049 6.71 4.6 14.04
1/24/2021 10:00:00 PM -0.07 31.874 0.061 6.7 4.5 14.04
1/24/2021 10:15:00 PM -0.07 31.874 0.063 6.71 3.41 14.03
1/24/2021 10:30:00 PM -0.07 31.874 0.062 6.7 3.96 14.05
1/24/2021 10:45:00 PM -0.07 31.874 0.06 6.71 3.55 14.05
1/24/2021 11:00:00 PM -0.07 31.874 0.062 6.7 16.99 14.04
1/24/2021 11:15:00 PM -0.07 31.874 0.062 6.7 3.5 14.03
1/24/2021 11:30:00 PM -0.07 31.874 0.062 6.7 3.67 14.02
1/24/2021 11:45:00 PM -0.07 31.874 0.062 6.69 3.58 14.02
1/25/2021 12:00:00 AM -0.07 31.874 0.062 6.7 3.51 14.04
1/25/2021 12:15:00 AM -0.07 31.874 0.062 6.7 4.23 14.02
1/25/2021 12:30:00 AM -0.08 31.856 0.06 6.7 3.23 14.03
1/25/2021 12:45:00 AM -0.08 31.856 0.062 6.7 3.48 14.02
1/25/2021 1:00:00 AM -0.08 31.856 0.062 6.71 3.57 14.02
1/25/2021 1:15:00 AM -0.07 31.874 0.062 6.71 3.91 14.03
1/25/2021 1:30:00 AM -0.07 31.874 0.063 6.7 3.21 14.02
1/25/2021 1:45:00 AM -0.07 31.874 0.063 6.69 3.74 14.01
1/25/2021 2:00:00 AM -0.07 31.874 0.063 6.71 3.68 14.02
1/25/2021 2:15:00 AM -0.08 31.856 0.063 6.7 4.13 14.01
1/25/2021 2:30:00 AM -0.08 31.856 0.063 6.7 3.64 14.01
1/25/2021 2:45:00 AM -0.08 31.856 0.063 6.7 3.47 14.03
1/25/2021 3:00:00 AM -0.08 31.856 0.063 6.7 3.59 14.03
1/25/2021 3:15:00 AM -0.08 31.856 0.063 6.69 3.44 14.03
1/25/2021 3:30:00 AM -0.07 31.874 0.064 6.7 4.19 14.02
1/25/2021 3:45:00 AM -0.07 31.874 0.063 6.69 4.61 14.02
1/25/2021 4:00:00 AM -0.07 31.874 0.065 6.71 4.36 14.02
1/25/2021 4:15:00 AM -0.07 31.874 0.064 6.69 5.96 14.01
1/25/2021 4:30:00 AM -0.07 31.874 0.064 6.69 5.65 14.02
1/25/2021 4:45:00 AM -0.07 31.874 0.064 6.69 5.07 14
1/25/2021 5:00:00 AM -0.07 31.874 0.064 6.72 4.78 14.02
1/25/2021 5:15:00 AM -0.07 31.874 0.064 6.71 3.83 14.02
1/25/2021 5:30:00 AM -0.07 31.874 0.064 6.7 8.84 14.01
1/25/2021 5:45:00 AM -0.07 31.874 0.063 6.7 4.14 14.01
1/25/2021 6:00:00 AM -0.07 31.874 0.064 6.7 4.16 14.01
1/25/2021 6:15:00 AM -0.07 31.874 0.064 6.7 4.1 14
1/25/2021 6:30:00 AM -0.07 31.874 0.064 6.7 3.99 14.01
1/25/2021 6:45:00 AM -0.07 31.874 0.064 6.71 3.7 14
1/25/2021 7:00:00 AM -0.07 31.874 0.064 6.7 3.96 14.01
1/25/2021 7:15:00 AM -0.07 31.874 0.064 6.7 3.94 14.02
1/25/2021 7:30:00 AM -0.07 31.874 0.062 6.7 3.98 14.03
1/25/2021 7:45:00 AM -0.07 31.874 0.064 6.72 3.79 14.03
1/25/2021 8:00:00 AM -0.07 31.874 0.064 6.72 3.93 14.06
1/25/2021 8:15:00 AM -0.06 31.892 0.064 6.72 4.58 14.11
1/25/2021 8:30:00 AM -0.05 31.91 0.064 6.73 4.26 14.14
1/25/2021 8:45:00 AM -0.05 31.91 0.064 6.73 5.45 14.21
1/25/2021 9:00:00 AM -0.03 31.946 0.064 6.75 5.31 14.24
1/25/2021 9:15:00 AM -0.02 31.964 0.064 6.75 4.53 14.28
1/25/2021 9:30:00 AM -0.02 31.964 0.063 6.76 4.27 14.3
1/25/2021 9:45:00 AM -0.01 31.982 0.063 6.77 321.14 14.33
1/25/2021 10:00:00 AM 0.01 32.018 0.063 6.77 4.48 14.36
1/25/2021 10:15:00 AM 0.03 32.054 0.063 6.78 4.9 14.36
1/25/2021 10:30:00 AM 0.05 32.09 0.063 6.77 4.93 14.37
1/25/2021 10:45:00 AM 0.06 32.108 0.062 6.78 5.64 14.38
1/25/2021 11:00:00 AM 0.09 32.162 0.062 6.79 4.79 14.37
1/25/2021 11:15:00 AM 0.14 32.252 0.062 6.8 5.13 14.36
1/25/2021 11:30:00 AM 0.17 32.306 0.062 6.81 4.36 14.34
1/25/2021 11:45:00 AM 0.17 32.306 0.062 6.8 4.67 14.32
1/25/2021 12:00:00 PM 0.19 32.342 0.062 6.8 4.63 14.3
1/25/2021 12:15:00 PM 0.21 32.378 0.061 6.81 4.75 14.28
1/25/2021 12:30:00 PM 0.26 32.468 0.061 6.82 4.36 14.26
1/25/2021 12:45:00 PM 0.3 32.54 0.061 6.82 4.69 14.23
1/25/2021 1:00:00 PM 0.31 32.558 0.061 6.81 5.12 14.2
1/25/2021 1:15:00 PM 0.34 32.612 0.061 6.81 5.16 14.18
1/25/2021 1:30:00 PM 0.37 32.666 0.061 6.82 5.09 14.16
1/25/2021 1:45:00 PM 0.39 32.702 0.061 6.81 5.79 14.14
1/25/2021 2:00:00 PM 0.4 32.72 0.061 6.82 4.48 14.13
1/25/2021 2:15:00 PM 0.41 32.738 0.06 6.82 4.73 14.13
1/25/2021 2:30:00 PM 0.42 32.756 0.06 6.81 5.24 14.12
1/25/2021 2:45:00 PM 0.43 32.774 0.06 6.81 4.63 14.11
1/25/2021 3:00:00 PM 0.43 32.774 0.06 6.82 4.64 14.11
1/25/2021 3:15:00 PM 0.44 32.792 0.06 6.82 4.3 14.1
1/25/2021 3:30:00 PM 0.43 32.774 0.06 6.82 4.69 14.1
1/25/2021 3:45:00 PM 0.43 32.774 0.06 6.82 4.91 14.1
1/25/2021 4:00:00 PM 0.41 32.738 0.06 6.81 6.11 14.09
1/25/2021 4:15:00 PM 0.39 32.702 0.06 6.81 6.58 14.08
1/25/2021 4:30:00 PM 0.37 32.666 0.059 6.8 5.75 14.08
1/25/2021 4:45:00 PM 0.35 32.63 0.059 6.81 8.02 14.07
1/25/2021 5:00:00 PM 0.32 32.576 0.059 6.79 8.05 14.04
1/25/2021 5:15:00 PM 0.3 32.54 0.059 6.77 7.01 14.01
1/25/2021 5:30:00 PM 0.28 32.504 0.059 6.77 7.36 13.98
1/25/2021 5:45:00 PM 0.25 32.45 0.059 6.76 8.12 13.95
1/25/2021 6:00:00 PM 0.23 32.414 0.059 6.74 7.76 13.93
1/25/2021 6:15:00 PM 0.21 32.378 0.059 6.73 8.39 13.92
1/25/2021 6:30:00 PM 0.2 32.36 0.059 6.74 7.33 13.91
1/25/2021 6:45:00 PM 0.18 32.324 0.059 6.73 7.27 13.9
1/25/2021 7:00:00 PM 0.17 32.306 0.059 6.73 5.43 13.9
1/25/2021 7:15:00 PM 0.15 32.27 0.06 6.7 6.39 13.9
1/25/2021 7:30:00 PM 0.14 32.252 0.06 6.72 6.39 13.9
1/25/2021 7:45:00 PM 0.14 32.252 0.06 6.72 5.34 13.89
1/25/2021 8:00:00 PM 0.13 32.234 0.06 6.71 4.8 13.89
1/25/2021 8:15:00 PM 0.13 32.234 0.053 6.7 8174.58 13.89
1/25/2021 8:30:00 PM 0.13 32.234 0.06 6.71 9.68 13.89
1/25/2021 8:45:00 PM 0.12 32.216 0.06 6.72 3.75 13.89
1/25/2021 9:00:00 PM 0.12 32.216 0.06 6.7 3.97 13.88
1/25/2021 9:15:00 PM 0.12 32.216 0.06 6.7 3.43 13.88
1/25/2021 9:30:00 PM 0.12 32.216 0.06 6.7 3.49 13.88
1/25/2021 9:45:00 PM 0.13 32.234 0.058 6.7 3.67 13.88
1/25/2021 10:00:00 PM 0.13 32.234 0.06 6.72 3.7 13.87
1/25/2021 10:15:00 PM 0.13 32.234 0.061 6.72 9.65 13.88
1/25/2021 10:30:00 PM 0.13 32.234 0.061 6.71 3.24 13.87
1/25/2021 10:45:00 PM 0.13 32.234 0.056 6.72 7.33 13.88
1/25/2021 11:00:00 PM 0.13 32.234 0.061 6.71 4.35 13.87
1/25/2021 11:15:00 PM 0.13 32.234 0.061 6.72 3.7 13.87
1/25/2021 11:30:00 PM 0.13 32.234 0.061 6.72 3.8 13.87
1/25/2021 11:45:00 PM 0.13 32.234 0.061 6.72 9.56 13.87
1/26/2021 12:00:00 AM 0.12 32.216 0.061 6.71 5.43 13.87
1/26/2021 12:15:00 AM 0.12 32.216 0.061 6.72 5.25 13.87
1/26/2021 12:30:00 AM 0.12 32.216 0.061 6.72 4.1 13.87
1/26/2021 12:45:00 AM 0.11 32.198 0.061 6.71 5.7 13.87
1/26/2021 1:00:00 AM 0.11 32.198 0.061 6.71 4.19 13.87
1/26/2021 1:15:00 AM 0.1 32.18 0.061 6.72 3.51 13.87
1/26/2021 1:30:00 AM 0.1 32.18 0.061 6.72 7.63 13.87
1/26/2021 1:45:00 AM 0.1 32.18 0.062 6.72 3.56 13.87
1/26/2021 2:00:00 AM 0.1 32.18 0.061 6.72 7.44 13.87
1/26/2021 2:15:00 AM 0.1 32.18 0.061 6.72 8.93 13.87
1/26/2021 2:30:00 AM 0.1 32.18 0.061 6.72 4.16 13.87
1/26/2021 2:45:00 AM 0.1 32.18 0.061 6.73 6.85 13.86
1/26/2021 3:00:00 AM 0.1 32.18 0.061 6.72 7.29 13.86
1/26/2021 3:15:00 AM 0.09 32.162 0.061 6.72 4.53 13.86
1/26/2021 3:30:00 AM 0.08 32.144 0.061 6.72 5 13.86
1/26/2021 3:45:00 AM 0.08 32.144 0.051 6.74 4.85 13.86
1/26/2021 4:00:00 AM 0.08 32.144 0.062 6.72 7.83 13.85
1/26/2021 4:15:00 AM 0.08 32.144 0.061 6.72 55.74 13.85
1/26/2021 4:30:00 AM 0.09 32.162 0.062 6.73 7.74 13.85
1/26/2021 4:45:00 AM 0.09 32.162 0.062 6.72 25.81 13.84
1/26/2021 5:00:00 AM 0.09 32.162 0.062 6.74 8.71 13.84
1/26/2021 5:15:00 AM 0.09 32.162 0.062 6.73 13.54 13.84
1/26/2021 5:30:00 AM 0.09 32.162 0.061 6.72 3.64 13.84
1/26/2021 5:45:00 AM 0.09 32.162 0.062 6.72 6.65 13.83
1/26/2021 6:00:00 AM 0.09 32.162 0.062 6.72 5.31 13.83
1/26/2021 6:15:00 AM 0.09 32.162 0.062 6.73 8.09 13.83
1/26/2021 6:30:00 AM 0.1 32.18 0.062 6.73 8.33 13.82
1/26/2021 6:45:00 AM 0.1 32.18 0.062 6.72 3.31 13.82
1/26/2021 7:00:00 AM 0.1 32.18 0.062 6.72 3.65 13.82
1/26/2021 7:15:00 AM 0.08 32.144 0.062 6.73 3.32 13.82
1/26/2021 7:30:00 AM 0.05 32.09 0.061 6.72 4.05 13.82
1/26/2021 7:45:00 AM 0.04 32.072 0.062 6.73 3.95 13.82
1/26/2021 8:00:00 AM 0.04 32.072 0.062 6.73 3.06 13.83
1/26/2021 8:15:00 AM 0.05 32.09 0.062 6.74 3.66 13.85
1/26/2021 8:30:00 AM 0.02 32.036 0.065 6.73 6.89 13.86
1/26/2021 8:45:00 AM -0.01 31.982 0.052 6.74 7.31 13.88
1/26/2021 9:00:00 AM -0.01 31.982 0.073 6.74 7.01 13.91
1/26/2021 9:15:00 AM -0.04 31.928 0.069 6.75 9.62 13.95
1/26/2021 9:30:00 AM -0.06 31.892 0.068 6.75 7.43 13.99
1/26/2021 9:45:00 AM -0.05 31.91 0.073 6.77 7.42 14
1/26/2021 10:00:00 AM -0.04 31.928 0.07 6.78 5775.76 14.04
1/26/2021 10:15:00 AM -0.03 31.946 0.07 6.79 7.52 14.06
1/26/2021 10:30:00 AM -0.01 31.982 0.065 6.78 3.21 14.09
1/26/2021 10:45:00 AM 0.01 32.018 0.067 6.76 3.86 14.1
1/26/2021 11:00:00 AM 0.02 32.036 0.064 6.78 3.49 14.11
1/26/2021 11:15:00 AM 0.02 32.036 0.065 6.79 4.04 14.12
1/26/2021 11:30:00 AM 0.03 32.054 0.065 6.78 5.3 14.13
1/26/2021 11:45:00 AM 0.04 32.072 0.073 6.8 50.42 14.14
1/26/2021 12:00:00 PM 0.03 32.054 0.083 6.82 4.39 14.14
1/26/2021 12:15:00 PM 0.02 32.036 0.072 6.81 3.03 14.14
1/26/2021 12:30:00 PM 0.04 32.072 0.076 6.81 3.86 14.16
1/26/2021 12:45:00 PM 0.05 32.09 0.076 6.81 3.45 14.14
1/26/2021 1:00:00 PM 0.07 32.126 0.072 6.82 2.88 14.15
1/26/2021 1:15:00 PM 0.11 32.198 0.071 6.79 3.05 14.15
1/26/2021 1:30:00 PM 0.14 32.252 0.074 6.8 4.56 14.14
1/26/2021 1:45:00 PM 0.16 32.288 0.072 6.8 6.11 14.14
1/26/2021 2:00:00 PM 0.18 32.324 0.07 6.83 4.68 14.13
1/26/2021 2:15:00 PM 0.21 32.378 0.07 6.84 5.4 14.13
1/26/2021 2:30:00 PM 0.23 32.414 0.068 6.82 21.85 14.12
1/26/2021 2:45:00 PM 0.25 32.45 0.067 6.81 7.07 14.1
1/26/2021 3:00:00 PM 0.26 32.468 0.067 6.82 13.6 14.08
1/26/2021 3:15:00 PM 0.27 32.486 0.067 6.83 106.3 14.05
1/26/2021 3:30:00 PM 0.28 32.504 0.066 6.81 23.29 14.04
1/26/2021 3:45:00 PM 0.29 32.522 0.066 6.81 5.04 14.01
1/26/2021 4:00:00 PM 0.29 32.522 0.065 6.8 21.26 13.99
1/26/2021 4:15:00 PM 0.3 32.54 0.065 6.78 4.38 13.96
1/26/2021 4:30:00 PM 0.31 32.558 0.065 6.78 4.26 13.93
1/26/2021 4:45:00 PM 0.31 32.558 0.065 6.77 5 13.91
1/26/2021 5:00:00 PM 0.32 32.576 0.065 6.77 4.8 13.9
1/26/2021 5:15:00 PM 0.32 32.576 0.066 6.76 4.92 13.87
1/26/2021 5:30:00 PM 0.32 32.576 0.067 6.75 5.22 13.85
1/26/2021 5:45:00 PM 0.32 32.576 0.067 6.75 5.33 13.81
1/26/2021 6:00:00 PM 0.32 32.576 0.066 6.74 4.7 13.79
1/26/2021 6:15:00 PM 0.32 32.576 0.066 6.75 4.14 13.76
1/26/2021 6:30:00 PM 0.32 32.576 0.066 6.74 4.35 13.75
1/26/2021 6:45:00 PM 0.32 32.576 0.066 6.74 2.47 13.73
1/26/2021 7:00:00 PM 0.33 32.594 0.066 6.73 2.65 13.73
1/26/2021 7:15:00 PM 0.33 32.594 0.066 6.73 2.16 13.72
1/26/2021 7:30:00 PM 0.34 32.612 0.068 6.75 2.23 13.71
1/26/2021 7:45:00 PM 0.35 32.63 0.073 6.74 2.51 13.7
1/26/2021 8:00:00 PM 0.35 32.63 0.072 6.73 164.09 13.69
1/26/2021 8:15:00 PM 0.36 32.648 0.07 6.73 2.3 13.69
1/26/2021 8:30:00 PM 0.36 32.648 0.069 6.72 3.04 13.69
1/26/2021 8:45:00 PM 0.37 32.666 0.069 6.73 4.25 13.68
1/26/2021 9:00:00 PM 0.38 32.684 0.069 6.72 2.39 13.68
1/26/2021 9:15:00 PM 0.38 32.684 0.069 6.73 2.26 13.68
1/26/2021 9:30:00 PM 0.39 32.702 0.069 6.72 43.73 13.68
1/26/2021 9:45:00 PM 0.39 32.702 0.061 6.73 2.18 13.67
1/26/2021 10:00:00 PM 0.4 32.72 0.069 6.72 4 13.67
1/26/2021 10:15:00 PM 0.41 32.738 0.069 6.71 2.91 13.67
1/26/2021 10:30:00 PM 0.42 32.756 0.069 6.72 2.79 13.68
1/26/2021 10:45:00 PM 0.42 32.756 0.069 6.71 4.8 13.67
1/26/2021 11:00:00 PM 0.43 32.774 0.07 6.71 4.39 13.67
1/26/2021 11:15:00 PM 0.43 32.774 0.07 6.72 4.13 13.67
1/26/2021 11:30:00 PM 0.44 32.792 0.07 6.73 3.77 13.67
1/26/2021 11:45:00 PM 0.44 32.792 0.07 6.73 3.97 13.67
1/27/2021 12:00:00 AM 0.44 32.792 0.07 6.72 3.64 13.67
1/27/2021 12:15:00 AM 0.44 32.792 0.07 6.72 4.44 13.67
1/27/2021 12:30:00 AM 0.44 32.792 0.07 6.72 3.81 13.67
1/27/2021 12:45:00 AM 0.43 32.774 0.07 6.72 3.98 13.68
1/27/2021 1:00:00 AM 0.43 32.774 0.07 6.73 4.2 13.68
1/27/2021 1:15:00 AM 0.43 32.774 0.07 6.72 3.72 13.68
1/27/2021 1:30:00 AM 0.43 32.774 0.07 6.72 3.85 13.68
1/27/2021 1:45:00 AM 0.43 32.774 0.07 6.72 4.08 13.7
1/27/2021 2:00:00 AM 0.43 32.774 0.07 6.73 3.72 13.7
1/27/2021 2:15:00 AM 0.41 32.738 0.07 6.72 3.91 13.7
1/27/2021 2:30:00 AM 0.41 32.738 0.07 6.72 4.1 13.71
1/27/2021 2:45:00 AM 0.41 32.738 0.07 6.71 3.72 13.71
1/27/2021 3:00:00 AM 0.4 32.72 0.071 6.73 3.84 13.73
1/27/2021 3:15:00 AM 0.4 32.72 0.071 6.72 3.89 13.73
1/27/2021 3:30:00 AM 0.39 32.702 0.071 6.73 3.76 13.73
1/27/2021 3:45:00 AM 0.39 32.702 0.071 6.71 3.79 13.75
1/27/2021 4:00:00 AM 0.39 32.702 0.071 6.73 3.53 13.75
1/27/2021 4:15:00 AM 0.39 32.702 0.071 6.72 3.94 13.75
1/27/2021 4:30:00 AM 0.38 32.684 0.071 6.73 3.78 13.76
1/27/2021 4:45:00 AM 0.38 32.684 0.071 6.72 3.88 13.76
1/27/2021 5:00:00 AM 0.37 32.666 0.071 6.72 3.79 13.77
1/27/2021 5:15:00 AM 0.36 32.648 0.071 6.72 3.82 13.78
1/27/2021 5:30:00 AM 0.35 32.63 0.071 6.72 3.87 13.78
1/27/2021 5:45:00 AM 0.34 32.612 0.071 6.72 3.71 13.79
1/27/2021 6:00:00 AM 0.33 32.594 0.071 6.72 3.66 13.8
1/27/2021 6:15:00 AM 0.31 32.558 0.071 6.72 3.85 13.81
1/27/2021 6:30:00 AM 0.3 32.54 0.071 6.72 3.79 13.82
1/27/2021 6:45:00 AM 0.29 32.522 0.071 6.73 3.39 13.82
1/27/2021 7:00:00 AM 0.28 32.504 0.071 6.72 3.7 13.83
1/27/2021 7:15:00 AM 0.27 32.486 0.071 6.73 3.48 13.84
1/27/2021 7:30:00 AM 0.26 32.468 0.071 6.72 3.97 13.85
1/27/2021 7:45:00 AM 0.25 32.45 0.071 6.73 5.68 13.86
1/27/2021 8:00:00 AM 0.24 32.432 0.071 6.73 3.45 13.89
1/27/2021 8:15:00 AM 0.23 32.414 0.071 6.73 3.74 13.93
1/27/2021 8:30:00 AM 0.23 32.414 0.071 6.75 3.95 13.97
1/27/2021 8:45:00 AM 0.24 32.432 0.071 6.76 3.12 14.02
1/27/2021 9:00:00 AM 0.25 32.45 0.071 6.76 3.27 14.06
1/27/2021 9:15:00 AM 0.26 32.468 0.071 6.77 3.18 14.11
1/27/2021 9:30:00 AM 0.28 32.504 0.071 6.79 3.11 14.14
1/27/2021 9:45:00 AM 0.31 32.558 0.071 6.8 3.02 14.17
1/27/2021 10:00:00 AM 0.34 32.612 0.071 6.8 3.14 14.19
1/27/2021 10:15:00 AM 0.37 32.666 0.071 6.81 3.04 14.21
1/27/2021 10:30:00 AM 0.4 32.72 0.07 6.81 2.84 14.22
1/27/2021 10:45:00 AM 0.43 32.774 0.07 6.82 2.91 14.23
1/27/2021 11:00:00 AM 0.46 32.828 0.07 6.83 2.89 14.23
1/27/2021 11:15:00 AM 0.46 32.828 0.07 6.82 3.06 14.23
1/27/2021 11:30:00 AM 0.49 32.882 0.07 6.84 3.05 14.24
1/27/2021 11:45:00 AM 0.54 32.972 0.07 6.84 3 14.23
1/27/2021 12:00:00 PM 0.59 33.062 0.07 6.86 2.94 14.24
1/27/2021 12:15:00 PM 0.64 33.152 0.07 6.85 2.89 14.22
1/27/2021 12:30:00 PM 0.69 33.242 0.07 6.86 3.02 14.22
1/27/2021 12:45:00 PM 0.71 33.278 0.069 6.86 2.86 14.21
1/27/2021 1:00:00 PM 0.74 33.332 0.07 6.85 2.89 14.19
1/27/2021 1:15:00 PM 0.75 33.35 0.069 6.85 2.89 14.19
1/27/2021 1:30:00 PM 0.75 33.35 0.07 6.86 2.86 14.18
1/27/2021 1:45:00 PM 0.75 33.35 0.069 6.85 3.01 14.17
1/27/2021 2:00:00 PM 0.76 33.368 0.069 6.85 2.94 14.16
1/27/2021 2:15:00 PM 0.77 33.386 0.069 6.85 2.9 14.15
1/27/2021 2:30:00 PM 0.78 33.404 0.069 6.86 2.97 14.14
1/27/2021 2:45:00 PM 0.79 33.422 0.069 6.86 3.37 14.14
1/27/2021 3:00:00 PM 0.8 33.44 0.069 6.85 2.93 14.13
1/27/2021 3:15:00 PM 0.79 33.422 0.069 6.86 2.74 14.12
1/27/2021 3:30:00 PM 0.78 33.404 0.069 6.85 2.54 14.11
1/27/2021 3:45:00 PM 0.77 33.386 0.069 6.85 2.97 14.11
1/27/2021 4:00:00 PM 0.76 33.368 0.069 6.84 3.06 14.09
1/27/2021 4:15:00 PM 0.75 33.35 0.069 6.84 3.07 14.08
1/27/2021 4:30:00 PM 0.73 33.314 0.069 6.84 3.03 14.05
1/27/2021 4:45:00 PM 0.7 33.26 0.069 6.83 2.91 14.03
1/27/2021 5:00:00 PM 0.66 33.188 0.069 6.83 2.83 14.01
1/27/2021 5:15:00 PM 0.62 33.116 0.069 6.82 2.99 13.99
1/27/2021 5:30:00 PM 0.57 33.026 0.069 6.81 3.06 13.97
1/27/2021 5:45:00 PM 0.53 32.954 0.069 6.8 3.08 13.94
1/27/2021 6:00:00 PM 0.48 32.864 0.069 6.8 3 13.92
1/27/2021 6:15:00 PM 0.45 32.81 0.069 6.79 2.98 13.9
1/27/2021 6:30:00 PM 0.42 32.756 0.069 6.78 3.36 13.89
1/27/2021 6:45:00 PM 0.38 32.684 0.069 6.77 2.84 13.88
1/27/2021 7:00:00 PM 0.33 32.594 0.069 6.76 2.82 13.89
1/27/2021 7:15:00 PM 0.28 32.504 0.069 6.76 2.86 13.9
1/27/2021 7:30:00 PM 0.25 32.45 0.069 6.76 2.74 13.9
1/27/2021 7:45:00 PM 0.22 32.396 0.069 6.75 2.93 13.91
1/27/2021 8:00:00 PM 0.19 32.342 0.069 6.75 3.17 13.93
1/27/2021 8:15:00 PM 0.14 32.252 0.069 6.74 2.76 13.93
1/27/2021 8:30:00 PM 0.09 32.162 0.069 6.75 2.74 13.95
1/27/2021 8:45:00 PM 0.04 32.072 0.069 6.74 2.8 13.97
1/27/2021 9:00:00 PM -0.02 31.964 0.069 6.73 2.84 13.99
1/27/2021 9:15:00 PM -0.06 31.892 0.069 6.74 2.69 14.01
1/27/2021 9:30:00 PM -0.11 31.802 0.07 6.75 2.71 14.03
1/27/2021 9:45:00 PM -0.1 31.82 0.07 6.74 2.78 14.04
1/27/2021 10:00:00 PM -0.08 31.856 0.071 6.75 2.79 14.05
1/27/2021 10:15:00 PM -0.08 31.856 0.071 6.75 2.69 14.06
1/27/2021 10:30:00 PM -0.08 31.856 0.071 6.75 2.68 14.09
1/27/2021 10:45:00 PM -0.07 31.874 0.071 6.76 3.02 14.09
1/27/2021 11:00:00 PM -0.07 31.874 0.071 6.75 2.8 14.1
1/27/2021 11:15:00 PM -0.08 31.856 0.071 6.76 3.11 14.1
1/27/2021 11:30:00 PM -0.08 31.856 0.071 6.75 2.78 14.12
1/27/2021 11:45:00 PM -0.08 31.856 0.071 6.76 2.66 14.13
1/28/2021 12:00:00 AM -0.07 31.874 0.071 6.75 2.65 14.12
1/28/2021 12:15:00 AM -0.07 31.874 0.071 6.76 2.66 14.13
1/28/2021 12:30:00 AM -0.07 31.874 0.072 6.75 2.67 14.12
1/28/2021 12:45:00 AM -0.07 31.874 0.072 6.75 2.69 14.1
1/28/2021 1:00:00 AM -0.07 31.874 0.072 6.75 2.72 14.1
1/28/2021 1:15:00 AM -0.07 31.874 0.071 6.74 2.75 14.08
1/28/2021 1:30:00 AM -0.07 31.874 0.071 6.74 2.74 14.1
1/28/2021 1:45:00 AM -0.07 31.874 0.07 6.73 2.77 14.08
1/28/2021 2:00:00 AM -0.07 31.874 0.07 6.73 2.81 14.08
1/28/2021 2:15:00 AM -0.07 31.874 0.07 6.74 2.84 14.1
1/28/2021 2:30:00 AM -0.07 31.874 0.07 6.74 2.83 14.1
1/28/2021 2:45:00 AM -0.07 31.874 0.07 6.73 2.78 14.11
1/28/2021 3:00:00 AM -0.07 31.874 0.07 6.74 2.72 14.09
1/28/2021 3:15:00 AM -0.07 31.874 0.07 6.74 2.75 14.11
1/28/2021 3:30:00 AM -0.07 31.874 0.07 6.75 2.71 14.11
1/28/2021 3:45:00 AM -0.07 31.874 0.07 6.74 2.81 14.1
1/28/2021 4:00:00 AM -0.07 31.874 0.07 6.75 2.73 14.1
1/28/2021 4:15:00 AM -0.07 31.874 0.07 6.75 2.7 14.09
1/28/2021 4:30:00 AM -0.07 31.874 0.07 6.74 2.7 14.08
1/28/2021 4:45:00 AM -0.07 31.874 0.07 6.74 2.72 14.08
1/28/2021 5:00:00 AM -0.07 31.874 0.07 6.73 2.67 14.08
1/28/2021 5:15:00 AM -0.07 31.874 0.07 6.74 2.67 14.08
1/28/2021 5:30:00 AM -0.07 31.874 0.071 6.74 2.71 14.07
1/28/2021 5:45:00 AM -0.07 31.874 0.071 6.74 2.66 14.05
1/28/2021 6:00:00 AM -0.07 31.874 0.071 6.74 2.68 14.04
1/28/2021 6:15:00 AM -0.07 31.874 0.071 6.73 2.76 14.05
1/28/2021 6:30:00 AM -0.07 31.874 0.071 6.74 2.7 14.04
1/28/2021 6:45:00 AM -0.07 31.874 0.071 6.73 2.71 14.05
1/28/2021 7:00:00 AM -0.07 31.874 0.071 6.74 2.68 14.05
1/28/2021 7:15:00 AM -0.07 31.874 0.071 6.74 2.71 14.07
1/28/2021 7:30:00 AM -0.07 31.874 0.071 6.73 2.7 14.07
1/28/2021 7:45:00 AM -0.07 31.874 0.071 6.73 2.72 14.09
1/28/2021 8:00:00 AM -0.07 31.874 0.071 6.74 2.74 14.11
1/28/2021 8:15:00 AM -0.07 31.874 0.072 6.74 2.7 14.13
1/28/2021 8:30:00 AM -0.07 31.874 0.072 6.75 2.7 14.19
1/28/2021 8:45:00 AM -0.07 31.874 0.072 6.75 2.67 14.25
1/28/2021 9:00:00 AM -0.07 31.874 0.072 6.76 2.75 14.29
1/28/2021 9:15:00 AM -0.07 31.874 0.072 6.76 2.76 14.34
1/28/2021 9:30:00 AM -0.07 31.874 0.072 6.78 2.74 14.38
1/28/2021 9:45:00 AM -0.07 31.874 0.072 6.78 2.71 14.41
1/28/2021 10:00:00 AM -0.07 31.874 0.072 6.79 2.89 14.43
1/28/2021 10:15:00 AM -0.07 31.874 0.072 6.8 2.79 14.46
1/28/2021 10:30:00 AM -0.07 31.874 0.072 6.81 2.76 14.48
1/28/2021 10:45:00 AM -0.06 31.892 0.072 6.82 2.9 14.48
1/28/2021 11:00:00 AM -0.06 31.892 0.072 6.82 2.75 14.51
1/28/2021 11:15:00 AM -0.07 31.874 0.071 6.83 2.93 14.52
1/28/2021 11:30:00 AM -0.05 31.91 0.071 6.83 2.84 14.48
1/28/2021 11:45:00 AM -0.05 31.91 0.071 6.82 2.82 14.5
1/28/2021 12:00:00 PM -0.02 31.964 0.071 6.81 2.94 14.49
1/28/2021 12:15:00 PM 0 32 0.07 6.82 2.97 14.46
1/28/2021 12:30:00 PM 0.02 32.036 0.071 6.85 2.93 14.46
1/28/2021 12:45:00 PM 0.03 32.054 0.071 6.83 3 14.46
1/28/2021 1:00:00 PM 0.06 32.108 0.071 6.84 2.99 14.45
1/28/2021 1:15:00 PM 0.09 32.162 0.071 6.84 2.93 14.43
1/28/2021 1:30:00 PM 0.11 32.198 0.071 6.84 2.98 14.43
1/28/2021 1:45:00 PM 0.13 32.234 0.07 6.85 2.89 14.41
1/28/2021 2:00:00 PM 0.09 32.162 0.069 6.84 2.88 14.41
1/28/2021 2:15:00 PM 0.06 32.108 0.069 6.83 2.86 14.41
1/28/2021 2:30:00 PM 0.03 32.054 0.069 6.83 2.86 14.42
1/28/2021 2:45:00 PM 0.02 32.036 0.069 6.84 2.8 14.41
1/28/2021 3:00:00 PM 0.01 32.018 0.069 6.84 2.92 14.42
1/28/2021 3:15:00 PM 0 32 0.07 6.85 2.77 14.43
1/28/2021 3:30:00 PM -0.02 31.964 0.07 6.84 2.88 14.45
1/28/2021 3:45:00 PM -0.03 31.946 0.07 6.85 2.8 14.46
1/28/2021 4:00:00 PM -0.04 31.928 0.07 6.86 2.82 14.47
1/28/2021 4:15:00 PM -0.05 31.91 0.07 6.86 2.83 14.49
1/28/2021 4:30:00 PM -0.08 31.856 0.071 6.86 2.73 14.48
1/28/2021 4:45:00 PM -0.09 31.838 0.07 6.85 2.83 14.49
1/28/2021 5:00:00 PM -0.08 31.856 0.07 6.85 2.83 14.48
1/28/2021 5:15:00 PM -0.08 31.856 0.07 6.84 2.83 14.44
1/28/2021 5:30:00 PM -0.08 31.856 0.07 6.83 2.82 14.4
1/28/2021 5:45:00 PM -0.07 31.874 0.07 6.82 2.79 14.36
1/28/2021 6:00:00 PM -0.07 31.874 0.07 6.81 2.86 14.33
1/28/2021 6:15:00 PM -0.07 31.874 0.07 6.81 2.84 14.31
1/28/2021 6:30:00 PM -0.08 31.856 0.07 6.8 2.87 14.29
1/28/2021 6:45:00 PM -0.07 31.874 0.07 6.8 2.85 14.26
1/28/2021 7:00:00 PM -0.07 31.874 0.069 6.79 2.88 14.26
1/28/2021 7:15:00 PM -0.07 31.874 0.069 6.79 2.8 14.25
1/28/2021 7:30:00 PM -0.07 31.874 0.069 6.78 2.84 14.23
1/28/2021 7:45:00 PM -0.07 31.874 0.069 6.78 2.89 14.23
1/28/2021 8:00:00 PM -0.07 31.874 0.069 6.77 2.85 14.2
1/28/2021 8:15:00 PM -0.07 31.874 0.069 6.77 2.92 14.21
1/28/2021 8:30:00 PM -0.07 31.874 0.069 6.77 2.89 14.19
1/28/2021 8:45:00 PM -0.07 31.874 0.069 6.77 3.01 14.2
1/28/2021 9:00:00 PM -0.07 31.874 0.069 6.78 2.96 14.19
1/28/2021 9:15:00 PM -0.07 31.874 0.069 6.77 2.93 14.18
1/28/2021 9:30:00 PM -0.07 31.874 0.07 6.77 2.92 14.17
1/28/2021 9:45:00 PM -0.07 31.874 0.069 6.77 2.96 14.17
1/28/2021 10:00:00 PM -0.07 31.874 0.069 6.76 2.95 14.16
1/28/2021 10:15:00 PM -0.07 31.874 0.069 6.76 2.81 14.16
1/28/2021 10:30:00 PM -0.07 31.874 0.069 6.76 2.85 14.15
1/28/2021 10:45:00 PM -0.07 31.874 0.069 6.76 2.77 14.13
1/28/2021 11:00:00 PM -0.07 31.874 0.069 6.76 2.86 14.13
1/28/2021 11:15:00 PM -0.07 31.874 0.069 6.76 2.85 14.14
1/28/2021 11:30:00 PM -0.07 31.874 0.069 6.75 2.87 14.14
1/28/2021 11:45:00 PM -0.07 31.874 0.069 6.75 2.88 14.12
1/29/2021 12:00:00 AM -0.07 31.874 0.069 6.75 2.96 14.13
1/29/2021 12:15:00 AM -0.07 31.874 0.069 6.75 2.88 14.13
1/29/2021 12:30:00 AM -0.07 31.874 0.069 6.74 2.86 14.1
1/29/2021 12:45:00 AM -0.07 31.874 0.069 6.75 2.89 14.12
1/29/2021 1:00:00 AM -0.07 31.874 0.069 6.74 2.88 14.1
1/29/2021 1:15:00 AM -0.07 31.874 0.069 6.74 2.82 14.1
1/29/2021 1:30:00 AM -0.07 31.874 0.069 6.74 2.84 14.1
1/29/2021 1:45:00 AM -0.07 31.874 0.069 6.75 2.84 14.1
1/29/2021 2:00:00 AM -0.07 31.874 0.069 6.74 2.8 14.07
1/29/2021 2:15:00 AM -0.07 31.874 0.069 6.74 2.8 14.08
1/29/2021 2:30:00 AM -0.07 31.874 0.069 6.73 2.82 14.08
1/29/2021 2:45:00 AM -0.07 31.874 0.069 6.74 2.82 14.08
1/29/2021 3:00:00 AM -0.07 31.874 0.07 6.74 2.81 14.07
1/29/2021 3:15:00 AM -0.07 31.874 0.07 6.73 2.82 14.09
1/29/2021 3:30:00 AM -0.07 31.874 0.071 6.73 2.83 14.07
1/29/2021 3:45:00 AM -0.07 31.874 0.071 6.73 2.81 14.08
1/29/2021 4:00:00 AM -0.07 31.874 0.07 6.73 2.84 14.09
1/29/2021 4:15:00 AM -0.07 31.874 0.072 6.73 2.81 14.08
1/29/2021 4:30:00 AM -0.07 31.874 0.071 6.73 2.84 14.07
1/29/2021 4:45:00 AM -0.07 31.874 0.071 6.73 2.82 14.07
1/29/2021 5:00:00 AM -0.07 31.874 0.07 6.73 2.82 14.07
1/29/2021 5:15:00 AM -0.07 31.874 0.07 6.73 2.85 14.08
1/29/2021 5:30:00 AM -0.07 31.874 0.07 6.73 2.86 14.06
1/29/2021 5:45:00 AM -0.07 31.874 0.07 6.72 2.81 14.08
1/29/2021 6:00:00 AM -0.07 31.874 0.07 6.73 2.86 14.08
1/29/2021 6:15:00 AM -0.07 31.874 0.07 6.73 2.81 14.06
1/29/2021 6:30:00 AM -0.07 31.874 0.07 6.73 3.12 14.07
1/29/2021 6:45:00 AM -0.07 31.874 0.07 6.73 2.85 14.07
1/29/2021 7:00:00 AM -0.07 31.874 0.071 6.73 2.85 14.06
1/29/2021 7:15:00 AM -0.07 31.874 0.071 6.73 2.84 14.06
1/29/2021 7:30:00 AM -0.07 31.874 0.071 6.73 2.83 14.07
1/29/2021 7:45:00 AM -0.07 31.874 0.071 6.73 2.86 14.07
1/29/2021 8:00:00 AM -0.07 31.874 0.071 6.74 2.8 14.08
1/29/2021 8:15:00 AM -0.07 31.874 0.071 6.74 2.86 14.12
1/29/2021 8:30:00 AM -0.07 31.874 0.071 6.75 2.86 14.15
1/29/2021 8:45:00 AM -0.07 31.874 0.071 6.75 2.85 14.21
1/29/2021 9:00:00 AM -0.07 31.874 0.071 6.76 2.83 14.25
1/29/2021 9:15:00 AM -0.07 31.874 0.071 6.78 2.8 14.31
1/29/2021 9:30:00 AM -0.07 31.874 0.071 6.79 2.88 14.36
1/29/2021 9:45:00 AM -0.07 31.874 0.071 6.79 3 14.4
1/29/2021 10:00:00 AM -0.06 31.892 0.07 6.79 3.01 14.43
1/29/2021 10:15:00 AM -0.06 31.892 0.07 6.78 3.04 14.46
1/29/2021 10:30:00 AM -0.06 31.892 0.07 6.78 3.2 14.48
1/29/2021 10:45:00 AM -0.06 31.892 0.069 6.8 3.29 14.49
1/29/2021 11:00:00 AM -0.04 31.928 0.07 6.79 3.33 14.51
1/29/2021 11:15:00 AM -0.04 31.928 0.07 6.81 3.14 14.53
1/29/2021 11:30:00 AM -0.01 31.982 0.069 6.82 3.15 14.53
1/29/2021 11:45:00 AM 0 32 0.069 6.82 3.31 14.53
1/29/2021 12:00:00 PM -0.02 31.964 0.069 6.83 3.32 14.52
1/29/2021 12:15:00 PM -0.02 31.964 0.069 6.84 3.57 14.52
1/29/2021 12:30:00 PM -0.02 31.964 0.069 6.84 2.99 14.53
1/29/2021 12:45:00 PM -0.02 31.964 0.07 6.84 2.91 14.53
1/29/2021 1:00:00 PM -0.02 31.964 0.07 6.84 2.88 14.53
1/29/2021 1:15:00 PM -0.01 31.982 0.07 6.85 2.86 14.54
1/29/2021 1:30:00 PM 0.01 32.018 0.069 6.85 2.91 14.53
1/29/2021 1:45:00 PM 0.01 32.018 0.069 6.85 2.93 14.52
1/29/2021 2:00:00 PM 0 32 0.069 6.85 2.98 14.53
1/29/2021 2:15:00 PM 0 32 0.069 6.84 3.01 14.53
1/29/2021 2:30:00 PM -0.01 31.982 0.069 6.85 3.01 14.53
1/29/2021 2:45:00 PM -0.01 31.982 0.069 6.85 3.01 14.53
1/29/2021 3:00:00 PM -0.01 31.982 0.069 6.85 2.91 14.53
1/29/2021 3:15:00 PM -0.02 31.964 0.069 6.85 2.96 14.53
1/29/2021 3:30:00 PM -0.04 31.928 0.069 6.86 2.9 14.55
1/29/2021 3:45:00 PM -0.04 31.928 0.069 6.85 2.95 14.55
1/29/2021 4:00:00 PM -0.05 31.91 0.069 6.86 2.91 14.55
1/29/2021 4:15:00 PM -0.05 31.91 0.068 6.85 3 14.54
1/29/2021 4:30:00 PM -0.06 31.892 0.068 6.86 2.8 14.54
1/29/2021 4:45:00 PM -0.06 31.892 0.068 6.85 2.86 14.51
1/29/2021 5:00:00 PM -0.07 31.874 0.068 6.83 2.97 14.48
1/29/2021 5:15:00 PM -0.07 31.874 0.068 6.84 2.89 14.44
1/29/2021 5:30:00 PM -0.07 31.874 0.068 6.82 2.94 14.39
1/29/2021 5:45:00 PM -0.07 31.874 0.068 6.81 2.87 14.34
1/29/2021 6:00:00 PM -0.07 31.874 0.068 6.8 2.9 14.29
1/29/2021 6:15:00 PM -0.07 31.874 0.068 6.79 2.85 14.27
1/29/2021 6:30:00 PM -0.07 31.874 0.068 6.78 2.82 14.24
1/29/2021 6:45:00 PM -0.07 31.874 0.068 6.78 2.9 14.21
1/29/2021 7:00:00 PM -0.07 31.874 0.068 6.76 2.82 14.18
1/29/2021 7:15:00 PM -0.07 31.874 0.068 6.76 2.8 14.18
1/29/2021 7:30:00 PM -0.07 31.874 0.068 6.75 2.81 14.16
1/29/2021 7:45:00 PM -0.07 31.874 0.068 6.76 2.76 14.14
1/29/2021 8:00:00 PM -0.07 31.874 0.068 6.74 2.81 14.14
1/29/2021 8:15:00 PM -0.07 31.874 0.068 6.75 2.78 14.11
1/29/2021 8:30:00 PM -0.07 31.874 0.068 6.74 2.89 14.12
1/29/2021 8:45:00 PM -0.07 31.874 0.068 6.73 2.94 14.1
1/29/2021 9:00:00 PM -0.07 31.874 0.068 6.73 2.98 14.11
1/29/2021 9:15:00 PM -0.07 31.874 0.068 6.72 2.96 14.09
1/29/2021 9:30:00 PM -0.07 31.874 0.068 6.74 3.16 14.1
1/29/2021 9:45:00 PM -0.07 31.874 0.067 6.73 2.98 14.09
1/29/2021 10:00:00 PM -0.07 31.874 0.067 6.72 2.9 14.07
1/29/2021 10:15:00 PM -0.07 31.874 0.067 6.72 2.88 14.07
1/29/2021 10:30:00 PM -0.07 31.874 0.067 6.71 2.96 14.08
1/29/2021 10:45:00 PM -0.07 31.874 0.067 6.72 2.96 14.09
1/29/2021 11:00:00 PM -0.07 31.874 0.067 6.71 2.99 14.07
1/29/2021 11:15:00 PM -0.07 31.874 0.067 6.71 3.08 14.08
1/29/2021 11:30:00 PM -0.08 31.856 0.067 6.71 3.08 14.08
1/29/2021 11:45:00 PM -0.07 31.874 0.067 6.7 3.1 14.08
1/30/2021 12:00:00 AM -0.08 31.856 0.067 6.71 2.88 14.09
1/30/2021 12:15:00 AM -0.07 31.874 0.067 6.71 3 14.09
1/30/2021 12:30:00 AM -0.07 31.874 0.067 6.7 2.99 14.09
1/30/2021 12:45:00 AM -0.07 31.874 0.067 6.71 2.86 14.09
1/30/2021 1:00:00 AM -0.07 31.874 0.067 6.7 2.8 14.08
1/30/2021 1:15:00 AM -0.07 31.874 0.067 6.7 2.9 14.09
1/30/2021 1:30:00 AM -0.07 31.874 0.067 6.71 3.53 14.09
1/30/2021 1:45:00 AM -0.07 31.874 0.067 6.7 3.4 14.08
1/30/2021 2:00:00 AM -0.07 31.874 0.067 6.69 3.68 14.08
1/30/2021 2:15:00 AM -0.07 31.874 0.067 6.7 3.69 14.09
1/30/2021 2:30:00 AM -0.07 31.874 0.067 6.69 3.01 14.08
1/30/2021 2:45:00 AM -0.07 31.874 0.067 6.7 3.06 14.07
1/30/2021 3:00:00 AM -0.07 31.874 0.067 6.7 3.01 14.07
1/30/2021 3:15:00 AM -0.07 31.874 0.067 6.7 3.16 14.09
1/30/2021 3:30:00 AM -0.07 31.874 0.067 6.7 3.16 14.08
1/30/2021 3:45:00 AM -0.07 31.874 0.067 6.7 3.47 14.09
1/30/2021 4:00:00 AM -0.07 31.874 0.067 6.7 4.79 14.07
1/30/2021 4:15:00 AM -0.07 31.874 0.067 6.7 6.93 14.08
1/30/2021 4:30:00 AM -0.07 31.874 0.067 6.7 26.05 14.08
1/30/2021 4:45:00 AM -0.07 31.874 0.068 6.7 2.38 14.07
1/30/2021 5:00:00 AM -0.07 31.874 0.068 6.71 2.49 14.08
1/30/2021 5:15:00 AM -0.07 31.874 0.068 6.71 2.42 14.08
1/30/2021 5:30:00 AM -0.07 31.874 0.068 6.7 2.77 14.08
1/30/2021 5:45:00 AM -0.07 31.874 0.065 6.71 2.37 14.09
1/30/2021 6:00:00 AM -0.07 31.874 0.068 6.7 4.06 14.09
1/30/2021 6:15:00 AM -0.07 31.874 0.068 6.7 2.38 14.07
1/30/2021 6:30:00 AM -0.07 31.874 0.068 6.69 8.62 14.09
1/30/2021 6:45:00 AM -0.07 31.874 0.068 6.71 2.38 14.08
1/30/2021 7:00:00 AM -0.07 31.874 0.068 6.7 2.4 14.09
1/30/2021 7:15:00 AM -0.07 31.874 0.068 6.7 2.42 14.09
1/30/2021 7:30:00 AM -0.07 31.874 0.068 6.7 86.68 14.09
1/30/2021 7:45:00 AM -0.07 31.874 0.068 6.7 3.24 14.12
1/30/2021 8:00:00 AM -0.07 31.874 0.069 6.71 2.48 14.15
1/30/2021 8:15:00 AM -0.07 31.874 0.068 6.71 2.52 14.2
1/30/2021 8:30:00 AM -0.07 31.874 0.068 6.72 2.34 14.25
1/30/2021 8:45:00 AM -0.07 31.874 0.068 6.73 2.45 14.29
1/30/2021 9:00:00 AM -0.06 31.892 0.067 6.74 2.44 14.36
1/30/2021 9:15:00 AM -0.06 31.892 0.068 6.75 2.53 14.4
1/30/2021 9:30:00 AM -0.05 31.91 0.068 6.75 2.48 14.43
1/30/2021 9:45:00 AM -0.05 31.91 0.068 6.75 2.46 14.48
1/30/2021 10:00:00 AM -0.03 31.946 0.069 6.76 2.53 14.51
1/30/2021 10:15:00 AM -0.02 31.964 0.068 6.77 2.6 14.53
1/30/2021 10:30:00 AM -0.03 31.946 0.068 6.78 2.66 14.55
1/30/2021 10:45:00 AM 0 32 0.068 6.79 1290.89 14.56
1/30/2021 11:00:00 AM -0.01 31.982 0.067 6.78 28.46 14.56
1/30/2021 11:15:00 AM 0.01 32.018 0.067 6.8 15.33 14.58
1/30/2021 11:30:00 AM 0.02 32.036 0.067 6.79 2.64 14.57
1/30/2021 11:45:00 AM 0.06 32.108 0.067 6.8 2.65 14.56
1/30/2021 12:00:00 PM 0.06 32.108 0.067 6.81 2.65 14.54
1/30/2021 12:15:00 PM 0.07 32.126 0.067 6.81 3.13 14.54
1/30/2021 12:30:00 PM 0.07 32.126 0.067 6.82 2.68 14.53
1/30/2021 12:45:00 PM 0.07 32.126 0.067 6.82 73.57 14.51
1/30/2021 1:00:00 PM 0.08 32.144 0.062 6.83 2.81 14.51
1/30/2021 1:15:00 PM 0.1 32.18 0.067 6.83 2.7 14.49
1/30/2021 1:30:00 PM 0.09 32.162 0.067 6.84 2.55 14.48
1/30/2021 1:45:00 PM 0.08 32.144 0.067 6.83 2.59 14.46
1/30/2021 2:00:00 PM 0.08 32.144 0.067 6.84 2.56 14.45
1/30/2021 2:15:00 PM 0.07 32.126 0.066 6.83 3.62 14.44
1/30/2021 2:30:00 PM 0.06 32.108 0.066 6.82 3.09 14.43
1/30/2021 2:45:00 PM 0.05 32.09 0.066 6.84 2.56 14.43
1/30/2021 3:00:00 PM 0.04 32.072 0.066 6.84 2.58 14.44
1/30/2021 3:15:00 PM 0.02 32.036 0.066 6.84 2.63 14.42
1/30/2021 3:30:00 PM 0 32 0.066 6.84 2.91 14.43
1/30/2021 3:45:00 PM -0.01 31.982 0.066 6.84 2.45 14.43
1/30/2021 4:00:00 PM -0.03 31.946 0.066 6.84 2.71 14.42
1/30/2021 4:15:00 PM -0.04 31.928 0.066 6.84 2.46 14.43
1/30/2021 4:30:00 PM -0.05 31.91 0.065 6.83 2.69 14.43
1/30/2021 4:45:00 PM -0.06 31.892 0.065 6.83 2.53 14.42
1/30/2021 5:00:00 PM -0.07 31.874 0.065 6.82 2.45 14.42
1/30/2021 5:15:00 PM -0.08 31.856 0.065 6.82 2.4 14.4
1/30/2021 5:30:00 PM -0.09 31.838 0.065 6.8 2.49 14.36
1/30/2021 5:45:00 PM -0.09 31.838 0.066 6.81 3.33 14.33
1/30/2021 6:00:00 PM -0.09 31.838 0.066 6.8 2.45 14.3
1/30/2021 6:15:00 PM -0.09 31.838 0.066 6.79 2.41 14.28
1/30/2021 6:30:00 PM -0.09 31.838 0.066 6.78 2.46 14.25
1/30/2021 6:45:00 PM -0.09 31.838 0.066 6.78 1666.5 14.24
1/30/2021 7:00:00 PM -0.08 31.856 0.066 6.76 3.37 14.21
1/30/2021 7:15:00 PM -0.08 31.856 0.065 6.76 2.5 14.21
1/30/2021 7:30:00 PM -0.08 31.856 0.065 6.75 2.8 14.19
1/30/2021 7:45:00 PM -0.08 31.856 0.066 6.75 2.19 14.18
1/30/2021 8:00:00 PM -0.08 31.856 0.065 6.76 2.57 14.19
1/30/2021 8:15:00 PM -0.08 31.856 0.065 6.75 2.45 14.18
1/30/2021 8:30:00 PM -0.08 31.856 0.065 6.75 2.72 14.17
1/30/2021 8:45:00 PM -0.08 31.856 0.066 6.74 3.27 14.18
1/30/2021 9:00:00 PM -0.08 31.856 0.065 6.74 2.93 14.16
1/30/2021 9:15:00 PM -0.08 31.856 0.065 6.74 2.21 14.17
1/30/2021 9:30:00 PM -0.08 31.856 0.065 6.73 2.16 14.17
1/30/2021 9:45:00 PM -0.08 31.856 0.065 6.73 2.25 14.16
1/30/2021 10:00:00 PM -0.08 31.856 0.065 6.73 2.25 14.14
1/30/2021 10:15:00 PM -0.08 31.856 0.065 6.72 2.23 14.15
1/30/2021 10:30:00 PM -0.08 31.856 0.065 6.72 2.26 14.15
1/30/2021 10:45:00 PM -0.07 31.874 0.065 6.72 2.37 14.14
1/30/2021 11:00:00 PM -0.07 31.874 0.065 6.73 2.26 14.13
1/30/2021 11:15:00 PM -0.07 31.874 0.065 6.73 2.1 14.13
1/30/2021 11:30:00 PM -0.07 31.874 0.065 6.73 2.49 14.12
1/30/2021 11:45:00 PM -0.07 31.874 0.065 6.72 4.85 14.11
1/31/2021 12:00:00 AM -0.07 31.874 0.065 6.72 2.14 14.11
1/31/2021 12:15:00 AM -0.07 31.874 0.066 6.72 2.14 14.1
1/31/2021 12:30:00 AM -0.07 31.874 0.066 6.72 2.16 14.1
1/31/2021 12:45:00 AM -0.07 31.874 0.066 6.72 2.13 14.1
1/31/2021 1:00:00 AM -0.07 31.874 0.066 6.72 2.26 14.1
1/31/2021 1:15:00 AM -0.07 31.874 0.066 6.72 2.22 14.07
1/31/2021 1:30:00 AM -0.07 31.874 0.066 6.72 2.62 14.09
1/31/2021 1:45:00 AM -0.07 31.874 0.066 6.72 2.54 14.09
1/31/2021 2:00:00 AM -0.07 31.874 0.066 6.72 2.07 14.08
1/31/2021 2:15:00 AM -0.07 31.874 0.066 6.71 2.22 14.08
1/31/2021 2:30:00 AM -0.07 31.874 0.066 6.73 2.48 14.07
1/31/2021 2:45:00 AM -0.07 31.874 0.066 6.71 2.12 14.07
1/31/2021 3:00:00 AM -0.07 31.874 0.058 6.71 2.12 14.06
1/31/2021 3:15:00 AM -0.07 31.874 0.066 6.71 2.14 14.07
1/31/2021 3:30:00 AM -0.07 31.874 0.067 6.72 2.15 14.05
1/31/2021 3:45:00 AM -0.07 31.874 0.067 6.71 2.2 14.06
1/31/2021 4:00:00 AM -0.07 31.874 0.067 6.72 2.21 14.06
1/31/2021 4:15:00 AM -0.07 31.874 0.067 6.73 2.14 14.05
1/31/2021 4:30:00 AM -0.07 31.874 0.067 6.7 2.41 14.03
1/31/2021 4:45:00 AM -0.07 31.874 0.067 6.73 2.45 14.04
1/31/2021 5:00:00 AM -0.07 31.874 0.066 6.71 2.19 14.03
1/31/2021 5:15:00 AM -0.07 31.874 0.067 6.71 2.21 14.03
1/31/2021 5:30:00 AM -0.07 31.874 0.067 6.71 2.24 14.03
1/31/2021 5:45:00 AM -0.07 31.874 0.067 6.71 2.55 14.03
1/31/2021 6:00:00 AM -0.07 31.874 0.067 6.72 2.38 14.03
1/31/2021 6:15:00 AM -0.07 31.874 0.067 6.71 2.3 14
1/31/2021 6:30:00 AM -0.07 31.874 0.068 6.72 2.19 14.02
1/31/2021 6:45:00 AM -0.07 31.874 0.068 6.71 2.21 14.01
1/31/2021 7:00:00 AM -0.07 31.874 0.068 6.72 2.15 14.01
1/31/2021 7:15:00 AM -0.07 31.874 0.068 6.72 2.19 14
1/31/2021 7:30:00 AM -0.07 31.874 0.068 6.71 2.26 14.01
1/31/2021 7:45:00 AM -0.07 31.874 0.068 6.72 2.23 14
1/31/2021 8:00:00 AM -0.07 31.874 0.068 6.71 2.3 14.02
1/31/2021 8:15:00 AM -0.07 31.874 0.068 6.72 2.2 14.02
1/31/2021 8:30:00 AM -0.07 31.874 0.068 6.72 2.24 14.03
1/31/2021 8:45:00 AM -0.07 31.874 0.068 6.71 2.2 14.07
1/31/2021 9:00:00 AM -0.07 31.874 0.068 6.72 2.25 14.09
1/31/2021 9:15:00 AM -0.07 31.874 0.068 6.73 2.22 14.12
1/31/2021 9:30:00 AM -0.07 31.874 0.068 6.74 2.3 14.16
1/31/2021 9:45:00 AM -0.07 31.874 0.067 6.75 2.18 14.19
1/31/2021 10:00:00 AM -0.06 31.892 0.067 6.75 2.28 14.23
1/31/2021 10:15:00 AM -0.06 31.892 0.067 6.76 2.3 14.27
1/31/2021 10:30:00 AM -0.05 31.91 0.067 6.77 2.55 14.29
1/31/2021 10:45:00 AM -0.05 31.91 0.067 6.78 4.23 14.34
1/31/2021 11:00:00 AM -0.04 31.928 0.067 6.79 4.17 14.35
1/31/2021 11:15:00 AM -0.03 31.946 0.067 6.75 2.42 14.39
1/31/2021 11:30:00 AM -0.02 31.964 0.067 6.8 2.19 14.4
1/31/2021 11:45:00 AM -0.02 31.964 0.067 6.78 2.25 14.4
1/31/2021 12:00:00 PM -0.02 31.964 0.067 6.79 2.48 14.42
1/31/2021 12:15:00 PM -0.02 31.964 0.067 6.82 2.14 14.42
1/31/2021 12:30:00 PM -0.02 31.964 0.067 6.81 2.23 14.43
1/31/2021 12:45:00 PM -0.02 31.964 0.067 6.81 2.23 14.42
1/31/2021 1:00:00 PM -0.02 31.964 0.067 6.82 2.3 14.43
1/31/2021 1:15:00 PM -0.01 31.982 0.067 6.82 2.13 14.42
1/31/2021 1:30:00 PM -0.01 31.982 0.066 6.82 2.33 14.43
1/31/2021 1:45:00 PM 0 32 0.066 6.81 3.56 14.43
1/31/2021 2:00:00 PM 0.01 32.018 0.066 6.81 3.31 14.43
1/31/2021 2:15:00 PM 0 32 0.066 6.82 4.48 14.43
1/31/2021 2:30:00 PM 0 32 0.066 6.82 3.54 14.43
1/31/2021 2:45:00 PM 0.01 32.018 0.066 6.82 4.51 14.41
1/31/2021 3:00:00 PM 0.01 32.018 0.065 6.82 4.52 14.42
1/31/2021 3:15:00 PM 0 32 0.065 6.82 3.66 14.42
1/31/2021 3:30:00 PM -0.01 31.982 0.065 6.83 2.72 14.42
1/31/2021 3:45:00 PM -0.02 31.964 0.065 6.83 2.81 14.4
1/31/2021 4:00:00 PM -0.03 31.946 0.064 6.82 2.53 14.38
1/31/2021 4:15:00 PM -0.04 31.928 0.065 6.83 3.65 14.38
1/31/2021 4:30:00 PM -0.04 31.928 0.064 6.82 2.33 14.37
1/31/2021 4:45:00 PM -0.05 31.91 0.064 6.82 2.52 14.34
1/31/2021 5:00:00 PM -0.06 31.892 0.064 6.82 2.15 14.3
1/31/2021 5:15:00 PM -0.06 31.892 0.064 6.79 2.14 14.28
1/31/2021 5:30:00 PM -0.06 31.892 0.064 6.8 2.15 14.22
1/31/2021 5:45:00 PM -0.07 31.874 0.064 6.78 2.09 14.17
1/31/2021 6:00:00 PM -0.07 31.874 0.064 6.78 2.51 14.15
1/31/2021 6:15:00 PM -0.07 31.874 0.064 6.78 2.52 14.1
1/31/2021 6:30:00 PM -0.07 31.874 0.065 6.76 2.68 14.09
1/31/2021 6:45:00 PM -0.07 31.874 0.065 6.76 2.81 14.06
1/31/2021 7:00:00 PM -0.07 31.874 0.065 6.75 5.63 14.05
1/31/2021 7:15:00 PM -0.07 31.874 0.065 6.75 3.1 14.03
1/31/2021 7:30:00 PM -0.07 31.874 0.065 6.75 3.13 14.02
1/31/2021 7:45:00 PM -0.07 31.874 0.064 6.73 2.92 14.01
1/31/2021 8:00:00 PM -0.07 31.874 0.064 6.73 2.92 13.99
1/31/2021 8:15:00 PM -0.07 31.874 0.064 6.72 2.93 13.98
1/31/2021 8:30:00 PM -0.07 31.874 0.064 6.72 2.84 13.96
1/31/2021 8:45:00 PM -0.07 31.874 0.064 6.73 3 13.97
1/31/2021 9:00:00 PM -0.07 31.874 0.065 6.72 2.93 13.97
1/31/2021 9:15:00 PM -0.07 31.874 0.065 6.72 2.94 13.97
1/31/2021 9:30:00 PM -0.07 31.874 0.064 6.73 2.64 13.96
1/31/2021 9:45:00 PM -0.07 31.874 0.064 6.71 2.63 13.96
1/31/2021 10:00:00 PM -0.07 31.874 0.064 6.71 2.7 13.93
1/31/2021 10:15:00 PM -0.07 31.874 0.064 6.7 2.7 13.94
1/31/2021 10:30:00 PM -0.07 31.874 0.064 6.69 2.74 13.94
1/31/2021 10:45:00 PM -0.07 31.874 0.064 6.7 2.58 13.92
1/31/2021 11:00:00 PM -0.07 31.874 0.064 6.71 2.7 13.93
1/31/2021 11:15:00 PM -0.07 31.874 0.064 6.69 2.76 13.91
1/31/2021 11:30:00 PM -0.07 31.874 0.065 6.71 2.68 13.93
1/31/2021 11:45:00 PM -0.07 31.874 0.065 6.7 2.74 13.92
2/1/2021 12:00:00 AM -0.07 31.874 0.066 6.7 2.77 13.91
2/1/2021 12:15:00 AM -0.07 31.874 0.067 6.7 2.81 13.9
2/1/2021 12:30:00 AM -0.07 31.874 0.067 6.7 2.75 13.89
2/1/2021 12:45:00 AM -0.07 31.874 0.068 6.69 2.93 13.89
2/1/2021 1:00:00 AM -0.07 31.874 0.067 6.7 2.98 13.9
2/1/2021 1:15:00 AM -0.07 31.874 0.068 6.7 2.74 13.88
2/1/2021 1:30:00 AM -0.07 31.874 0.067 6.7 2.94 13.88
2/1/2021 1:45:00 AM -0.07 31.874 0.066 6.7 3.05 13.88
2/1/2021 2:00:00 AM -0.07 31.874 0.065 6.71 3.06 13.87
2/1/2021 2:15:00 AM -0.07 31.874 0.067 6.7 3.53 13.89
2/1/2021 2:30:00 AM -0.07 31.874 0.068 6.69 3.45 13.89
2/1/2021 2:45:00 AM -0.07 31.874 0.067 6.69 3.35 13.88
2/1/2021 3:00:00 AM -0.07 31.874 0.067 6.69 3.4 13.88
2/1/2021 3:15:00 AM -0.07 31.874 0.067 6.69 3.34 13.87
2/1/2021 3:30:00 AM -0.07 31.874 0.067 6.69 3.16 13.87
2/1/2021 3:45:00 AM -0.07 31.874 0.067 6.68 3.1 13.86
2/1/2021 4:00:00 AM -0.07 31.874 0.067 6.68 3.3 13.86
2/1/2021 4:15:00 AM -0.07 31.874 0.066 6.68 3.17 13.87
2/1/2021 4:30:00 AM -0.07 31.874 0.067 6.69 3.21 13.85
2/1/2021 4:45:00 AM -0.07 31.874 0.066 6.68 3.43 13.85
2/1/2021 5:00:00 AM -0.07 31.874 0.066 6.69 3.36 13.84
2/1/2021 5:15:00 AM -0.07 31.874 0.066 6.69 3.35 13.86
2/1/2021 5:30:00 AM -0.07 31.874 0.066 6.68 3.4 13.84
2/1/2021 5:45:00 AM -0.07 31.874 0.067 6.69 3.49 13.86
2/1/2021 6:00:00 AM -0.07 31.874 0.068 6.69 3.49 13.84
2/1/2021 6:15:00 AM -0.07 31.874 0.071 6.68 3.37 13.84
2/1/2021 6:30:00 AM -0.07 31.874 0.071 6.69 3.33 13.86
2/1/2021 6:45:00 AM -0.07 31.874 0.071 6.68 3.33 13.86
2/1/2021 7:00:00 AM -0.07 31.874 0.074 6.68 3.33 13.85
2/1/2021 7:15:00 AM -0.07 31.874 0.072 6.69 3.33 13.83
2/1/2021 7:30:00 AM -0.07 31.874 0.073 6.69 3.33 13.84
2/1/2021 7:45:00 AM -0.07 31.874 0.074 6.69 3.36 13.86
2/1/2021 8:00:00 AM -0.06 31.892 0.073 6.7 3.34 13.9
2/1/2021 8:15:00 AM -0.06 31.892 0.073 6.69 3.28 13.92
2/1/2021 8:30:00 AM -0.06 31.892 0.072 6.7 6911.33 13.97
2/1/2021 8:45:00 AM -0.06 31.892 0.071 6.72 3.54 13.99
2/1/2021 9:00:00 AM -0.05 31.91 0.071 6.72 6.02 14.05
2/1/2021 9:15:00 AM -0.05 31.91 0.07 6.73 3.31 14.08
2/1/2021 9:30:00 AM -0.04 31.928 0.071 6.73 3.38 14.13
2/1/2021 9:45:00 AM -0.04 31.928 0.071 6.75 3.32 14.16
2/1/2021 10:00:00 AM -0.03 31.946 0.071 6.76 3.28 14.19
2/1/2021 10:15:00 AM -0.02 31.964 0.072 6.77 3.34 14.21
2/1/2021 10:30:00 AM -0.01 31.982 0.071 6.78 3.27 14.23
2/1/2021 10:45:00 AM -0.01 31.982 0.07 6.78 3.31 14.25
2/1/2021 11:00:00 AM 0 32 0.07 6.78 3.36 14.27
2/1/2021 11:15:00 AM 0.01 32.018 0.07 6.8 3.41 14.28
2/1/2021 11:30:00 AM 0.02 32.036 0.068 6.8 3.28 14.29
2/1/2021 11:45:00 AM 0.03 32.054 0.068 6.8 3.22 14.29
2/1/2021 12:00:00 PM 0.02 32.036 0.068 6.81 3.21 14.29
2/1/2021 12:15:00 PM 0.02 32.036 0.068 6.81 3.08 14.29
2/1/2021 12:30:00 PM 0.02 32.036 0.074 6.82 3.2 14.29
2/1/2021 12:45:00 PM 0.03 32.054 0.074 6.83 3.09 14.3
2/1/2021 1:00:00 PM 0.03 32.054 0.073 6.83 3.15 14.29
2/1/2021 1:15:00 PM 0.03 32.054 0.071 6.83 3.16 14.29
2/1/2021 1:30:00 PM 0.04 32.072 0.068 6.83 3.1 14.29
2/1/2021 1:45:00 PM 0.04 32.072 0.068 6.83 3.14 14.29
2/1/2021 2:00:00 PM 0.05 32.09 0.069 6.83 2.95 14.28
2/1/2021 2:15:00 PM 0.08 32.144 0.07 6.85 2.87 14.27
2/1/2021 2:30:00 PM 0.08 32.144 0.071 6.84 2.9 14.27
2/1/2021 2:45:00 PM 0.06 32.108 0.075 6.84 2.87 14.27
2/1/2021 3:00:00 PM 0.04 32.072 0.072 6.84 2.87 14.25
2/1/2021 3:15:00 PM 0.03 32.054 0.069 6.84 2.47 14.25
2/1/2021 3:30:00 PM 0.02 32.036 0.07 6.84 2.62 14.25
2/1/2021 3:45:00 PM 0.02 32.036 0.07 6.85 2.56 14.25
2/1/2021 4:00:00 PM 0.01 32.018 0.07 6.84 2.6 14.25
2/1/2021 4:15:00 PM 0 32 0.068 6.83 2.4 14.24
2/1/2021 4:30:00 PM -0.01 31.982 0.066 6.84 2.52 14.21
2/1/2021 4:45:00 PM -0.02 31.964 0.065 6.83 2.42 14.2
2/1/2021 5:00:00 PM -0.02 31.964 0.064 6.82 2.4 14.17
2/1/2021 5:15:00 PM -0.03 31.946 0.064 6.82 2.39 14.15
2/1/2021 5:30:00 PM -0.04 31.928 0.067 6.8 2.68 14.1
2/1/2021 5:45:00 PM -0.04 31.928 0.065 6.8 2.59 14.06
2/1/2021 6:00:00 PM -0.05 31.91 0.064 6.79 2.4 14.03
2/1/2021 6:15:00 PM -0.05 31.91 0.064 6.78 2.4 13.99
2/1/2021 6:30:00 PM -0.06 31.892 0.066 6.77 2.22 13.98
2/1/2021 6:45:00 PM -0.06 31.892 0.068 6.77 2.43 13.96
2/1/2021 7:00:00 PM -0.06 31.892 0.069 6.77 2.38 13.94
2/1/2021 7:15:00 PM -0.06 31.892 0.068 6.76 2.31 13.93
2/1/2021 7:30:00 PM -0.06 31.892 0.067 6.76 2.4 13.93
2/1/2021 7:45:00 PM -0.06 31.892 0.066 6.75 2.32 13.92
2/1/2021 8:00:00 PM -0.06 31.892 0.066 6.74 2.33 13.91
2/1/2021 8:15:00 PM -0.06 31.892 0.065 6.74 2.4 13.91
2/1/2021 8:30:00 PM -0.07 31.874 0.065 6.74 2.34 13.9
2/1/2021 8:45:00 PM -0.07 31.874 0.064 6.74 2.44 13.9
2/1/2021 9:00:00 PM -0.07 31.874 0.064 6.73 2.37 13.9
2/1/2021 9:15:00 PM -0.07 31.874 0.065 6.73 2.38 13.88
2/1/2021 9:30:00 PM -0.07 31.874 0.064 6.73 2.43 13.89
2/1/2021 9:45:00 PM -0.07 31.874 0.064 6.73 2.41 13.89
2/1/2021 10:00:00 PM -0.07 31.874 0.064 6.72 2.44 13.89
2/1/2021 10:15:00 PM -0.07 31.874 0.065 6.73 2.38 13.87
2/1/2021 10:30:00 PM -0.07 31.874 0.065 6.72 2.48 13.89
2/1/2021 10:45:00 PM -0.07 31.874 0.065 6.72 2.36 13.87
2/1/2021 11:00:00 PM -0.07 31.874 0.065 6.73 2.48 13.87
2/1/2021 11:15:00 PM -0.07 31.874 0.065 6.73 2.36 13.88
2/1/2021 11:30:00 PM -0.07 31.874 0.065 6.72 2.34 13.87
2/1/2021 11:45:00 PM -0.07 31.874 0.065 6.72 2.33 13.88
2/2/2021 12:00:00 AM -0.07 31.874 0.065 6.72 2.31 13.88
2/2/2021 12:15:00 AM -0.07 31.874 0.065 6.72 2.5 13.86
2/2/2021 12:30:00 AM -0.07 31.874 0.065 6.72 2.52 13.88
2/2/2021 12:45:00 AM -0.07 31.874 0.065 6.72 2.36 13.88
2/2/2021 1:00:00 AM -0.07 31.874 0.065 6.72 3.36 13.86
2/2/2021 1:15:00 AM -0.07 31.874 0.065 6.72 2.98 13.87
2/2/2021 1:30:00 AM -0.07 31.874 0.065 6.72 2.77 13.86
2/2/2021 1:45:00 AM -0.07 31.874 0.065 6.72 3.03 13.86
2/2/2021 2:00:00 AM -0.07 31.874 0.065 6.71 2.39 13.85
2/2/2021 2:15:00 AM -0.07 31.874 0.065 6.71 2.63 13.85
2/2/2021 2:30:00 AM -0.07 31.874 0.065 6.71 2.58 13.86
2/2/2021 2:45:00 AM -0.07 31.874 0.065 6.71 2.24 13.86
2/2/2021 3:00:00 AM -0.07 31.874 0.065 6.71 2.91 13.86
2/2/2021 3:15:00 AM -0.07 31.874 0.065 6.72 2.42 13.85
2/2/2021 3:30:00 AM -0.07 31.874 0.065 6.72 2.57 13.86
2/2/2021 3:45:00 AM -0.07 31.874 0.065 6.71 2.44 13.84
2/2/2021 4:00:00 AM -0.07 31.874 0.066 6.72 2.08 13.85
2/2/2021 4:15:00 AM -0.07 31.874 0.065 6.72 2.09 13.85
2/2/2021 4:30:00 AM -0.07 31.874 0.065 6.71 2.08 13.85
2/2/2021 4:45:00 AM -0.07 31.874 0.065 6.7 3.61 13.85
2/2/2021 5:00:00 AM -0.07 31.874 0.065 6.72 2.3 13.85
2/2/2021 5:15:00 AM -0.07 31.874 0.065 6.71 2.49 13.85
2/2/2021 5:30:00 AM -0.07 31.874 0.065 6.71 2.55 13.85
2/2/2021 5:45:00 AM -0.07 31.874 0.065 6.71 2.17 13.85
2/2/2021 6:00:00 AM -0.07 31.874 0.065 6.71 4.22 13.83
2/2/2021 6:15:00 AM -0.07 31.874 0.065 6.72 5.77 13.85
2/2/2021 6:30:00 AM -0.07 31.874 0.065 6.71 2.88 13.85
2/2/2021 6:45:00 AM -0.07 31.874 0.066 6.71 5.31 13.84
2/2/2021 7:00:00 AM -0.07 31.874 0.069 6.71 2.2 13.83
2/2/2021 7:15:00 AM -0.07 31.874 0.06 6.72 2.14 13.85
2/2/2021 7:30:00 AM -0.07 31.874 0.071 6.71 334 13.83
2/2/2021 7:45:00 AM -0.07 31.874 0.073 6.71 6.16 13.84
2/2/2021 8:00:00 AM -0.07 31.874 0.073 6.72 39.99 13.87
2/2/2021 8:15:00 AM -0.07 31.874 0.07 6.72 3.62 13.9
2/2/2021 8:30:00 AM -0.07 31.874 0.071 6.72 4.32 13.94
2/2/2021 8:45:00 AM -0.06 31.892 0.07 6.73 3.39 13.97
2/2/2021 9:00:00 AM -0.06 31.892 0.07 6.74 14.77 14.01
2/2/2021 9:15:00 AM -0.05 31.91 0.065 6.75 3.08 14.05
2/2/2021 9:30:00 AM -0.05 31.91 0.068 6.76 2.44 14.08
2/2/2021 9:45:00 AM -0.05 31.91 0.068 6.77 15.51 14.1
2/2/2021 10:00:00 AM -0.04 31.928 0.068 6.78 3.65 14.14
2/2/2021 10:15:00 AM -0.04 31.928 0.068 6.78 3.21 14.14
2/2/2021 10:30:00 AM -0.04 31.928 0.068 6.79 3.88 14.17
2/2/2021 10:45:00 AM -0.03 31.946 0.068 6.79 4.45 14.19
2/2/2021 11:00:00 AM -0.03 31.946 0.067 6.8 5.03 14.21
2/2/2021 11:15:00 AM -0.02 31.964 0.067 6.81 5.04 14.22
2/2/2021 11:30:00 AM -0.01 31.982 0.067 6.81 5.76 14.21
2/2/2021 11:45:00 AM -0.01 31.982 0.067 6.82 6.39 14.22
2/2/2021 12:00:00 PM 0 32 0.066 6.82 6.43 14.24
2/2/2021 12:15:00 PM 0.01 32.018 0.066 6.83 2.01 14.24
2/2/2021 12:30:00 PM 0.01 32.018 0.066 6.83 2.12 14.23
2/2/2021 12:45:00 PM -0.01 31.982 0.065 6.82 3.6 14.23
2/2/2021 1:00:00 PM -0.02 31.964 0.065 6.82 4.18 14.21
2/2/2021 1:15:00 PM -0.03 31.946 0.065 6.83 3.57 14.21
2/2/2021 1:30:00 PM -0.04 31.928 0.064 6.86 2185.54 14.2
2/2/2021 1:45:00 PM -0.04 31.928 0.064 6.83 4.32 14.2
2/2/2021 2:00:00 PM -0.04 31.928 0.064 6.82 3.32 14.18
2/2/2021 2:15:00 PM -0.04 31.928 0.064 6.83 3.54 14.18
2/2/2021 2:30:00 PM -0.04 31.928 0.064 6.83 3.91 14.18
2/2/2021 2:45:00 PM -0.05 31.91 0.064 6.83 2.8 14.19
2/2/2021 3:00:00 PM -0.05 31.91 0.065 6.83 2.88 14.19
2/2/2021 3:15:00 PM -0.05 31.91 0.069 6.84 2.81 14.18
2/2/2021 3:30:00 PM -0.05 31.91 0.069 6.83 2.91 14.18
2/2/2021 3:45:00 PM -0.05 31.91 0.068 6.83 2.69 14.17
2/2/2021 4:00:00 PM -0.05 31.91 0.068 6.83 2.67 14.18
2/2/2021 4:15:00 PM -0.05 31.91 0.067 6.82 2.48 14.15
2/2/2021 4:30:00 PM -0.06 31.892 0.067 6.83 2.7 14.16
2/2/2021 4:45:00 PM -0.06 31.892 0.067 6.82 2.74 14.14
2/2/2021 5:00:00 PM -0.07 31.874 0.067 6.83 2.59 14.13
2/2/2021 5:15:00 PM -0.07 31.874 0.067 6.81 2.87 14.08
2/2/2021 5:30:00 PM -0.07 31.874 0.066 6.8 2.88 14.06
2/2/2021 5:45:00 PM -0.07 31.874 0.066 6.8 2.64 14.02
2/2/2021 6:00:00 PM -0.07 31.874 0.067 6.79 2.61 13.97
2/2/2021 6:15:00 PM -0.07 31.874 0.069 6.78 2.79 13.95
2/2/2021 6:30:00 PM -0.07 31.874 0.069 6.78 2.74 13.93
2/2/2021 6:45:00 PM -0.07 31.874 0.07 6.76 3.17 13.91
2/2/2021 7:00:00 PM -0.07 31.874 0.069 6.75 3.07 13.9
2/2/2021 7:15:00 PM -0.07 31.874 0.069 6.75 2.86 13.87
2/2/2021 7:30:00 PM -0.07 31.874 0.067 6.75 2.62 13.87
2/2/2021 7:45:00 PM -0.07 31.874 0.068 6.74 2.54 13.86
2/2/2021 8:00:00 PM -0.07 31.874 0.067 6.75 2.56 13.84
2/2/2021 8:15:00 PM -0.07 31.874 0.067 6.74 2.76 13.83
2/2/2021 8:30:00 PM -0.07 31.874 0.067 6.74 2.84 13.83
2/2/2021 8:45:00 PM -0.07 31.874 0.067 6.74 2.77 13.81
2/2/2021 9:00:00 PM -0.07 31.874 0.068 6.74 2.58 13.81
2/2/2021 9:15:00 PM -0.07 31.874 0.068 6.74 2.58 13.81
2/2/2021 9:30:00 PM -0.07 31.874 0.068 6.73 2.69 13.81
2/2/2021 9:45:00 PM -0.07 31.874 0.069 6.73 2.53 13.81
2/2/2021 10:00:00 PM -0.07 31.874 0.068 6.73 2.61 13.81
2/2/2021 10:15:00 PM -0.07 31.874 0.068 6.72 2.64 13.8
2/2/2021 10:30:00 PM -0.07 31.874 0.068 6.73 2.67 13.8
2/2/2021 10:45:00 PM -0.07 31.874 0.068 6.73 2.65 13.78
2/2/2021 11:00:00 PM -0.07 31.874 0.067 6.73 2.71 13.78
2/2/2021 11:15:00 PM -0.07 31.874 0.067 6.72 2.59 13.79
2/2/2021 11:30:00 PM -0.07 31.874 0.067 6.72 2.54 13.77
2/2/2021 11:45:00 PM -0.07 31.874 0.067 6.72 2.55 13.79
2/3/2021 12:00:00 AM -0.07 31.874 0.067 6.73 2.52 13.78
2/3/2021 12:15:00 AM -0.07 31.874 0.067 6.72 2.54 13.78
2/3/2021 12:30:00 AM -0.07 31.874 0.067 6.72 2.86 13.78
2/3/2021 12:45:00 AM -0.07 31.874 0.067 6.73 2.92 13.78
2/3/2021 1:00:00 AM -0.07 31.874 0.067 6.72 3.76 13.78
2/3/2021 1:15:00 AM -0.07 31.874 0.067 6.72 2.86 13.76
2/3/2021 1:30:00 AM -0.07 31.874 0.068 6.72 2.92 13.77
2/3/2021 1:45:00 AM -0.07 31.874 0.068 6.73 2.7 13.78
2/3/2021 2:00:00 AM -0.07 31.874 0.067 6.71 2.55 13.77
2/3/2021 2:15:00 AM -0.07 31.874 0.067 6.72 2.56 13.77
2/3/2021 2:30:00 AM -0.07 31.874 0.068 6.72 2.5 13.77
2/3/2021 2:45:00 AM -0.07 31.874 0.067 6.72 2.56 13.78
2/3/2021 3:00:00 AM -0.07 31.874 0.068 6.71 2.57 13.76
2/3/2021 3:15:00 AM -0.07 31.874 0.068 6.72 2.58 13.76
2/3/2021 3:30:00 AM -0.07 31.874 0.068 6.72 2.49 13.76
2/3/2021 3:45:00 AM -0.07 31.874 0.068 6.72 2.38 13.77
2/3/2021 4:00:00 AM -0.07 31.874 0.067 6.72 2.4 13.76
2/3/2021 4:15:00 AM -0.07 31.874 0.067 6.71 2.41 13.77
2/3/2021 4:30:00 AM -0.07 31.874 0.067 6.71 2.4 13.77
2/3/2021 4:45:00 AM -0.07 31.874 0.067 6.71 2.4 13.77
2/3/2021 5:00:00 AM -0.07 31.874 0.067 6.72 2.45 13.77
2/3/2021 5:15:00 AM -0.07 31.874 0.067 6.72 2.41 13.77
2/3/2021 5:30:00 AM -0.07 31.874 0.067 6.72 2.47 13.78
2/3/2021 5:45:00 AM -0.07 31.874 0.066 6.71 2.41 13.77
2/3/2021 6:00:00 AM -0.07 31.874 0.066 6.71 2.36 13.76
2/3/2021 6:15:00 AM -0.07 31.874 0.067 6.71 2.35 13.78
2/3/2021 6:30:00 AM -0.07 31.874 0.066 6.72 2.37 13.78
2/3/2021 6:45:00 AM -0.07 31.874 0.066 6.71 2.47 13.77
2/3/2021 7:00:00 AM -0.07 31.874 0.068 6.71 2.45 13.79
2/3/2021 7:15:00 AM -0.07 31.874 0.068 6.71 2.46 13.78
2/3/2021 7:30:00 AM -0.07 31.874 0.068 6.72 2.44 13.79
2/3/2021 7:45:00 AM -0.07 31.874 0.068 6.72 2.36 13.8
2/3/2021 8:00:00 AM -0.07 31.874 0.067 6.72 2.44 13.81
2/3/2021 8:15:00 AM -0.07 31.874 0.067 6.72 2.55 13.84
2/3/2021 8:30:00 AM -0.07 31.874 0.067 6.73 2.53 13.87
2/3/2021 8:45:00 AM -0.06 31.892 0.067 6.73 2.65 13.91
2/3/2021 9:00:00 AM -0.06 31.892 0.066 6.73 2.55 13.95
2/3/2021 9:15:00 AM -0.06 31.892 0.067 6.75 2.6 13.99
2/3/2021 9:30:00 AM -0.05 31.91 0.067 6.75 2.42 14.04
2/3/2021 9:45:00 AM -0.04 31.928 0.073 6.77 2.38 14.08
2/3/2021 10:00:00 AM -0.04 31.928 0.072 6.78 2.59 14.11
2/3/2021 10:15:00 AM -0.03 31.946 0.073 6.79 2.44 14.14
2/3/2021 10:30:00 AM -0.02 31.964 0.071 6.8 2.34 14.16
2/3/2021 10:45:00 AM 0 32 0.071 6.8 2.38 14.17
2/3/2021 11:00:00 AM 0.02 32.036 0.071 6.82 2.37 14.18
2/3/2021 11:15:00 AM 0.04 32.072 0.07 6.82 2.32 14.19
2/3/2021 11:30:00 AM 0.06 32.108 0.072 6.83 2.32 14.17
2/3/2021 11:45:00 AM 0.08 32.144 0.08 6.85 2.34 14.17
2/3/2021 12:00:00 PM 0.11 32.198 0.081 6.85 2.4 14.15
2/3/2021 12:15:00 PM 0.12 32.216 0.085 6.86 2.42 14.14
2/3/2021 12:30:00 PM 0.14 32.252 0.086 6.85 2.44 14.13
2/3/2021 12:45:00 PM 0.14 32.252 0.081 6.84 2.42 14.11
2/3/2021 1:00:00 PM 0.15 32.27 0.076 6.85 2.41 14.09
2/3/2021 1:15:00 PM 0.16 32.288 0.074 6.85 2.38 14.08
2/3/2021 1:30:00 PM 0.17 32.306 0.073 6.85 2.41 14.07
2/3/2021 1:45:00 PM 0.16 32.288 0.072 6.84 2.45 14.06
2/3/2021 2:00:00 PM 0.17 32.306 0.08 6.86 2.82 14.05
2/3/2021 2:15:00 PM 0.16 32.288 0.075 6.84 2.63 14.04
2/3/2021 2:30:00 PM 0.15 32.27 0.078 6.85 2.97 14.04
2/3/2021 2:45:00 PM 0.15 32.27 0.076 6.84 2.58 14.04
2/3/2021 3:00:00 PM 0.13 32.234 0.08 6.85 2.82 14.03
2/3/2021 3:15:00 PM 0.11 32.198 0.074 6.85 2.36 14.04
2/3/2021 3:30:00 PM 0.08 32.144 0.074 6.85 2.32 14.04
2/3/2021 3:45:00 PM 0.06 32.108 0.071 6.83 2.29 14.04
2/3/2021 4:00:00 PM 0.04 32.072 0.07 6.84 2.26 14.04
2/3/2021 4:15:00 PM 0.02 32.036 0.068 6.82 2.23 14.04
2/3/2021 4:30:00 PM 0.01 32.018 0.067 6.82 2.12 14.05
2/3/2021 4:45:00 PM 0 32 0.066 6.82 2.17 14.06
2/3/2021 5:00:00 PM -0.02 31.964 0.065 6.82 2.23 14.05
2/3/2021 5:15:00 PM -0.04 31.928 0.065 6.81 2.16 14.05
2/3/2021 5:30:00 PM -0.06 31.892 0.064 6.81 2.2 14.01
2/3/2021 5:45:00 PM -0.07 31.874 0.064 6.8 2.26 14.01
2/3/2021 6:00:00 PM -0.08 31.856 0.064 6.8 2.19 13.98
2/3/2021 6:15:00 PM -0.09 31.838 0.064 6.78 2.19 13.95
2/3/2021 6:30:00 PM -0.09 31.838 0.065 6.77 2.28 13.95
2/3/2021 6:45:00 PM -0.09 31.838 0.065 6.77 2.41 13.94
2/3/2021 7:00:00 PM -0.08 31.856 0.065 6.77 2.22 13.93
2/3/2021 7:15:00 PM -0.08 31.856 0.065 6.76 2.2 13.93
2/3/2021 7:30:00 PM -0.08 31.856 0.065 6.75 2.2 13.93
2/3/2021 7:45:00 PM -0.08 31.856 0.065 6.76 2.18 13.93
2/3/2021 8:00:00 PM -0.08 31.856 0.065 6.74 2.22 13.93
2/3/2021 8:15:00 PM -0.08 31.856 0.065 6.75 2.27 13.92
2/3/2021 8:30:00 PM -0.08 31.856 0.065 6.74 2.24 13.93
2/3/2021 8:45:00 PM -0.08 31.856 0.065 6.74 2.25 13.93
2/3/2021 9:00:00 PM -0.08 31.856 0.065 6.74 2.24 13.92
2/3/2021 9:15:00 PM -0.08 31.856 0.066 6.73 2.21 13.93
2/3/2021 9:30:00 PM -0.08 31.856 0.066 6.74 2.22 13.93
2/3/2021 9:45:00 PM -0.08 31.856 0.066 6.73 2.37 13.93
2/3/2021 10:00:00 PM -0.08 31.856 0.066 6.73 2.38 13.92
2/3/2021 10:15:00 PM -0.08 31.856 0.066 6.73 2.43 13.93
2/3/2021 10:30:00 PM -0.08 31.856 0.066 6.72 2.29 13.93
2/3/2021 10:45:00 PM -0.08 31.856 0.065 6.72 2.24 13.91
2/3/2021 11:00:00 PM -0.08 31.856 0.065 6.73 2.4 13.93
2/3/2021 11:15:00 PM -0.08 31.856 0.064 6.72 2.53 13.92
2/3/2021 11:30:00 PM -0.08 31.856 0.065 6.71 2.51 13.92
2/3/2021 11:45:00 PM -0.08 31.856 0.065 6.71 2.4 13.94
2/4/2021 12:00:00 AM -0.08 31.856 0.066 6.72 2.52 13.94
2/4/2021 12:15:00 AM -0.08 31.856 0.067 6.72 2.42 13.94
2/4/2021 12:30:00 AM -0.08 31.856 0.067 6.73 2.4 13.93
2/4/2021 12:45:00 AM -0.08 31.856 0.067 6.73 2.36 13.95
2/4/2021 1:00:00 AM -0.08 31.856 0.067 6.73 2.34 13.95
2/4/2021 1:15:00 AM -0.08 31.856 0.067 6.72 2.37 13.95
2/4/2021 1:30:00 AM -0.08 31.856 0.067 6.72 2.3 13.95
2/4/2021 1:45:00 AM -0.08 31.856 0.067 6.73 2.32 13.95
2/4/2021 2:00:00 AM -0.08 31.856 0.066 6.72 2.35 13.96
2/4/2021 2:15:00 AM -0.08 31.856 0.066 6.72 2.25 13.96
2/4/2021 2:30:00 AM -0.08 31.856 0.067 6.72 2.43 13.96
2/4/2021 2:45:00 AM -0.08 31.856 0.067 6.71 2.41 13.97
2/4/2021 3:00:00 AM -0.08 31.856 0.067 6.71 2.46 13.97
2/4/2021 3:15:00 AM -0.08 31.856 0.067 6.7 2.43 13.96
2/4/2021 3:30:00 AM -0.08 31.856 0.068 6.7 2.51 13.97
2/4/2021 3:45:00 AM -0.08 31.856 0.067 6.69 2.4 13.98
2/4/2021 4:00:00 AM -0.08 31.856 0.067 6.68 2.85 13.98
2/4/2021 4:15:00 AM -0.08 31.856 0.067 6.69 18.12 13.99
2/4/2021 4:30:00 AM -0.08 31.856 0.067 6.67 3.1 13.99
2/4/2021 4:45:00 AM -0.08 31.856 0.067 6.67 6.26 13.99
2/4/2021 5:00:00 AM -0.08 31.856 0.067 6.66 278.41 13.99
2/4/2021 5:15:00 AM -0.08 31.856 0.067 6.66 8.78 13.97
2/4/2021 5:30:00 AM -0.08 31.856 0.067 6.66 2.45 13.99
2/4/2021 5:45:00 AM -0.08 31.856 0.067 6.67 12100.54 14
2/4/2021 6:00:00 AM -0.08 31.856 0.067 6.68 8799.13 14
2/4/2021 6:15:00 AM -0.08 31.856 0.067 6.67 42.07 13.98
2/4/2021 6:30:00 AM -0.08 31.856 0.067 6.66 2.52 14
2/4/2021 6:45:00 AM -0.08 31.856 0.067 6.69 2.53 13.99
2/4/2021 7:00:00 AM -0.08 31.856 0.068 6.69 17.84 14.01
2/4/2021 7:15:00 AM -0.08 31.856 0.068 6.69 2.52 14
2/4/2021 7:30:00 AM -0.08 31.856 0.068 6.7 2.67 14
2/4/2021 7:45:00 AM -0.08 31.856 0.068 6.7 2.64 14.03
2/4/2021 8:00:00 AM -0.08 31.856 0.068 6.7 2.64 14.06
2/4/2021 8:15:00 AM -0.07 31.874 0.069 6.71 2.66 14.1
2/4/2021 8:30:00 AM -0.07 31.874 0.069 6.72 2.64 14.13
2/4/2021 8:45:00 AM -0.07 31.874 0.069 6.73 2.61 14.18
2/4/2021 9:00:00 AM -0.07 31.874 0.069 6.73 2.64 14.23
2/4/2021 9:15:00 AM -0.07 31.874 0.069 6.74 2.73 14.25
2/4/2021 9:30:00 AM -0.07 31.874 0.068 6.73 2.66 14.3
2/4/2021 9:45:00 AM -0.06 31.892 0.069 6.73 3.86 14.33
2/4/2021 10:00:00 AM -0.06 31.892 0.069 6.72 2.69 14.34
2/4/2021 10:15:00 AM -0.06 31.892 0.069 6.71 2.56 14.37
2/4/2021 10:30:00 AM -0.05 31.91 0.069 6.74 2.5 14.36
2/4/2021 10:45:00 AM -0.05 31.91 0.069 6.73 2.46 14.36
2/4/2021 11:00:00 AM -0.04 31.928 0.069 6.73 280.87 14.37
2/4/2021 11:15:00 AM -0.05 31.91 0.068 6.8 2.71 14.37
2/4/2021 11:30:00 AM -0.04 31.928 0.068 6.76 2.33 14.36
2/4/2021 11:45:00 AM -0.04 31.928 0.069 6.78 2.6 14.35
2/4/2021 12:00:00 PM -0.03 31.946 0.069 6.8 2.34 14.34
2/4/2021 12:15:00 PM -0.03 31.946 0.069 6.82 2.55 14.33
2/4/2021 12:30:00 PM -0.02 31.964 0.068 6.77 2.77 14.32
2/4/2021 12:45:00 PM -0.02 31.964 0.068 6.77 2.78 14.3
2/4/2021 1:00:00 PM -0.01 31.982 0.068 6.78 2.92 14.27
2/4/2021 1:15:00 PM -0.01 31.982 0.068 6.79 2.84 14.27
2/4/2021 1:30:00 PM 0 32 0.068 6.8 2.81 14.26
2/4/2021 1:45:00 PM 0.01 32.018 0.058 6.79 2.64 14.25
2/4/2021 2:00:00 PM 0.01 32.018 0.074 6.82 2.64 14.24
2/4/2021 2:15:00 PM 0.01 32.018 0.074 6.82 2.57 14.24
2/4/2021 2:30:00 PM 0.02 32.036 0.08 6.83 2.63 14.23
2/4/2021 2:45:00 PM 0.02 32.036 0.081 6.85 2.58 14.23
2/4/2021 3:00:00 PM 0.04 32.072 0.084 6.86 2.9 14.23
2/4/2021 3:15:00 PM 0.04 32.072 0.085 6.87 2.87 14.23
2/4/2021 3:30:00 PM 0.01 32.018 0.081 6.87 2.77 14.23
2/4/2021 3:45:00 PM -0.01 31.982 0.076 6.86 2.57 14.21
2/4/2021 4:00:00 PM -0.02 31.964 0.074 6.86 2.54 14.22
2/4/2021 4:15:00 PM -0.03 31.946 0.073 6.85 2.48 14.2
2/4/2021 4:30:00 PM -0.04 31.928 0.071 6.84 2.39 14.21
2/4/2021 4:45:00 PM -0.05 31.91 0.071 6.85 2.29 14.19
2/4/2021 5:00:00 PM -0.05 31.91 0.07 6.84 2.33 14.19
2/4/2021 5:15:00 PM -0.06 31.892 0.069 6.82 2.28 14.16
2/4/2021 5:30:00 PM -0.07 31.874 0.069 6.83 2.31 14.14
2/4/2021 5:45:00 PM -0.08 31.856 0.069 6.81 2.3 14.08
2/4/2021 6:00:00 PM -0.08 31.856 0.069 6.8 2.3 14.07
2/4/2021 6:15:00 PM -0.08 31.856 0.069 6.8 2.32 14.02
2/4/2021 6:30:00 PM -0.08 31.856 0.069 6.79 2.36 14.02
2/4/2021 6:45:00 PM -0.08 31.856 0.069 6.78 2.39 13.99
2/4/2021 7:00:00 PM -0.08 31.856 0.069 6.77 2.35 13.98
2/4/2021 7:15:00 PM -0.08 31.856 0.069 6.77 2.45 13.95
2/4/2021 7:30:00 PM -0.07 31.874 0.069 6.77 2.37 13.94
2/4/2021 7:45:00 PM -0.07 31.874 0.069 6.76 2.34 13.93
2/4/2021 8:00:00 PM -0.07 31.874 0.069 6.76 2.29 13.94
2/4/2021 8:15:00 PM -0.07 31.874 0.069 6.75 2.31 13.92
2/4/2021 8:30:00 PM -0.07 31.874 0.069 6.75 2.26 13.92
2/4/2021 8:45:00 PM -0.07 31.874 0.069 6.74 2.25 13.9
2/4/2021 9:00:00 PM -0.07 31.874 0.069 6.75 2.26 13.9
2/4/2021 9:15:00 PM -0.07 31.874 0.069 6.74 2.27 13.89
2/4/2021 9:30:00 PM -0.07 31.874 0.069 6.74 2.27 13.87
2/4/2021 9:45:00 PM -0.07 31.874 0.068 6.74 2.21 13.86
2/4/2021 10:00:00 PM -0.07 31.874 0.068 6.74 2.21 13.87
2/4/2021 10:15:00 PM -0.07 31.874 0.068 6.73 2.25 13.87
2/4/2021 10:30:00 PM -0.07 31.874 0.068 6.73 2.27 13.84
2/4/2021 10:45:00 PM -0.07 31.874 0.068 6.73 2.28 13.84
2/4/2021 11:00:00 PM -0.06 31.892 0.067 6.73 2.24 13.84
2/4/2021 11:15:00 PM -0.07 31.874 0.067 6.72 2.21 13.82
2/4/2021 11:30:00 PM -0.06 31.892 0.067 6.73 2.23 13.82
2/4/2021 11:45:00 PM -0.07 31.874 0.067 6.73 2.28 13.83
2/5/2021 12:00:00 AM -0.07 31.874 0.067 6.73 2.26 13.82
2/5/2021 12:15:00 AM -0.06 31.892 0.067 6.72 2.23 13.82
2/5/2021 12:30:00 AM -0.06 31.892 0.066 6.73 2.18 13.8
2/5/2021 12:45:00 AM -0.06 31.892 0.067 6.73 2.21 13.81
2/5/2021 1:00:00 AM -0.06 31.892 0.068 6.73 2.26 13.8
2/5/2021 1:15:00 AM -0.06 31.892 0.068 6.73 2.24 13.8
2/5/2021 1:30:00 AM -0.06 31.892 0.068 6.73 2.24 13.77
2/5/2021 1:45:00 AM -0.06 31.892 0.067 6.74 2.22 13.79
2/5/2021 2:00:00 AM -0.07 31.874 0.068 6.73 2.24 13.77
2/5/2021 2:15:00 AM -0.07 31.874 0.067 6.73 2.21 13.78
2/5/2021 2:30:00 AM -0.07 31.874 0.069 6.73 2.25 13.77
2/5/2021 2:45:00 AM -0.06 31.892 0.072 6.74 2.2 13.76
2/5/2021 3:00:00 AM -0.06 31.892 0.072 6.74 2.18 13.76
2/5/2021 3:15:00 AM -0.06 31.892 0.072 6.74 2.18 13.74
2/5/2021 3:30:00 AM -0.06 31.892 0.071 6.74 2.15 13.75
2/5/2021 3:45:00 AM -0.06 31.892 0.071 6.73 2.21 13.74
2/5/2021 4:00:00 AM -0.06 31.892 0.07 6.74 2.14 13.73
2/5/2021 4:15:00 AM -0.06 31.892 0.069 6.74 2.16 13.72
2/5/2021 4:30:00 AM -0.05 31.91 0.069 6.73 2.2 13.71
2/5/2021 4:45:00 AM -0.05 31.91 0.069 6.74 2.23 13.72
2/5/2021 5:00:00 AM -0.05 31.91 0.069 6.74 2.21 13.71
2/5/2021 5:15:00 AM -0.05 31.91 0.069 6.74 2.22 13.7
2/5/2021 5:30:00 AM -0.05 31.91 0.068 6.74 2.19 13.7
2/5/2021 5:45:00 AM -0.05 31.91 0.069 6.73 2.17 13.7
2/5/2021 6:00:00 AM -0.05 31.91 0.07 6.74 2.15 13.68
2/5/2021 6:15:00 AM -0.05 31.91 0.071 6.74 2.19 13.69
2/5/2021 6:30:00 AM -0.05 31.91 0.07 6.73 2.2 13.69
2/5/2021 6:45:00 AM -0.05 31.91 0.071 6.74 2.15 13.68
2/5/2021 7:00:00 AM -0.05 31.91 0.071 6.74 2.14 13.69
2/5/2021 7:15:00 AM -0.05 31.91 0.07 6.74 2.22 13.68
2/5/2021 7:30:00 AM -0.05 31.91 0.073 6.74 2.2 13.7
2/5/2021 7:45:00 AM -0.05 31.91 0.072 6.74 2.22 13.71
2/5/2021 8:00:00 AM -0.05 31.91 0.072 6.75 2.16 13.75
2/5/2021 8:15:00 AM -0.04 31.928 0.071 6.76 2.13 13.79
2/5/2021 8:30:00 AM -0.03 31.946 0.07 6.76 2.12 13.83
2/5/2021 8:45:00 AM -0.03 31.946 0.069 6.77 2.22 13.87
2/5/2021 9:00:00 AM -0.02 31.964 0.074 6.79 2.11 13.92
2/5/2021 9:15:00 AM -0.01 31.982 0.074 6.8 2.14 13.94
2/5/2021 9:30:00 AM 0 32 0.072 6.8 2.12 13.99